Darstellungsparameter: Aktuell verwendete Einstellungen:
Skalierung der Graphiken ... ?
xyx+y,   Skalierungsfaktor:      Skalierung: Modus: x, Faktor: 1
Darstellungszeitraum ... ?
Vom - - bis: - -   Zeitraum: 25.07.2019 - 24.10.2019
Min/Max/Avg-Anzeige ... ?
Zeige MMA aktuell
Zeige MMA Monat
Zeige MMA alles
Zeige --A aktuell
Zeige --A Monat
Zeige --A alles
Keine MMA-Anzeige
MMA:
Minimum Maximum Average (ber die Originaldaten)
MMA-Basis: 14.04.2020 - 16.05.2020
Quicknavigation für Darstellung... ?
Tage:      1T, 2T, 3T, 5T -1T -2T -3T -5T +1T +2T +3T +5T
Wochen: 1W, 2W, 3W -1W -2W -3W +1W +2W +3W
Monate: 1M, 3M, 6M -1M -3M -6M +1M +3M +6M
Jahre:    1J, 3J, 5J, 10J -1J -3J -5J -10J +1J +3J +5J +10J
Nutze für die Darstellung ... ?
Originaldaten oder Mittelwerte auf ...
Stundenbasis Tagesbasis Wochenbasis
Monatsbasis Jahresbasis      Datenbasis: Original-Daten
Darstellen als:
Statistik (Auto) Statistik J:M      Darstellung:
Zur Graphik,    zurück zur Übersicht aller Sensoren.
 
Tabellarische Datenbersicht: ?
 
Sensor: Nr:Datum:Temp:Abs-Feuchte:Windchill:Wind:
Aussen-T/F 1 25-07-2019 00:00:00 24.3 C 13.72 g/m*3 24.3 C 0 km/h
2 25-07-2019 00:05:00 24 C 13.27 g/m*3 24 C 0 km/h
3 25-07-2019 00:10:00 23.9 C 13.63 g/m*3 23.9 C 0 km/h
4 25-07-2019 00:15:00 23.9 C 13.63 g/m*3 23.9 C 0 km/h
5 25-07-2019 00:20:00 23.8 C 13.55 g/m*3 23.8 C 0 km/h
6 25-07-2019 00:25:00 23.7 C 13.26 g/m*3 23.7 C 0 km/h
7 25-07-2019 00:30:00 23.6 C 13.19 g/m*3 23.6 C 0 km/h
8 25-07-2019 00:35:00 23.6 C 13.61 g/m*3 23.6 C 0 km/h
9 25-07-2019 00:40:00 23.4 C 13.46 g/m*3 23.4 C 0 km/h
10 25-07-2019 00:45:00 23.3 C 13.17 g/m*3 23.3 C 0 km/h
11 25-07-2019 00:50:00 23.4 C 13.46 g/m*3 23.4 C 0 km/h
12 25-07-2019 00:55:00 23.3 C 13.8 g/m*3 23.3 C 0 km/h
13 25-07-2019 01:00:00 23.2 C 13.51 g/m*3 23.2 C 0 km/h
14 25-07-2019 01:05:00 23.1 C 13.44 g/m*3 23.1 C 0 km/h
15 25-07-2019 01:10:00 22.9 C 13.49 g/m*3 22.9 C 0 km/h
16 25-07-2019 01:15:00 22.7 C 13.33 g/m*3 22.7 C 0 km/h
17 25-07-2019 01:20:00 22.6 C 13.46 g/m*3 22.6 C 0 km/h
18 25-07-2019 01:25:00 22.4 C 13.11 g/m*3 22.4 C 0 km/h
19 25-07-2019 01:30:00 22.3 C 13.23 g/m*3 22.3 C 0 km/h
20 25-07-2019 01:35:00 22.3 C 12.83 g/m*3 22.3 C 0 km/h
21 25-07-2019 01:40:00 22.3 C 13.43 g/m*3 22.3 C 0 km/h
22 25-07-2019 01:45:00 22.3 C 13.43 g/m*3 22.3 C 0 km/h
23 25-07-2019 01:50:00 22.2 C 13.35 g/m*3 22.2 C 0 km/h
24 25-07-2019 01:55:00 22.1 C 13.27 g/m*3 22.1 C 0 km/h
25 25-07-2019 02:00:00 22 C 13.39 g/m*3 22 C 0 km/h
Sensor: Nr:Datum:Temp:Abs-Feuchte:Windchill:Wind:
Aussen-T/F 26 25-07-2019 02:05:00 21.9 C 13.51 g/m*3 21.9 C 0 km/h
27 25-07-2019 02:10:00 21.8 C 13.43 g/m*3 21.8 C 0 km/h
28 25-07-2019 02:15:00 21.7 C 13.35 g/m*3 21.7 C 0 km/h
29 25-07-2019 02:20:00 21.7 C 13.35 g/m*3 21.7 C 0 km/h
30 25-07-2019 02:25:00 21.7 C 13.54 g/m*3 21.7 C 0 km/h
31 25-07-2019 02:30:00 21.6 C 13.28 g/m*3 21.6 C 0 km/h
32 25-07-2019 02:35:00 21.5 C 13.2 g/m*3 21.5 C 0 km/h
33 25-07-2019 02:40:00 21.4 C 13.31 g/m*3 21.4 C 0 km/h
34 25-07-2019 02:45:00 21.4 C 13.31 g/m*3 21.4 C 0 km/h
35 25-07-2019 02:50:00 21.3 C 13.42 g/m*3 21.3 C 0 km/h
36 25-07-2019 02:55:00 21.2 C 13.34 g/m*3 21.2 C 0 km/h
37 25-07-2019 03:00:00 21.2 C 13.34 g/m*3 21.2 C 0 km/h
38 25-07-2019 03:05:00 21.2 C 13.53 g/m*3 21.2 C 0 km/h
39 25-07-2019 03:10:00 21.2 C 13.53 g/m*3 21.2 C 0 km/h
40 25-07-2019 03:15:00 21.1 C 13.45 g/m*3 21.1 C 0 km/h
41 25-07-2019 03:20:00 20.9 C 13.48 g/m*3 20.9 C 0 km/h
42 25-07-2019 03:25:00 20.8 C 13.4 g/m*3 20.8 C 0 km/h
43 25-07-2019 03:30:00 20.8 C 13.4 g/m*3 20.8 C 0 km/h
44 25-07-2019 03:35:00 20.8 C 13.4 g/m*3 20.8 C 0 km/h
45 25-07-2019 03:40:00 20.8 C 13.4 g/m*3 20.8 C 0 km/h
46 25-07-2019 03:45:00 20.7 C 13.5 g/m*3 20.7 C 0 km/h
47 25-07-2019 03:50:00 20.6 C 13.42 g/m*3 20.6 C 0 km/h
48 25-07-2019 03:55:00 20.6 C 13.6 g/m*3 20.6 C 0 km/h
49 25-07-2019 04:00:00 20.4 C 13.44 g/m*3 20.4 C 0 km/h
50 25-07-2019 04:05:00 20.3 C 13.37 g/m*3 20.3 C 0 km/h
Sensor: Nr:Datum:Temp:Abs-Feuchte:Windchill:Wind:
Aussen-T/F 51 25-07-2019 04:10:00 20.2 C 13.46 g/m*3 20.2 C 0 km/h
52 25-07-2019 04:15:00 20.1 C 13.39 g/m*3 20.1 C 0 km/h
53 25-07-2019 04:20:00 19.9 C 13.4 g/m*3 19.9 C 0 km/h
54 25-07-2019 04:25:00 20.1 C 13.56 g/m*3 20.1 C 0 km/h
55 25-07-2019 04:30:00 20.1 C 13.56 g/m*3 20.1 C 0 km/h
56 25-07-2019 04:35:00 20.1 C 13.56 g/m*3 20.1 C 0 km/h
57 25-07-2019 04:40:00 20.1 C 13.56 g/m*3 20.1 C 0 km/h
58 25-07-2019 04:45:00 19.9 C 13.57 g/m*3 19.9 C 0 km/h
59 25-07-2019 04:50:00 19.9 C 13.57 g/m*3 19.9 C 0 km/h
60 25-07-2019 04:55:00 19.8 C 13.49 g/m*3 19.8 C 0 km/h
61 25-07-2019 05:00:00 19.7 C 13.41 g/m*3 19.7 C 0 km/h
62 25-07-2019 05:05:00 19.6 C 13.34 g/m*3 19.6 C 0 km/h
63 25-07-2019 05:10:00 19.6 C 13.51 g/m*3 19.6 C 0 km/h
64 25-07-2019 05:15:00 19.4 C 13.35 g/m*3 19.4 C 0 km/h
65 25-07-2019 05:20:00 19.4 C 13.35 g/m*3 19.4 C 0 km/h
66 25-07-2019 05:25:00 19.3 C 13.27 g/m*3 19.3 C 0 km/h
67 25-07-2019 05:30:00 19.3 C 13.27 g/m*3 19.3 C 0 km/h
68 25-07-2019 05:35:00 19.3 C 13.27 g/m*3 19.3 C 0 km/h
69 25-07-2019 05:40:00 19.2 C 13.19 g/m*3 19.2 C 0 km/h
70 25-07-2019 05:45:00 19.2 C 13.19 g/m*3 19.2 C 0 km/h
71 25-07-2019 05:50:00 19.2 C 13.36 g/m*3 19.2 C 0 km/h
72 25-07-2019 05:55:00 19.1 C 13.28 g/m*3 19.1 C 0 km/h
73 25-07-2019 06:00:00 19.1 C 13.44 g/m*3 19.1 C 0 km/h
74 25-07-2019 06:05:00 19.1 C 13.44 g/m*3 19.1 C 0 km/h
75 25-07-2019 06:10:00 19.1 C 13.44 g/m*3 19.1 C 0 km/h
Sensor: Nr:Datum:Temp:Abs-Feuchte:Windchill:Wind:
Aussen-T/F 76 25-07-2019 06:15:00 19.2 C 13.52 g/m*3 19.2 C 0 km/h
77 25-07-2019 06:20:00 19.2 C 13.52 g/m*3 19.2 C 0 km/h
78 25-07-2019 06:25:00 19.1 C 13.44 g/m*3 19.1 C 0 km/h
79 25-07-2019 06:30:00 19.2 C 13.52 g/m*3 19.2 C 0 km/h
80 25-07-2019 06:35:00 19.2 C 13.52 g/m*3 19.2 C 0 km/h
81 25-07-2019 06:40:00 19.2 C 13.52 g/m*3 19.2 C 0 km/h
82 25-07-2019 06:45:00 19.3 C 13.77 g/m*3 19.3 C 0 km/h
83 25-07-2019 06:50:00 19.3 C 13.77 g/m*3 19.3 C 0 km/h
84 25-07-2019 06:55:00 19.3 C 13.77 g/m*3 19.3 C 0 km/h
85 25-07-2019 07:00:00 19.3 C 13.77 g/m*3 19.3 C 0 km/h
86 25-07-2019 07:05:00 19.3 C 13.77 g/m*3 19.3 C 0 km/h
87 25-07-2019 07:10:00 19.4 C 14.01 g/m*3 19.4 C 0 km/h
88 25-07-2019 07:15:00 19.4 C 14.01 g/m*3 19.4 C 0 km/h
89 25-07-2019 07:20:00 19.4 C 14.01 g/m*3 19.4 C 0 km/h
90 25-07-2019 07:25:00 19.5 C 14.1 g/m*3 19.5 C 0 km/h
91 25-07-2019 07:30:00 19.6 C 14.18 g/m*3 19.6 C 0 km/h
92 25-07-2019 07:35:00 19.6 C 14.18 g/m*3 19.6 C 0 km/h
93 25-07-2019 07:40:00 19.7 C 14.26 g/m*3 19.7 C 0 km/h
94 25-07-2019 07:45:00 19.8 C 14.35 g/m*3 19.8 C 0 km/h
95 25-07-2019 07:50:00 19.8 C 14.35 g/m*3 19.8 C 0 km/h
96 25-07-2019 07:55:00 19.9 C 14.43 g/m*3 19.9 C 0 km/h
97 25-07-2019 08:00:00 20 C 14.34 g/m*3 20 C 0 km/h
98 25-07-2019 08:05:00 20.1 C 14.6 g/m*3 20.1 C 0 km/h
99 25-07-2019 08:10:00 20.2 C 14.51 g/m*3 20.2 C 0 km/h
100 25-07-2019 08:15:00 20.3 C 14.42 g/m*3 20.3 C 0 km/h
Sensor: Nr:Datum:Temp:Abs-Feuchte:Windchill:Wind:
Aussen-T/F 101 25-07-2019 08:20:00 20.5 C 14.77 g/m*3 20.5 C 0 km/h
102 25-07-2019 08:25:00 20.7 C 14.94 g/m*3 20.7 C 0 km/h
103 25-07-2019 08:30:00 20.8 C 15.03 g/m*3 20.8 C 0 km/h
104 25-07-2019 08:35:00 20.9 C 14.93 g/m*3 20.9 C 0 km/h
105 25-07-2019 08:40:00 21.1 C 15.29 g/m*3 21.1 C 0 km/h
106 25-07-2019 08:45:00 21.2 C 15.38 g/m*3 21.2 C 0 km/h
107 25-07-2019 08:50:00 21.4 C 15.37 g/m*3 21.4 C 0 km/h
108 25-07-2019 08:55:00 21.6 C 15.55 g/m*3 21.6 C 0 km/h
109 25-07-2019 09:00:00 21.7 C 15.45 g/m*3 21.7 C 0 km/h
110 25-07-2019 09:05:00 21.8 C 15.16 g/m*3 21.8 C 0 km/h
111 25-07-2019 09:10:00 22.1 C 15.81 g/m*3 22.1 C 0 km/h
112 25-07-2019 09:15:00 22.2 C 15.9 g/m*3 22.2 C 0 km/h
113 25-07-2019 09:20:00 22.3 C 15.4 g/m*3 22.3 C 0 km/h
114 25-07-2019 09:25:00 22.6 C 15.67 g/m*3 22.6 C 0 km/h
115 25-07-2019 09:30:00 22.8 C 15.65 g/m*3 22.8 C 0 km/h
116 25-07-2019 09:35:00 23.1 C 15.92 g/m*3 23.1 C 0 km/h
117 25-07-2019 09:40:00 23.3 C 15.68 g/m*3 23.3 C 0 km/h
118 25-07-2019 09:45:00 23.5 C 15.65 g/m*3 23.5 C 0 km/h
119 25-07-2019 09:50:00 23.7 C 15.4 g/m*3 23.7 C 0 km/h
120 25-07-2019 09:55:00 24 C 15.23 g/m*3 24 C 0 km/h
121 25-07-2019 10:00:00 24.3 C 15.49 g/m*3 24.3 C 0 km/h
122 25-07-2019 10:05:00 24.6 C 15.98 g/m*3 24.6 C 0 km/h
123 25-07-2019 10:10:00 24.9 C 16.02 g/m*3 24.9 C 0 km/h
124 25-07-2019 10:15:00 25.1 C 15.97 g/m*3 25.1 C 0 km/h
125 25-07-2019 10:20:00 25.3 C 15.92 g/m*3 25.3 C 0 km/h
Sensor: Nr:Datum:Temp:Abs-Feuchte:Windchill:Wind:
Aussen-T/F 126 25-07-2019 10:25:00 25.6 C 16.43 g/m*3 25.6 C 0 km/h
127 25-07-2019 10:30:00 25.9 C 16.22 g/m*3 25.9 C 0 km/h
128 25-07-2019 10:35:00 26.2 C 16 g/m*3 26.2 C 0 km/h
129 25-07-2019 10:40:00 26.6 C 15.86 g/m*3 26.6 C 0 km/h
130 25-07-2019 10:45:00 26.9 C 15.87 g/m*3 26.9 C 0 km/h
131 25-07-2019 10:50:00 27.2 C 16.39 g/m*3 27.2 C 0 km/h
132 25-07-2019 10:55:00 27.5 C 16.67 g/m*3 27.5 C 0 km/h
133 25-07-2019 11:00:00 27.8 C 16.41 g/m*3 27.8 C 0 km/h
134 25-07-2019 11:05:00 28.2 C 16.5 g/m*3 28.2 C 0 km/h
135 25-07-2019 11:10:00 28.6 C 15.74 g/m*3 28.6 C 1.6 km/h
136 25-07-2019 11:15:00 29.1 C 16.75 g/m*3 29.1 C 0 km/h
137 25-07-2019 11:20:00 29.4 C 15.85 g/m*3 29.4 C 0 km/h
138 25-07-2019 11:25:00 29.8 C 16.5 g/m*3 29.8 C 0 km/h
139 25-07-2019 11:30:00 30.1 C 16.46 g/m*3 30.1 C 3.2 km/h
140 25-07-2019 11:35:00 30.5 C 16.51 g/m*3 30.5 C 3.2 km/h
141 25-07-2019 11:40:00 30.8 C 15.83 g/m*3 30.8 C 3.2 km/h
142 25-07-2019 11:45:00 31.2 C 15.53 g/m*3 31.2 C 1.6 km/h
143 25-07-2019 11:50:00 31.6 C 15.53 g/m*3 31.6 C 3.2 km/h
144 25-07-2019 11:55:00 32.1 C 14.93 g/m*3 32.1 C 4.8 km/h
145 25-07-2019 12:00:00 32.6 C 14.29 g/m*3 32.6 C 4.8 km/h
146 25-07-2019 12:05:00 33 C 14.24 g/m*3 33 C 3.2 km/h
147 25-07-2019 12:10:00 33.4 C 13.82 g/m*3 33.4 C 4.8 km/h
148 25-07-2019 12:15:00 33.8 C 14.11 g/m*3 33.8 C 1.6 km/h
149 25-07-2019 12:20:00 34.3 C 13.34 g/m*3 34.3 C 11.3 km/h
150 25-07-2019 12:25:00 34.7 C 13.62 g/m*3 34.7 C 8.1 km/h
Sensor: Nr:Datum:Temp:Abs-Feuchte:Windchill:Wind:
Aussen-T/F 151 25-07-2019 12:30:00 34.9 C 13.76 g/m*3 34.9 C 9.7 km/h
152 25-07-2019 12:35:00 35.2 C 13.18 g/m*3 35.2 C 11.3 km/h
153 25-07-2019 12:40:00 35.3 C 13.25 g/m*3 35.3 C 9.7 km/h
154 25-07-2019 12:45:00 35.5 C 13.39 g/m*3 35.5 C 9.7 km/h
155 25-07-2019 12:50:00 35.7 C 13.53 g/m*3 35.7 C 9.7 km/h
156 25-07-2019 12:55:00 35.9 C 12.84 g/m*3 35.9 C 12.9 km/h
157 25-07-2019 13:00:00 36 C 13.32 g/m*3 36 C 12.9 km/h
158 25-07-2019 13:05:00 36.1 C 13.39 g/m*3 36.1 C 11.3 km/h
159 25-07-2019 13:10:00 36.2 C 13.46 g/m*3 36.2 C 11.3 km/h
160 25-07-2019 13:15:00 36.3 C 13.53 g/m*3 36.3 C 8.1 km/h
161 25-07-2019 13:20:00 36.3 C 12.69 g/m*3 36.3 C 8.1 km/h
162 25-07-2019 13:25:00 36.4 C 13.18 g/m*3 36.4 C 6.4 km/h
163 25-07-2019 13:30:00 36.4 C 13.18 g/m*3 36.4 C 8.1 km/h
164 25-07-2019 13:35:00 36.6 C 13.31 g/m*3 36.6 C 8.1 km/h
165 25-07-2019 13:40:00 36.7 C 13.38 g/m*3 36.7 C 9.7 km/h
166 25-07-2019 13:45:00 36.8 C 13.02 g/m*3 36.8 C 8.1 km/h
167 25-07-2019 13:50:00 36.9 C 13.52 g/m*3 36.9 C 8.1 km/h
168 25-07-2019 13:55:00 36.9 C 12.65 g/m*3 36.9 C 8.1 km/h
169 25-07-2019 14:00:00 36.9 C 13.08 g/m*3 36.9 C 8.1 km/h
170 25-07-2019 14:05:00 37.1 C 13.22 g/m*3 37.1 C 4.8 km/h
171 25-07-2019 14:10:00 37.2 C 12.84 g/m*3 37.2 C 14.5 km/h
172 25-07-2019 14:15:00 37.3 C 13.35 g/m*3 37.3 C 14.5 km/h
173 25-07-2019 14:20:00 37.4 C 12.97 g/m*3 37.4 C 8.1 km/h
174 25-07-2019 14:25:00 37.4 C 12.08 g/m*3 37.4 C 6.4 km/h
175 25-07-2019 14:30:00 37.4 C 13.42 g/m*3 37.4 C 4.8 km/h
Sensor: Nr:Datum:Temp:Abs-Feuchte:Windchill:Wind:
Aussen-T/F 176 25-07-2019 14:35:00 37.6 C 12.66 g/m*3 37.6 C 6.4 km/h
177 25-07-2019 14:40:00 37.6 C 13.11 g/m*3 37.6 C 6.4 km/h
178 25-07-2019 14:45:00 37.7 C 12.27 g/m*3 37.7 C 6.4 km/h
179 25-07-2019 14:50:00 37.7 C 13.17 g/m*3 37.7 C 6.4 km/h
180 25-07-2019 14:55:00 37.8 C 12.79 g/m*3 37.8 C 6.4 km/h
181 25-07-2019 15:00:00 37.9 C 12.85 g/m*3 37.9 C 8.1 km/h
182 25-07-2019 15:05:00 38.2 C 13.05 g/m*3 38.2 C 6.4 km/h
183 25-07-2019 15:10:00 38.3 C 13.11 g/m*3 38.3 C 4.8 km/h
184 25-07-2019 15:15:00 38.5 C 12.77 g/m*3 38.5 C 12.9 km/h
185 25-07-2019 15:20:00 38.7 C 12.43 g/m*3 38.7 C 9.7 km/h
186 25-07-2019 15:25:00 38.8 C 12.49 g/m*3 38.8 C 6.4 km/h
187 25-07-2019 15:30:00 38.9 C 12.55 g/m*3 38.9 C 12.9 km/h
188 25-07-2019 15:35:00 38.7 C 12.43 g/m*3 38.7 C 9.7 km/h
189 25-07-2019 15:40:00 38.8 C 12.49 g/m*3 38.8 C 11.3 km/h
190 25-07-2019 15:45:00 39.2 C 12.25 g/m*3 39.2 C 11.3 km/h
191 25-07-2019 15:50:00 39.6 C 13 g/m*3 39.6 C 6.4 km/h
192 25-07-2019 15:55:00 39.9 C 12.19 g/m*3 39.9 C 8.1 km/h
193 25-07-2019 16:00:00 40.1 C 11.8 g/m*3 40.1 C 6.4 km/h
194 25-07-2019 16:05:00 40.2 C 12.37 g/m*3 40.2 C 11.3 km/h
195 25-07-2019 16:10:00 40.2 C 12.89 g/m*3 40.2 C 8.1 km/h
196 25-07-2019 16:15:00 40.3 C 11.91 g/m*3 40.3 C 9.7 km/h
197 25-07-2019 16:20:00 40.4 C 12.49 g/m*3 40.4 C 11.3 km/h
198 25-07-2019 16:25:00 40.4 C 13.01 g/m*3 40.4 C 11.3 km/h
199 25-07-2019 16:30:00 40.4 C 11.97 g/m*3 40.4 C 17.7 km/h
200 25-07-2019 16:35:00 40.3 C 11.91 g/m*3 40.3 C 17.7 km/h
Sensor: Nr:Datum:Temp:Abs-Feuchte:Windchill:Wind:
Aussen-T/F 201 25-07-2019 16:40:00 40 C 11.74 g/m*3 40 C 12.9 km/h
202 25-07-2019 16:45:00 39.9 C 11.68 g/m*3 39.9 C 16.1 km/h
203 25-07-2019 16:50:00 39.9 C 12.69 g/m*3 39.9 C 8.1 km/h
204 25-07-2019 16:55:00 39.7 C 11.56 g/m*3 39.7 C 12.9 km/h
205 25-07-2019 17:00:00 39.8 C 12.12 g/m*3 39.8 C 9.7 km/h
206 25-07-2019 17:05:00 39.9 C 12.19 g/m*3 39.9 C 11.3 km/h
207 25-07-2019 17:10:00 40.3 C 11.91 g/m*3 40.3 C 11.3 km/h
208 25-07-2019 17:15:00 40.3 C 11.4 g/m*3 40.3 C 12.9 km/h
209 25-07-2019 17:20:00 40.1 C 11.28 g/m*3 40.1 C 14.5 km/h
210 25-07-2019 17:25:00 39.9 C 11.17 g/m*3 39.9 C 17.7 km/h
211 25-07-2019 17:30:00 39.6 C 11 g/m*3 39.6 C 20.9 km/h
212 25-07-2019 17:35:00 39.5 C 10.95 g/m*3 39.5 C 20.9 km/h
213 25-07-2019 17:40:00 39.5 C 10.95 g/m*3 39.5 C 9.7 km/h
214 25-07-2019 17:45:00 39.5 C 10.95 g/m*3 39.5 C 14.5 km/h
215 25-07-2019 17:50:00 39.6 C 11.5 g/m*3 39.6 C 9.7 km/h
216 25-07-2019 17:55:00 39.7 C 11.56 g/m*3 39.7 C 6.4 km/h
217 25-07-2019 18:00:00 39.6 C 11.5 g/m*3 39.6 C 9.7 km/h
218 25-07-2019 18:05:00 39.4 C 11.39 g/m*3 39.4 C 8.1 km/h
219 25-07-2019 18:10:00 39.4 C 10.89 g/m*3 39.4 C 9.7 km/h
220 25-07-2019 18:15:00 39.4 C 11.39 g/m*3 39.4 C 8.1 km/h
221 25-07-2019 18:20:00 39.3 C 10.84 g/m*3 39.3 C 17.7 km/h
222 25-07-2019 18:25:00 39.3 C 11.33 g/m*3 39.3 C 9.7 km/h
223 25-07-2019 18:30:00 39.2 C 11.27 g/m*3 39.2 C 9.7 km/h
224 25-07-2019 18:35:00 39.1 C 11.22 g/m*3 39.1 C 8.1 km/h
225 25-07-2019 18:40:00 38.8 C 11.05 g/m*3 38.8 C 12.9 km/h
Sensor: Nr:Datum:Temp:Abs-Feuchte:Windchill:Wind:
Aussen-T/F 226 25-07-2019 18:45:00 38.6 C 11.41 g/m*3 38.6 C 8.1 km/h
227 25-07-2019 18:50:00 38.6 C 11.41 g/m*3 38.6 C 11.3 km/h
228 25-07-2019 18:55:00 38.4 C 13.65 g/m*3 38.4 C 8.1 km/h
229 25-07-2019 19:00:00 38.3 C 11.71 g/m*3 38.3 C 8.1 km/h
230 25-07-2019 19:05:00 38.2 C 14.45 g/m*3 38.2 C 1.6 km/h
231 25-07-2019 19:10:00 38 C 12.92 g/m*3 38 C 9.7 km/h
232 25-07-2019 19:15:00 37.8 C 15.07 g/m*3 37.8 C 1.6 km/h
233 25-07-2019 19:20:00 37.4 C 14.32 g/m*3 37.4 C 0 km/h
234 25-07-2019 19:25:00 37 C 14.46 g/m*3 37 C 0 km/h
235 25-07-2019 19:30:00 36.6 C 14.17 g/m*3 36.6 C 0 km/h
236 25-07-2019 19:35:00 36.2 C 14.72 g/m*3 36.2 C 1.6 km/h
237 25-07-2019 19:40:00 35.7 C 14.76 g/m*3 35.7 C 0 km/h
238 25-07-2019 19:45:00 35.3 C 15.66 g/m*3 35.3 C 0 km/h
239 25-07-2019 19:50:00 34.9 C 14.94 g/m*3 34.9 C 0 km/h
240 25-07-2019 19:55:00 34.6 C 14.71 g/m*3 34.6 C 0 km/h
241 25-07-2019 20:00:00 34.3 C 15.63 g/m*3 34.3 C 0 km/h
242 25-07-2019 20:05:00 33.9 C 15.3 g/m*3 33.9 C 0 km/h
243 25-07-2019 20:10:00 33.7 C 14.77 g/m*3 33.7 C 0 km/h
244 25-07-2019 20:15:00 33.4 C 14.54 g/m*3 33.4 C 0 km/h
245 25-07-2019 20:20:00 33.2 C 15.11 g/m*3 33.2 C 0 km/h
246 25-07-2019 20:25:00 32.9 C 14.52 g/m*3 32.9 C 0 km/h
247 25-07-2019 20:30:00 32.7 C 14.72 g/m*3 32.7 C 0 km/h
248 25-07-2019 20:35:00 32.4 C 14.48 g/m*3 32.4 C 0 km/h
249 25-07-2019 20:40:00 32.2 C 14.67 g/m*3 32.2 C 0 km/h
250 25-07-2019 20:45:00 31.9 C 14.44 g/m*3 31.9 C 0 km/h
Sensor: Nr:Datum:Temp:Abs-Feuchte:Windchill:Wind:
Aussen-T/F 251 25-07-2019 20:50:00 31.7 C 14.62 g/m*3 31.7 C 0 km/h
252 25-07-2019 20:55:00 31.5 C 14.13 g/m*3 31.5 C 0 km/h
253 25-07-2019 21:00:00 31.3 C 14.31 g/m*3 31.3 C 0 km/h
254 25-07-2019 21:05:00 31.1 C 14.16 g/m*3 31.1 C 1.6 km/h
255 25-07-2019 21:10:00 30.9 C 14.32 g/m*3 30.9 C 1.6 km/h
256 25-07-2019 21:15:00 30.7 C 13.86 g/m*3 30.7 C 1.6 km/h
257 25-07-2019 21:20:00 30.5 C 13.71 g/m*3 30.5 C 1.6 km/h
258 25-07-2019 21:25:00 30.3 C 13.87 g/m*3 30.3 C 1.6 km/h
259 25-07-2019 21:30:00 30.2 C 13.79 g/m*3 30.2 C 1.6 km/h
260 25-07-2019 21:35:00 30.1 C 13.72 g/m*3 30.1 C 1.6 km/h
261 25-07-2019 21:40:00 29.9 C 13.57 g/m*3 29.9 C 1.6 km/h
262 25-07-2019 21:45:00 29.8 C 13.5 g/m*3 29.8 C 1.6 km/h
263 25-07-2019 21:50:00 29.7 C 13.43 g/m*3 29.7 C 1.6 km/h
264 25-07-2019 21:55:00 29.6 C 13.35 g/m*3 29.6 C 1.6 km/h
265 25-07-2019 22:00:00 29.4 C 13.21 g/m*3 29.4 C 1.6 km/h
266 25-07-2019 22:05:00 29.3 C 13.43 g/m*3 29.3 C 1.6 km/h
267 25-07-2019 22:10:00 29.2 C 13.36 g/m*3 29.2 C 1.6 km/h
268 25-07-2019 22:15:00 29.1 C 13.57 g/m*3 29.1 C 0 km/h
269 25-07-2019 22:20:00 28.9 C 13.14 g/m*3 28.9 C 1.6 km/h
270 25-07-2019 22:25:00 28.8 C 13.64 g/m*3 28.8 C 0 km/h
271 25-07-2019 22:30:00 28.7 C 13.56 g/m*3 28.7 C 1.6 km/h
272 25-07-2019 22:35:00 28.5 C 13.42 g/m*3 28.5 C 1.6 km/h
273 25-07-2019 22:40:00 28.4 C 13.34 g/m*3 28.4 C 0 km/h
274 25-07-2019 22:45:00 28.3 C 13.27 g/m*3 28.3 C 1.6 km/h
275 25-07-2019 22:50:00 28.3 C 13.55 g/m*3 28.3 C 1.6 km/h
Sensor: Nr:Datum:Temp:Abs-Feuchte:Windchill:Wind:
Aussen-T/F 276 25-07-2019 22:55:00 28.2 C 13.2 g/m*3 28.2 C 0 km/h
277 25-07-2019 23:00:00 28.1 C 13.4 g/m*3 28.1 C 1.6 km/h
278 25-07-2019 23:05:00 28 C 13.05 g/m*3 28 C 1.6 km/h
279 25-07-2019 23:10:00 27.9 C 13.25 g/m*3 27.9 C 1.6 km/h
280 25-07-2019 23:15:00 27.8 C 12.91 g/m*3 27.8 C 1.6 km/h
281 25-07-2019 23:20:00 27.8 C 13.18 g/m*3 27.8 C 1.6 km/h
282 25-07-2019 23:25:00 27.7 C 13.37 g/m*3 27.7 C 0 km/h
283 25-07-2019 23:30:00 27.6 C 13.04 g/m*3 27.6 C 0 km/h
284 25-07-2019 23:35:00 27.4 C 13.16 g/m*3 27.4 C 0 km/h
285 25-07-2019 23:40:00 27.3 C 13.08 g/m*3 27.3 C 1.6 km/h
286 25-07-2019 23:45:00 27.2 C 13.01 g/m*3 27.2 C 0 km/h
287 25-07-2019 23:50:00 27.1 C 13.2 g/m*3 27.1 C 0 km/h
288 25-07-2019 23:55:00 26.9 C 13.56 g/m*3 26.9 C 1.6 km/h
289 26-07-2019 00:00:00 26.8 C 13.49 g/m*3 26.8 C 0 km/h
290 26-07-2019 00:05:00 26.7 C 13.42 g/m*3 26.7 C 0 km/h
291 26-07-2019 00:10:00 26.5 C 13.02 g/m*3 26.5 C 0 km/h
292 26-07-2019 00:15:00 26.4 C 13.19 g/m*3 26.4 C 0 km/h
293 26-07-2019 00:20:00 26.3 C 13.12 g/m*3 26.3 C 0 km/h
294 26-07-2019 00:25:00 26.2 C 13.29 g/m*3 26.2 C 0 km/h
295 26-07-2019 00:30:00 26.1 C 13.22 g/m*3 26.1 C 0 km/h
296 26-07-2019 00:35:00 26 C 12.9 g/m*3 26 C 0 km/h
297 26-07-2019 00:40:00 25.9 C 13.07 g/m*3 25.9 C 0 km/h
298 26-07-2019 00:45:00 25.9 C 13.07 g/m*3 25.9 C 0 km/h
299 26-07-2019 00:50:00 25.8 C 13 g/m*3 25.8 C 0 km/h
300 26-07-2019 00:55:00 25.7 C 12.93 g/m*3 25.7 C 0 km/h
Sensor: Nr:Datum:Temp:Abs-Feuchte:Windchill:Wind:
Aussen-T/F 301 26-07-2019 01:00:00 25.6 C 12.86 g/m*3 25.6 C 0 km/h
302 26-07-2019 01:05:00 25.5 C 13.02 g/m*3 25.5 C 0 km/h
303 26-07-2019 01:10:00 25.4 C 12.71 g/m*3 25.4 C 0 km/h
304 26-07-2019 01:15:00 25.3 C 13.11 g/m*3 25.3 C 0 km/h
305 26-07-2019 01:20:00 25.2 C 13.04 g/m*3 25.2 C 0 km/h
306 26-07-2019 01:25:00 25.2 C 13.27 g/m*3 25.2 C 0 km/h
307 26-07-2019 01:30:00 25.1 C 12.96 g/m*3 25.1 C 0 km/h
308 26-07-2019 01:35:00 24.9 C 13.28 g/m*3 24.9 C 0 km/h
309 26-07-2019 01:40:00 24.8 C 13.43 g/m*3 24.8 C 0 km/h
310 26-07-2019 01:45:00 24.6 C 13.5 g/m*3 24.6 C 0 km/h
311 26-07-2019 01:50:00 24.3 C 13.28 g/m*3 24.3 C 0 km/h
312 26-07-2019 01:55:00 24.1 C 13.13 g/m*3 24.1 C 0 km/h
313 26-07-2019 02:00:00 23.8 C 13.34 g/m*3 23.8 C 0 km/h
314 26-07-2019 02:05:00 23.6 C 13.61 g/m*3 23.6 C 0 km/h
315 26-07-2019 02:10:00 23.3 C 13.59 g/m*3 23.3 C 0 km/h
316 26-07-2019 02:15:00 23 C 13.57 g/m*3 23 C 0 km/h
317 26-07-2019 02:20:00 22.8 C 13.61 g/m*3 22.8 C 0 km/h
318 26-07-2019 02:25:00 22.6 C 13.66 g/m*3 22.6 C 0 km/h
319 26-07-2019 02:30:00 22.3 C 13.62 g/m*3 22.3 C 0 km/h
320 26-07-2019 02:35:00 22.2 C 13.55 g/m*3 22.2 C 0 km/h
321 26-07-2019 02:40:00 21.9 C 13.31 g/m*3 21.9 C 0 km/h
322 26-07-2019 02:45:00 21.7 C 12.97 g/m*3 21.7 C 0 km/h
323 26-07-2019 02:50:00 21.6 C 13.09 g/m*3 21.6 C 0 km/h
324 26-07-2019 02:55:00 21.4 C 12.75 g/m*3 21.4 C 0 km/h
325 26-07-2019 03:00:00 21.3 C 13.05 g/m*3 21.3 C 0 km/h
Sensor: Nr:Datum:Temp:Abs-Feuchte:Windchill:Wind:
Aussen-T/F 326 26-07-2019 03:05:00 21.2 C 13.16 g/m*3 21.2 C 0 km/h
327 26-07-2019 03:10:00 21.2 C 13.16 g/m*3 21.2 C 0 km/h
328 26-07-2019 03:15:00 21.1 C 12.9 g/m*3 21.1 C 0 km/h
329 26-07-2019 03:20:00 21.1 C 13.08 g/m*3 21.1 C 0 km/h
330 26-07-2019 03:25:00 21 C 13.01 g/m*3 21 C 0 km/h
331 26-07-2019 03:30:00 21 C 13.19 g/m*3 21 C 0 km/h
332 26-07-2019 03:35:00 20.9 C 13.11 g/m*3 20.9 C 0 km/h
333 26-07-2019 03:40:00 20.8 C 13.04 g/m*3 20.8 C 0 km/h
334 26-07-2019 03:45:00 20.8 C 13.04 g/m*3 20.8 C 0 km/h
335 26-07-2019 03:50:00 20.8 C 13.4 g/m*3 20.8 C 0 km/h
336 26-07-2019 03:55:00 20.7 C 13.32 g/m*3 20.7 C 0 km/h
337 26-07-2019 04:00:00 20.7 C 13.32 g/m*3 20.7 C 0 km/h
338 26-07-2019 04:05:00 20.6 C 13.42 g/m*3 20.6 C 0 km/h
339 26-07-2019 04:10:00 20.4 C 13.27 g/m*3 20.4 C 0 km/h
340 26-07-2019 04:15:00 20.3 C 13.19 g/m*3 20.3 C 0 km/h
341 26-07-2019 04:20:00 20.3 C 13.37 g/m*3 20.3 C 0 km/h
342 26-07-2019 04:25:00 20.2 C 13.46 g/m*3 20.2 C 0 km/h
343 26-07-2019 04:30:00 20.1 C 13.39 g/m*3 20.1 C 0 km/h
344 26-07-2019 04:35:00 19.9 C 13.23 g/m*3 19.9 C 0 km/h
345 26-07-2019 04:40:00 19.9 C 13.4 g/m*3 19.9 C 0 km/h
346 26-07-2019 04:45:00 19.8 C 13.32 g/m*3 19.8 C 0 km/h
347 26-07-2019 04:50:00 19.7 C 13.25 g/m*3 19.7 C 0 km/h
348 26-07-2019 04:55:00 19.6 C 13.34 g/m*3 19.6 C 0 km/h
349 26-07-2019 05:00:00 19.6 C 13.34 g/m*3 19.6 C 0 km/h
350 26-07-2019 05:05:00 19.5 C 13.09 g/m*3 19.5 C 0 km/h
Sensor: Nr:Datum:Temp:Abs-Feuchte:Windchill:Wind:
Aussen-T/F 351 26-07-2019 05:10:00 19.4 C 13.01 g/m*3 19.4 C 0 km/h
352 26-07-2019 05:15:00 19.3 C 12.94 g/m*3 19.3 C 0 km/h
353 26-07-2019 05:20:00 19.3 C 13.1 g/m*3 19.3 C 0 km/h
354 26-07-2019 05:25:00 19.3 C 12.94 g/m*3 19.3 C 0 km/h
355 26-07-2019 05:30:00 19.3 C 13.27 g/m*3 19.3 C 0 km/h
356 26-07-2019 05:35:00 19.3 C 13.27 g/m*3 19.3 C 0 km/h
357 26-07-2019 05:40:00 19.2 C 13.19 g/m*3 19.2 C 0 km/h
358 26-07-2019 05:45:00 19.2 C 13.19 g/m*3 19.2 C 0 km/h
359 26-07-2019 05:50:00 19.1 C 12.95 g/m*3 19.1 C 0 km/h
360 26-07-2019 05:55:00 19 C 12.87 g/m*3 19 C 0 km/h
361 26-07-2019 06:00:00 18.9 C 12.96 g/m*3 18.9 C 0 km/h
362 26-07-2019 06:05:00 19 C 12.87 g/m*3 19 C 0 km/h
363 26-07-2019 06:10:00 19 C 12.87 g/m*3 19 C 0 km/h
364 26-07-2019 06:15:00 18.9 C 12.96 g/m*3 18.9 C 0 km/h
365 26-07-2019 06:20:00 18.9 C 12.96 g/m*3 18.9 C 0 km/h
366 26-07-2019 06:25:00 18.9 C 12.96 g/m*3 18.9 C 0 km/h
367 26-07-2019 06:30:00 18.9 C 12.96 g/m*3 18.9 C 0 km/h
368 26-07-2019 06:35:00 18.9 C 13.12 g/m*3 18.9 C 0 km/h
369 26-07-2019 06:40:00 18.9 C 13.12 g/m*3 18.9 C 0 km/h
370 26-07-2019 06:45:00 19 C 13.2 g/m*3 19 C 0 km/h
371 26-07-2019 06:50:00 19.1 C 13.28 g/m*3 19.1 C 0 km/h
372 26-07-2019 06:55:00 19.1 C 13.44 g/m*3 19.1 C 0 km/h
373 26-07-2019 07:00:00 19.2 C 13.69 g/m*3 19.2 C 0 km/h
374 26-07-2019 07:05:00 19.3 C 13.77 g/m*3 19.3 C 0 km/h
375 26-07-2019 07:10:00 19.3 C 13.77 g/m*3 19.3 C 0 km/h
Sensor: Nr:Datum:Temp:Abs-Feuchte:Windchill:Wind:
Aussen-T/F 376 26-07-2019 07:15:00 19.4 C 13.85 g/m*3 19.4 C 0 km/h
377 26-07-2019 07:20:00 19.4 C 13.68 g/m*3 19.4 C 0 km/h
378 26-07-2019 07:25:00 19.5 C 13.93 g/m*3 19.5 C 0 km/h
379 26-07-2019 07:30:00 19.6 C 14.01 g/m*3 19.6 C 0 km/h
380 26-07-2019 07:35:00 19.7 C 14.09 g/m*3 19.7 C 0 km/h
381 26-07-2019 07:40:00 19.8 C 14.18 g/m*3 19.8 C 0 km/h
382 26-07-2019 07:45:00 19.9 C 14.09 g/m*3 19.9 C 0 km/h
383 26-07-2019 07:50:00 20.1 C 14.08 g/m*3 20.1 C 0 km/h
384 26-07-2019 07:55:00 20.2 C 14.16 g/m*3 20.2 C 0 km/h
385 26-07-2019 08:00:00 20.4 C 14.33 g/m*3 20.4 C 0 km/h
386 26-07-2019 08:05:00 20.5 C 14.59 g/m*3 20.5 C 0 km/h
387 26-07-2019 08:10:00 20.6 C 14.5 g/m*3 20.6 C 0 km/h
388 26-07-2019 08:15:00 20.7 C 14.76 g/m*3 20.7 C 0 km/h
389 26-07-2019 08:20:00 20.8 C 14.67 g/m*3 20.8 C 0 km/h
390 26-07-2019 08:25:00 20.9 C 14.57 g/m*3 20.9 C 0 km/h
391 26-07-2019 08:30:00 21.1 C 14.56 g/m*3 21.1 C 0 km/h
392 26-07-2019 08:35:00 21.3 C 14.73 g/m*3 21.3 C 0 km/h
393 26-07-2019 08:40:00 21.5 C 14.71 g/m*3 21.5 C 0 km/h
394 26-07-2019 08:45:00 21.7 C 15.07 g/m*3 21.7 C 0 km/h
395 26-07-2019 08:50:00 21.9 C 15.44 g/m*3 21.9 C 0 km/h
396 26-07-2019 08:55:00 21.9 C 15.05 g/m*3 21.9 C 0 km/h
397 26-07-2019 09:00:00 22.1 C 14.84 g/m*3 22.1 C 0 km/h
398 26-07-2019 09:05:00 22.3 C 15.01 g/m*3 22.3 C 0 km/h
399 26-07-2019 09:10:00 22.4 C 14.7 g/m*3 22.4 C 0 km/h
400 26-07-2019 09:15:00 22.7 C 14.75 g/m*3 22.7 C 0 km/h
Sensor: Nr:Datum:Temp:Abs-Feuchte:Windchill:Wind:
Aussen-T/F 401 26-07-2019 09:20:00 22.9 C 15.12 g/m*3 22.9 C 0 km/h
402 26-07-2019 09:25:00 23.1 C 14.47 g/m*3 23.1 C 0 km/h
403 26-07-2019 09:30:00 23.4 C 14.72 g/m*3 23.4 C 1.6 km/h
404 26-07-2019 09:35:00 23.7 C 14.33 g/m*3 23.7 C 0 km/h
405 26-07-2019 09:40:00 24.2 C 14.74 g/m*3 24.2 C 1.6 km/h
406 26-07-2019 09:45:00 24.6 C 14.85 g/m*3 24.6 C 0 km/h
407 26-07-2019 09:50:00 25 C 13.35 g/m*3 25 C 4.8 km/h
408 26-07-2019 09:55:00 25.7 C 14.36 g/m*3 25.7 C 4.8 km/h
409 26-07-2019 10:00:00 25.9 C 14.53 g/m*3 25.9 C 1.6 km/h
410 26-07-2019 10:05:00 26.3 C 14.36 g/m*3 26.3 C 8.1 km/h
411 26-07-2019 10:10:00 26.4 C 14.19 g/m*3 26.4 C 1.6 km/h
412 26-07-2019 10:15:00 26.8 C 14 g/m*3 26.8 C 6.4 km/h
413 26-07-2019 10:20:00 27.2 C 14.05 g/m*3 27.2 C 4.8 km/h
414 26-07-2019 10:25:00 27.6 C 12.77 g/m*3 27.6 C 6.4 km/h
415 26-07-2019 10:30:00 28.4 C 12.79 g/m*3 28.4 C 9.7 km/h
416 26-07-2019 10:35:00 29.1 C 13.28 g/m*3 29.1 C 9.7 km/h
417 26-07-2019 10:40:00 29.6 C 13.06 g/m*3 29.6 C 9.7 km/h
418 26-07-2019 10:45:00 30.1 C 13.11 g/m*3 30.1 C 9.7 km/h
419 26-07-2019 10:50:00 30.5 C 13.08 g/m*3 30.5 C 6.4 km/h
420 26-07-2019 10:55:00 30.8 C 12.98 g/m*3 30.8 C 6.4 km/h
421 26-07-2019 11:00:00 31 C 12.48 g/m*3 31 C 6.4 km/h
422 26-07-2019 11:05:00 31.2 C 12.62 g/m*3 31.2 C 4.8 km/h
423 26-07-2019 11:10:00 31.4 C 13.41 g/m*3 31.4 C 3.2 km/h
424 26-07-2019 11:15:00 31.5 C 13.15 g/m*3 31.5 C 3.2 km/h
425 26-07-2019 11:20:00 31.7 C 12.96 g/m*3 31.7 C 6.4 km/h
Sensor: Nr:Datum:Temp:Abs-Feuchte:Windchill:Wind:
Aussen-T/F 426 26-07-2019 11:25:00 31.9 C 13.43 g/m*3 31.9 C 6.4 km/h
427 26-07-2019 11:30:00 32.1 C 12.9 g/m*3 32.1 C 1.6 km/h
428 26-07-2019 11:35:00 32.3 C 13.72 g/m*3 32.3 C 3.2 km/h
429 26-07-2019 11:40:00 32.6 C 13.59 g/m*3 32.6 C 4.8 km/h
430 26-07-2019 11:45:00 32.8 C 13.03 g/m*3 32.8 C 3.2 km/h
431 26-07-2019 11:50:00 32.9 C 13.1 g/m*3 32.9 C 6.4 km/h
432 26-07-2019 11:55:00 33.2 C 13.31 g/m*3 33.2 C 3.2 km/h
433 26-07-2019 12:00:00 33.4 C 13.09 g/m*3 33.4 C 4.8 km/h
434 26-07-2019 12:05:00 33.6 C 12.86 g/m*3 33.6 C 6.4 km/h
435 26-07-2019 12:10:00 33.7 C 13.67 g/m*3 33.7 C 6.4 km/h
436 26-07-2019 12:15:00 33.8 C 13 g/m*3 33.8 C 9.7 km/h
437 26-07-2019 12:20:00 34.1 C 13.2 g/m*3 34.1 C 8.1 km/h
438 26-07-2019 12:25:00 34.2 C 13.65 g/m*3 34.2 C 6.4 km/h
439 26-07-2019 12:30:00 34.3 C 12.96 g/m*3 34.3 C 6.4 km/h
440 26-07-2019 12:35:00 34.5 C 13.1 g/m*3 34.5 C 9.7 km/h
441 26-07-2019 12:40:00 34.8 C 13.3 g/m*3 34.8 C 12.9 km/h
442 26-07-2019 12:45:00 35.1 C 13.11 g/m*3 35.1 C 12.9 km/h
443 26-07-2019 12:50:00 35.3 C 13.25 g/m*3 35.3 C 11.3 km/h
444 26-07-2019 12:55:00 35.4 C 12.92 g/m*3 35.4 C 11.3 km/h
445 26-07-2019 13:00:00 35.5 C 12.98 g/m*3 35.5 C 12.9 km/h
446 26-07-2019 13:05:00 35.6 C 12.64 g/m*3 35.6 C 12.9 km/h
447 26-07-2019 13:10:00 35.7 C 12.71 g/m*3 35.7 C 9.7 km/h
448 26-07-2019 13:15:00 35.7 C 13.12 g/m*3 35.7 C 8.1 km/h
449 26-07-2019 13:20:00 35.8 C 13.19 g/m*3 35.8 C 6.4 km/h
450 26-07-2019 13:25:00 35.8 C 12.77 g/m*3 35.8 C 8.1 km/h
Sensor: Nr:Datum:Temp:Abs-Feuchte:Windchill:Wind:
Aussen-T/F 451 26-07-2019 13:30:00 35.9 C 12.43 g/m*3 35.9 C 9.7 km/h
452 26-07-2019 13:35:00 36.1 C 12.97 g/m*3 36.1 C 8.1 km/h
453 26-07-2019 13:40:00 36.2 C 13.04 g/m*3 36.2 C 11.3 km/h
454 26-07-2019 13:45:00 36.4 C 13.18 g/m*3 36.4 C 9.7 km/h
455 26-07-2019 13:50:00 36.6 C 12.88 g/m*3 36.6 C 9.7 km/h
456 26-07-2019 13:55:00 36.8 C 12.58 g/m*3 36.8 C 8.1 km/h
457 26-07-2019 14:00:00 36.9 C 12.65 g/m*3 36.9 C 9.7 km/h
458 26-07-2019 14:05:00 36.9 C 12.21 g/m*3 36.9 C 9.7 km/h
459 26-07-2019 14:10:00 36.8 C 12.15 g/m*3 36.8 C 8.1 km/h
460 26-07-2019 14:15:00 36.9 C 12.21 g/m*3 36.9 C 4.8 km/h
461 26-07-2019 14:20:00 37.1 C 12.78 g/m*3 37.1 C 6.4 km/h
462 26-07-2019 14:25:00 37.4 C 12.08 g/m*3 37.4 C 11.3 km/h
463 26-07-2019 14:30:00 37.6 C 11.75 g/m*3 37.6 C 8.1 km/h
464 26-07-2019 14:35:00 37.8 C 11.87 g/m*3 37.8 C 6.4 km/h
465 26-07-2019 14:40:00 37.8 C 11.87 g/m*3 37.8 C 6.4 km/h
466 26-07-2019 14:45:00 37.7 C 10.9 g/m*3 37.7 C 6.4 km/h
467 26-07-2019 14:50:00 37.7 C 11.81 g/m*3 37.7 C 3.2 km/h
468 26-07-2019 14:55:00 37.7 C 10.9 g/m*3 37.7 C 4.8 km/h
469 26-07-2019 15:00:00 38.1 C 11.59 g/m*3 38.1 C 6.4 km/h
470 26-07-2019 15:05:00 38.3 C 11.71 g/m*3 38.3 C 11.3 km/h
471 26-07-2019 15:10:00 38.6 C 11.41 g/m*3 38.6 C 9.7 km/h
472 26-07-2019 15:15:00 38.7 C 11.95 g/m*3 38.7 C 8.1 km/h
473 26-07-2019 15:20:00 38.3 C 12.65 g/m*3 38.3 C 27.4 km/h
474 26-07-2019 15:25:00 37.3 C 13.35 g/m*3 37.3 C 19.3 km/h
475 26-07-2019 15:30:00 36.8 C 13.02 g/m*3 36.8 C 9.7 km/h
Sensor: Nr:Datum:Temp:Abs-Feuchte:Windchill:Wind:
Aussen-T/F 476 26-07-2019 15:35:00 36.3 C 13.11 g/m*3 36.3 C 14.5 km/h
477 26-07-2019 15:40:00 35.9 C 12.84 g/m*3 35.9 C 16.1 km/h
478 26-07-2019 15:45:00 35.6 C 13.05 g/m*3 35.6 C 12.9 km/h
479 26-07-2019 15:50:00 35.7 C 12.3 g/m*3 35.7 C 14.5 km/h
480 26-07-2019 15:55:00 35.6 C 12.23 g/m*3 35.6 C 12.9 km/h
481 26-07-2019 16:00:00 35.4 C 12.51 g/m*3 35.4 C 11.3 km/h
482 26-07-2019 16:05:00 35.3 C 12.85 g/m*3 35.3 C 8.1 km/h
483 26-07-2019 16:10:00 35.4 C 12.92 g/m*3 35.4 C 6.4 km/h
484 26-07-2019 16:15:00 35.4 C 12.51 g/m*3 35.4 C 6.4 km/h
485 26-07-2019 16:20:00 35.5 C 12.98 g/m*3 35.5 C 3.2 km/h
486 26-07-2019 16:25:00 35.6 C 15.09 g/m*3 35.6 C 0 km/h
487 26-07-2019 16:30:00 35.6 C 15.91 g/m*3 35.6 C 1.6 km/h
488 26-07-2019 16:35:00 35.6 C 16.31 g/m*3 35.6 C 0 km/h
489 26-07-2019 16:40:00 35.3 C 12.85 g/m*3 35.3 C 11.3 km/h
490 26-07-2019 16:45:00 34.9 C 13.37 g/m*3 34.9 C 8.1 km/h
491 26-07-2019 16:50:00 34.8 C 13.69 g/m*3 34.8 C 3.2 km/h
492 26-07-2019 16:55:00 34.6 C 12.78 g/m*3 34.6 C 9.7 km/h
493 26-07-2019 17:00:00 34.2 C 13.27 g/m*3 34.2 C 12.9 km/h
494 26-07-2019 17:05:00 34.1 C 15.84 g/m*3 34.1 C 0 km/h
495 26-07-2019 17:10:00 33.5 C 14.25 g/m*3 33.5 C 8.1 km/h
496 26-07-2019 17:15:00 32.9 C 14.16 g/m*3 32.9 C 8.1 km/h
497 26-07-2019 17:20:00 32.6 C 14.64 g/m*3 32.6 C 3.2 km/h
498 26-07-2019 17:25:00 32.4 C 15.17 g/m*3 32.4 C 0 km/h
499 26-07-2019 17:30:00 32.2 C 15.35 g/m*3 32.2 C 6.4 km/h
500 26-07-2019 17:35:00 31.9 C 15.45 g/m*3 31.9 C 4.8 km/h
Sensor: Nr:Datum:Temp:Abs-Feuchte:Windchill:Wind:
Aussen-T/F 501 26-07-2019 17:40:00 31.8 C 14.36 g/m*3 31.8 C 9.7 km/h
502 26-07-2019 17:45:00 31.7 C 14.62 g/m*3 31.7 C 4.8 km/h
503 26-07-2019 17:50:00 31.4 C 14.71 g/m*3 31.4 C 8.1 km/h
504 26-07-2019 17:55:00 31.3 C 14.31 g/m*3 31.3 C 6.4 km/h
505 26-07-2019 18:00:00 31.2 C 14.56 g/m*3 31.2 C 3.2 km/h
506 26-07-2019 18:05:00 31.1 C 14.48 g/m*3 31.1 C 6.4 km/h
507 26-07-2019 18:10:00 30.9 C 14.01 g/m*3 30.9 C 6.4 km/h
508 26-07-2019 18:15:00 30.9 C 14.01 g/m*3 30.9 C 9.7 km/h
509 26-07-2019 18:20:00 30.8 C 13.93 g/m*3 30.8 C 14.5 km/h
510 26-07-2019 18:25:00 30.7 C 14.17 g/m*3 30.7 C 16.1 km/h
511 26-07-2019 18:30:00 30.6 C 14.09 g/m*3 30.6 C 11.3 km/h
512 26-07-2019 18:35:00 30.3 C 14.18 g/m*3 30.3 C 6.4 km/h
513 26-07-2019 18:40:00 30.1 C 14.02 g/m*3 30.1 C 12.9 km/h
514 26-07-2019 18:45:00 29.7 C 13.72 g/m*3 29.7 C 11.3 km/h
515 26-07-2019 18:50:00 29.6 C 14.24 g/m*3 29.6 C 6.4 km/h
516 26-07-2019 18:55:00 29.4 C 14.09 g/m*3 29.4 C 9.7 km/h
517 26-07-2019 19:00:00 29.3 C 14.31 g/m*3 29.3 C 4.8 km/h
518 26-07-2019 19:05:00 29.3 C 14.6 g/m*3 29.3 C 0 km/h
519 26-07-2019 19:10:00 29.2 C 14.52 g/m*3 29.2 C 0 km/h
520 26-07-2019 19:15:00 29.1 C 14.44 g/m*3 29.1 C 0 km/h
521 26-07-2019 19:20:00 29.1 C 15.02 g/m*3 29.1 C 0 km/h
522 26-07-2019 19:25:00 28.9 C 14.57 g/m*3 28.9 C 0 km/h
523 26-07-2019 19:30:00 28.8 C 15.06 g/m*3 28.8 C 0 km/h
524 26-07-2019 19:35:00 28.7 C 14.98 g/m*3 28.7 C 0 km/h
525 26-07-2019 19:40:00 28.6 C 15.18 g/m*3 28.6 C 0 km/h
Sensor: Nr:Datum:Temp:Abs-Feuchte:Windchill:Wind:
Aussen-T/F 526 26-07-2019 19:45:00 28.4 C 15.01 g/m*3 28.4 C 0 km/h
527 26-07-2019 19:50:00 28.3 C 14.93 g/m*3 28.3 C 0 km/h
528 26-07-2019 19:55:00 28.2 C 15.4 g/m*3 28.2 C 0 km/h
529 26-07-2019 20:00:00 28.1 C 15.31 g/m*3 28.1 C 0 km/h
530 26-07-2019 20:05:00 28 C 15.23 g/m*3 28 C 0 km/h
531 26-07-2019 20:10:00 27.9 C 15.42 g/m*3 27.9 C 0 km/h
532 26-07-2019 20:15:00 27.8 C 15.33 g/m*3 27.8 C 0 km/h
533 26-07-2019 20:20:00 27.7 C 15.51 g/m*3 27.7 C 0 km/h
534 26-07-2019 20:25:00 27.6 C 15.16 g/m*3 27.6 C 0 km/h
535 26-07-2019 20:30:00 27.5 C 15.61 g/m*3 27.5 C 0 km/h
536 26-07-2019 20:35:00 27.4 C 15 g/m*3 27.4 C 0 km/h
537 26-07-2019 20:40:00 27.2 C 15.35 g/m*3 27.2 C 0 km/h
538 26-07-2019 20:45:00 27.1 C 15.27 g/m*3 27.1 C 0 km/h
539 26-07-2019 20:50:00 27.1 C 15.27 g/m*3 27.1 C 0 km/h
540 26-07-2019 20:55:00 26.9 C 15.1 g/m*3 26.9 C 0 km/h
541 26-07-2019 21:00:00 26.8 C 15.02 g/m*3 26.8 C 0 km/h
542 26-07-2019 21:05:00 26.7 C 14.93 g/m*3 26.7 C 0 km/h
543 26-07-2019 21:10:00 26.7 C 14.93 g/m*3 26.7 C 0 km/h
544 26-07-2019 21:15:00 26.6 C 15.1 g/m*3 26.6 C 0 km/h
545 26-07-2019 21:20:00 26.4 C 14.69 g/m*3 26.4 C 0 km/h
546 26-07-2019 21:25:00 26.3 C 14.61 g/m*3 26.3 C 0 km/h
547 26-07-2019 21:30:00 26.2 C 14.52 g/m*3 26.2 C 0 km/h
548 26-07-2019 21:35:00 26.2 C 14.52 g/m*3 26.2 C 1.6 km/h
549 26-07-2019 21:40:00 26.1 C 14.44 g/m*3 26.1 C 1.6 km/h
550 26-07-2019 21:45:00 26.1 C 14.69 g/m*3 26.1 C 0 km/h
Sensor: Nr:Datum:Temp:Abs-Feuchte:Windchill:Wind:
Aussen-T/F 551 26-07-2019 21:50:00 26 C 14.61 g/m*3 26 C 0 km/h
552 26-07-2019 21:55:00 25.9 C 14.53 g/m*3 25.9 C 1.6 km/h
553 26-07-2019 22:00:00 25.9 C 14.53 g/m*3 25.9 C 1.6 km/h
554 26-07-2019 22:05:00 25.8 C 14.69 g/m*3 25.8 C 0 km/h
555 26-07-2019 22:10:00 25.7 C 14.6 g/m*3 25.7 C 0 km/h
556 26-07-2019 22:15:00 25.7 C 14.6 g/m*3 25.7 C 1.6 km/h
557 26-07-2019 22:20:00 25.7 C 14.84 g/m*3 25.7 C 0 km/h
558 26-07-2019 22:25:00 25.7 C 14.84 g/m*3 25.7 C 0 km/h
559 26-07-2019 22:30:00 25.6 C 15 g/m*3 25.6 C 0 km/h
560 26-07-2019 22:35:00 25.4 C 14.83 g/m*3 25.4 C 0 km/h
561 26-07-2019 22:40:00 25.3 C 14.51 g/m*3 25.3 C 0 km/h
562 26-07-2019 22:45:00 25.2 C 14.67 g/m*3 25.2 C 0 km/h
563 26-07-2019 22:50:00 25.1 C 14.58 g/m*3 25.1 C 0 km/h
564 26-07-2019 22:55:00 24.9 C 14.65 g/m*3 24.9 C 0 km/h
565 26-07-2019 23:00:00 24.8 C 14.8 g/m*3 24.8 C 0 km/h
566 26-07-2019 23:05:00 24.8 C 14.8 g/m*3 24.8 C 0 km/h
567 26-07-2019 23:10:00 24.7 C 14.94 g/m*3 24.7 C 0 km/h
568 26-07-2019 23:15:00 24.6 C 14.85 g/m*3 24.6 C 0 km/h
569 26-07-2019 23:20:00 24.5 C 14.99 g/m*3 24.5 C 0 km/h
570 26-07-2019 23:25:00 24.4 C 14.91 g/m*3 24.4 C 0 km/h
571 26-07-2019 23:30:00 24.3 C 14.83 g/m*3 24.3 C 0 km/h
572 26-07-2019 23:35:00 24.2 C 14.74 g/m*3 24.2 C 0 km/h
573 26-07-2019 23:40:00 24.2 C 14.74 g/m*3 24.2 C 0 km/h
574 26-07-2019 23:45:00 24.1 C 14.88 g/m*3 24.1 C 3.2 km/h
575 26-07-2019 23:50:00 23.9 C 14.71 g/m*3 23.9 C 0 km/h
Sensor: Nr:Datum:Temp:Abs-Feuchte:Windchill:Wind:
Aussen-T/F 576 26-07-2019 23:55:00 23.8 C 14.63 g/m*3 23.8 C 0 km/h
577 27-07-2019 00:00:00 23.6 C 14.68 g/m*3 23.6 C 0 km/h
578 27-07-2019 00:05:00 23.4 C 14.51 g/m*3 23.4 C 0 km/h
579 27-07-2019 00:10:00 23.3 C 14.43 g/m*3 23.3 C 0 km/h
580 27-07-2019 00:15:00 23.3 C 14.64 g/m*3 23.3 C 0 km/h
581 27-07-2019 00:20:00 23.2 C 14.55 g/m*3 23.2 C 0 km/h
582 27-07-2019 00:25:00 23.2 C 14.55 g/m*3 23.2 C 0 km/h
583 27-07-2019 00:30:00 23.1 C 14.47 g/m*3 23.1 C 1.6 km/h
584 27-07-2019 00:35:00 23.1 C 14.68 g/m*3 23.1 C 4.8 km/h
585 27-07-2019 00:40:00 23 C 14.59 g/m*3 23 C 0 km/h
586 27-07-2019 00:45:00 22.9 C 14.51 g/m*3 22.9 C 0 km/h
587 27-07-2019 00:50:00 22.9 C 14.51 g/m*3 22.9 C 0 km/h
588 27-07-2019 00:55:00 22.8 C 14.63 g/m*3 22.8 C 0 km/h
589 27-07-2019 01:00:00 22.8 C 14.63 g/m*3 22.8 C 0 km/h
590 27-07-2019 01:05:00 22.7 C 14.55 g/m*3 22.7 C 0 km/h
591 27-07-2019 01:10:00 22.7 C 14.75 g/m*3 22.7 C 0 km/h
592 27-07-2019 01:15:00 22.6 C 14.66 g/m*3 22.6 C 0 km/h
593 27-07-2019 01:20:00 22.7 C 14.95 g/m*3 22.7 C 0 km/h
594 27-07-2019 01:25:00 22.7 C 14.75 g/m*3 22.7 C 0 km/h
595 27-07-2019 01:30:00 22.7 C 14.75 g/m*3 22.7 C 0 km/h
596 27-07-2019 01:35:00 22.7 C 14.75 g/m*3 22.7 C 0 km/h
597 27-07-2019 01:40:00 22.7 C 14.95 g/m*3 22.7 C 0 km/h
598 27-07-2019 01:45:00 22.6 C 14.87 g/m*3 22.6 C 0 km/h
599 27-07-2019 01:50:00 22.4 C 14.7 g/m*3 22.4 C 0 km/h
600 27-07-2019 01:55:00 22.3 C 14.61 g/m*3 22.3 C 0 km/h
Sensor: Nr:Datum:Temp:Abs-Feuchte:Windchill:Wind:
Aussen-T/F 601 27-07-2019 02:00:00 22.3 C 14.61 g/m*3 22.3 C 0 km/h
602 27-07-2019 02:05:00 22.3 C 14.41 g/m*3 22.3 C 0 km/h
603 27-07-2019 02:10:00 22.3 C 14.41 g/m*3 22.3 C 0 km/h
604 27-07-2019 02:15:00 22.3 C 14.81 g/m*3 22.3 C 0 km/h
605 27-07-2019 02:20:00 22.4 C 14.89 g/m*3 22.4 C 0 km/h
606 27-07-2019 02:25:00 22.4 C 15.09 g/m*3 22.4 C 0 km/h
607 27-07-2019 02:30:00 22.4 C 15.09 g/m*3 22.4 C 0 km/h
608 27-07-2019 02:35:00 22.4 C 15.09 g/m*3 22.4 C 0 km/h
609 27-07-2019 02:40:00 22.3 C 15.01 g/m*3 22.3 C 0 km/h
610 27-07-2019 02:45:00 22.3 C 15.01 g/m*3 22.3 C 0 km/h
611 27-07-2019 02:50:00 22.3 C 15.01 g/m*3 22.3 C 0 km/h
612 27-07-2019 02:55:00 22.3 C 15.01 g/m*3 22.3 C 0 km/h
613 27-07-2019 03:00:00 22.3 C 15.01 g/m*3 22.3 C 0 km/h
614 27-07-2019 03:05:00 22.3 C 15.01 g/m*3 22.3 C 1.6 km/h
615 27-07-2019 03:10:00 22.3 C 14.61 g/m*3 22.3 C 1.6 km/h
616 27-07-2019 03:15:00 22.4 C 14.7 g/m*3 22.4 C 0 km/h
617 27-07-2019 03:20:00 22.5 C 14.58 g/m*3 22.5 C 0 km/h
618 27-07-2019 03:25:00 22.6 C 14.46 g/m*3 22.6 C 0 km/h
619 27-07-2019 03:30:00 22.6 C 14.26 g/m*3 22.6 C 0 km/h
620 27-07-2019 03:35:00 22.8 C 14.02 g/m*3 22.8 C 3.2 km/h
621 27-07-2019 03:40:00 23.2 C 15.59 g/m*3 23.2 C 1.6 km/h
622 27-07-2019 03:45:00 23.1 C 16.12 g/m*3 23.1 C 0 km/h
623 27-07-2019 03:50:00 22.7 C 15.96 g/m*3 22.7 C 3.2 km/h
624 27-07-2019 03:55:00 22.3 C 15.8 g/m*3 22.3 C 3.2 km/h
625 27-07-2019 04:00:00 21.9 C 16.02 g/m*3 21.9 C 0 km/h
Sensor: Nr:Datum:Temp:Abs-Feuchte:Windchill:Wind:
Aussen-T/F 626 27-07-2019 04:05:00 21.7 C 16.02 g/m*3 21.7 C 0 km/h
627 27-07-2019 04:10:00 21.4 C 15.94 g/m*3 21.4 C 0 km/h
628 27-07-2019 04:15:00 21.1 C 15.66 g/m*3 21.1 C 0 km/h
629 27-07-2019 04:20:00 20.9 C 15.66 g/m*3 20.9 C 0 km/h
630 27-07-2019 04:25:00 20.8 C 15.75 g/m*3 20.8 C 0 km/h
631 27-07-2019 04:30:00 20.7 C 15.66 g/m*3 20.7 C 0 km/h
632 27-07-2019 04:35:00 20.6 C 15.57 g/m*3 20.6 C 0 km/h
633 27-07-2019 04:40:00 20.5 C 15.66 g/m*3 20.5 C 0 km/h
634 27-07-2019 04:45:00 20.4 C 15.57 g/m*3 20.4 C 0 km/h
635 27-07-2019 04:50:00 20.4 C 15.57 g/m*3 20.4 C 0 km/h
636 27-07-2019 04:55:00 20.4 C 15.74 g/m*3 20.4 C 0 km/h
637 27-07-2019 05:00:00 20.4 C 15.57 g/m*3 20.4 C 0 km/h
638 27-07-2019 05:05:00 20.4 C 15.57 g/m*3 20.4 C 0 km/h
639 27-07-2019 05:10:00 20.3 C 15.65 g/m*3 20.3 C 0 km/h
640 27-07-2019 05:15:00 20.3 C 15.65 g/m*3 20.3 C 0 km/h
641 27-07-2019 05:20:00 20.3 C 15.65 g/m*3 20.3 C 0 km/h
642 27-07-2019 05:25:00 20.3 C 15.65 g/m*3 20.3 C 0 km/h
643 27-07-2019 05:30:00 20.2 C 15.56 g/m*3 20.2 C 0 km/h
644 27-07-2019 05:35:00 20.3 C 15.65 g/m*3 20.3 C 0 km/h
645 27-07-2019 05:40:00 20.2 C 15.56 g/m*3 20.2 C 0 km/h
646 27-07-2019 05:45:00 20.2 C 15.56 g/m*3 20.2 C 0 km/h
647 27-07-2019 05:50:00 20.2 C 15.56 g/m*3 20.2 C 0 km/h
648 27-07-2019 05:55:00 20.2 C 15.39 g/m*3 20.2 C 0 km/h
649 27-07-2019 06:00:00 20.2 C 15.39 g/m*3 20.2 C 0 km/h
650 27-07-2019 06:05:00 20.3 C 15.65 g/m*3 20.3 C 0 km/h
Sensor: Nr:Datum:Temp:Abs-Feuchte:Windchill:Wind:
Aussen-T/F 651 27-07-2019 06:10:00 20.3 C 15.48 g/m*3 20.3 C 0 km/h
652 27-07-2019 06:15:00 20.3 C 15.65 g/m*3 20.3 C 0 km/h
653 27-07-2019 06:20:00 20.3 C 15.48 g/m*3 20.3 C 0 km/h
654 27-07-2019 06:25:00 20.4 C 15.74 g/m*3 20.4 C 0 km/h
655 27-07-2019 06:30:00 20.6 C 15.93 g/m*3 20.6 C 3.2 km/h
656 27-07-2019 06:35:00 20.7 C 16.02 g/m*3 20.7 C 0 km/h
657 27-07-2019 06:40:00 20.7 C 15.84 g/m*3 20.7 C 0 km/h
658 27-07-2019 06:45:00 20.8 C 15.93 g/m*3 20.8 C 0 km/h
659 27-07-2019 06:50:00 20.8 C 16.12 g/m*3 20.8 C 0 km/h
660 27-07-2019 06:55:00 20.9 C 16.21 g/m*3 20.9 C 0 km/h
661 27-07-2019 07:00:00 20.9 C 16.21 g/m*3 20.9 C 0 km/h
662 27-07-2019 07:05:00 21 C 16.3 g/m*3 21 C 0 km/h
663 27-07-2019 07:10:00 20.9 C 16.03 g/m*3 20.9 C 0 km/h
664 27-07-2019 07:15:00 21 C 16.3 g/m*3 21 C 0 km/h
665 27-07-2019 07:20:00 21.1 C 16.21 g/m*3 21.1 C 0 km/h
666 27-07-2019 07:25:00 21.2 C 16.31 g/m*3 21.2 C 0 km/h
667 27-07-2019 07:30:00 21.3 C 16.59 g/m*3 21.3 C 0 km/h
668 27-07-2019 07:35:00 21.4 C 16.69 g/m*3 21.4 C 0 km/h
669 27-07-2019 07:40:00 21.4 C 16.5 g/m*3 21.4 C 0 km/h
670 27-07-2019 07:45:00 21.5 C 16.59 g/m*3 21.5 C 0 km/h
671 27-07-2019 07:50:00 21.6 C 16.5 g/m*3 21.6 C 0 km/h
672 27-07-2019 07:55:00 21.7 C 16.41 g/m*3 21.7 C 0 km/h
673 27-07-2019 08:00:00 21.8 C 16.5 g/m*3 21.8 C 0 km/h
674 27-07-2019 08:05:00 21.9 C 16.6 g/m*3 21.9 C 0 km/h
675 27-07-2019 08:10:00 22.1 C 16.79 g/m*3 22.1 C 1.6 km/h
Sensor: Nr:Datum:Temp:Abs-Feuchte:Windchill:Wind:
Aussen-T/F 676 27-07-2019 08:15:00 22.1 C 16.4 g/m*3 22.1 C 0 km/h
677 27-07-2019 08:20:00 22.2 C 16.3 g/m*3 22.2 C 1.6 km/h
678 27-07-2019 08:25:00 22.3 C 16.19 g/m*3 22.3 C 0 km/h
679 27-07-2019 08:30:00 22.5 C 16.18 g/m*3 22.5 C 3.2 km/h
680 27-07-2019 08:35:00 22.8 C 16.26 g/m*3 22.8 C 1.6 km/h
681 27-07-2019 08:40:00 23 C 16.03 g/m*3 23 C 4.8 km/h
682 27-07-2019 08:45:00 23.2 C 16.22 g/m*3 23.2 C 1.6 km/h
683 27-07-2019 08:50:00 23.4 C 16.19 g/m*3 23.4 C 3.2 km/h
684 27-07-2019 08:55:00 23.6 C 16.16 g/m*3 23.6 C 1.6 km/h
685 27-07-2019 09:00:00 23.8 C 16.35 g/m*3 23.8 C 1.6 km/h
686 27-07-2019 09:05:00 24.1 C 16.63 g/m*3 24.1 C 4.8 km/h
687 27-07-2019 09:10:00 24.3 C 16.82 g/m*3 24.3 C 3.2 km/h
688 27-07-2019 09:15:00 24.4 C 16.47 g/m*3 24.4 C 1.6 km/h
689 27-07-2019 09:20:00 24.6 C 16.43 g/m*3 24.6 C 0 km/h
690 27-07-2019 09:25:00 24.8 C 16.62 g/m*3 24.8 C 1.6 km/h
691 27-07-2019 09:30:00 24.9 C 16.71 g/m*3 24.9 C 4.8 km/h
692 27-07-2019 09:35:00 25.1 C 16.9 g/m*3 25.1 C 3.2 km/h
693 27-07-2019 09:40:00 25.1 C 16.67 g/m*3 25.1 C 6.4 km/h
694 27-07-2019 09:45:00 25.2 C 16.76 g/m*3 25.2 C 6.4 km/h
695 27-07-2019 09:50:00 25.2 C 16.76 g/m*3 25.2 C 4.8 km/h
696 27-07-2019 09:55:00 25.2 C 16.76 g/m*3 25.2 C 4.8 km/h
697 27-07-2019 10:00:00 25.2 C 16.76 g/m*3 25.2 C 6.4 km/h
698 27-07-2019 10:05:00 25.3 C 16.62 g/m*3 25.3 C 8.1 km/h
699 27-07-2019 10:10:00 25.3 C 16.62 g/m*3 25.3 C 9.7 km/h
700 27-07-2019 10:15:00 25.3 C 18.73 g/m*3 25.3 C 6.4 km/h
Sensor: Nr:Datum:Temp:Abs-Feuchte:Windchill:Wind:
Aussen-T/F 701 27-07-2019 10:20:00 25 C 18.88 g/m*3 25 C 0 km/h
702 27-07-2019 10:25:00 24.7 C 19.01 g/m*3 24.7 C 0 km/h
703 27-07-2019 10:30:00 24.4 C 18.92 g/m*3 24.4 C 0 km/h
704 27-07-2019 10:35:00 24.2 C 18.92 g/m*3 24.2 C 0 km/h
705 27-07-2019 10:40:00 24.1 C 19.04 g/m*3 24.1 C 0 km/h
706 27-07-2019 10:45:00 24.1 C 19.25 g/m*3 24.1 C 0 km/h
707 27-07-2019 10:50:00 24.1 C 19.04 g/m*3 24.1 C 0 km/h
708 27-07-2019 10:55:00 24 C 18.93 g/m*3 24 C 0 km/h
709 27-07-2019 11:00:00 24 C 19.15 g/m*3 24 C 0 km/h
710 27-07-2019 11:05:00 24.1 C 19.25 g/m*3 24.1 C 0 km/h
711 27-07-2019 11:10:00 24.1 C 19.25 g/m*3 24.1 C 0 km/h
712 27-07-2019 11:15:00 24.1 C 19.25 g/m*3 24.1 C 0 km/h
713 27-07-2019 11:20:00 24.2 C 19.36 g/m*3 24.2 C 0 km/h
714 27-07-2019 11:25:00 24.2 C 19.36 g/m*3 24.2 C 0 km/h
715 27-07-2019 11:30:00 24.2 C 19.14 g/m*3 24.2 C 0 km/h
716 27-07-2019 11:35:00 24 C 18.49 g/m*3 24 C 0 km/h
717 27-07-2019 11:40:00 23.9 C 18.39 g/m*3 23.9 C 1.6 km/h
718 27-07-2019 11:45:00 23.7 C 18.18 g/m*3 23.7 C 0 km/h
719 27-07-2019 11:50:00 23.5 C 17.76 g/m*3 23.5 C 3.2 km/h
720 27-07-2019 11:55:00 23.3 C 17.77 g/m*3 23.3 C 1.6 km/h
721 27-07-2019 12:00:00 23.2 C 17.67 g/m*3 23.2 C 1.6 km/h
722 27-07-2019 12:05:00 23.2 C 18.09 g/m*3 23.2 C 0 km/h
723 27-07-2019 12:10:00 23.2 C 18.29 g/m*3 23.2 C 0 km/h
724 27-07-2019 12:15:00 23.2 C 18.29 g/m*3 23.2 C 0 km/h
725 27-07-2019 12:20:00 23.2 C 17.88 g/m*3 23.2 C 3.2 km/h
Sensor: Nr:Datum:Temp:Abs-Feuchte:Windchill:Wind:
Aussen-T/F 726 27-07-2019 12:25:00 23.3 C 17.77 g/m*3 23.3 C 3.2 km/h
727 27-07-2019 12:30:00 23.5 C 17.76 g/m*3 23.5 C 1.6 km/h
728 27-07-2019 12:35:00 23.8 C 17.42 g/m*3 23.8 C 1.6 km/h
729 27-07-2019 12:40:00 24.1 C 17.5 g/m*3 24.1 C 1.6 km/h
730 27-07-2019 12:45:00 24.4 C 18.25 g/m*3 24.4 C 4.8 km/h
731 27-07-2019 12:50:00 24.8 C 17.75 g/m*3 24.8 C 3.2 km/h
732 27-07-2019 12:55:00 25.1 C 18.06 g/m*3 25.1 C 3.2 km/h
733 27-07-2019 13:00:00 25.3 C 17.56 g/m*3 25.3 C 4.8 km/h
734 27-07-2019 13:05:00 25.5 C 17.99 g/m*3 25.5 C 6.4 km/h
735 27-07-2019 13:10:00 25.7 C 17.72 g/m*3 25.7 C 1.6 km/h
736 27-07-2019 13:15:00 26 C 18.26 g/m*3 26 C 4.8 km/h
737 27-07-2019 13:20:00 26.2 C 18.22 g/m*3 26.2 C 8.1 km/h
738 27-07-2019 13:25:00 26.2 C 18.22 g/m*3 26.2 C 12.9 km/h
739 27-07-2019 13:30:00 26.1 C 18.36 g/m*3 26.1 C 8.1 km/h
740 27-07-2019 13:35:00 26.2 C 18.46 g/m*3 26.2 C 4.8 km/h
741 27-07-2019 13:40:00 26.2 C 18.22 g/m*3 26.2 C 3.2 km/h
742 27-07-2019 13:45:00 26.2 C 17.73 g/m*3 26.2 C 4.8 km/h
743 27-07-2019 13:50:00 26.2 C 17.23 g/m*3 26.2 C 6.4 km/h
744 27-07-2019 13:55:00 26.2 C 17.73 g/m*3 26.2 C 4.8 km/h
745 27-07-2019 14:00:00 26.2 C 16.99 g/m*3 26.2 C 8.1 km/h
746 27-07-2019 14:05:00 26.1 C 17.14 g/m*3 26.1 C 3.2 km/h
747 27-07-2019 14:10:00 25.9 C 16.95 g/m*3 25.9 C 6.4 km/h
748 27-07-2019 14:15:00 25.9 C 16.46 g/m*3 25.9 C 4.8 km/h
749 27-07-2019 14:20:00 25.8 C 16.85 g/m*3 25.8 C 1.6 km/h
750 27-07-2019 14:25:00 25.7 C 16.52 g/m*3 25.7 C 3.2 km/h
Sensor: Nr:Datum:Temp:Abs-Feuchte:Windchill:Wind:
Aussen-T/F 751 27-07-2019 14:30:00 25.6 C 16.9 g/m*3 25.6 C 4.8 km/h
752 27-07-2019 14:35:00 25.5 C 16.81 g/m*3 25.5 C 4.8 km/h
753 27-07-2019 14:40:00 25.5 C 17.28 g/m*3 25.5 C 4.8 km/h
754 27-07-2019 14:45:00 25.5 C 17.28 g/m*3 25.5 C 3.2 km/h
755 27-07-2019 14:50:00 25.5 C 17.76 g/m*3 25.5 C 4.8 km/h
756 27-07-2019 14:55:00 25.5 C 17.52 g/m*3 25.5 C 6.4 km/h
757 27-07-2019 15:00:00 25.3 C 17.32 g/m*3 25.3 C 8.1 km/h
758 27-07-2019 15:05:00 25.1 C 17.13 g/m*3 25.1 C 11.3 km/h
759 27-07-2019 15:10:00 24.8 C 16.84 g/m*3 24.8 C 8.1 km/h
760 27-07-2019 15:15:00 24.7 C 16.98 g/m*3 24.7 C 3.2 km/h
761 27-07-2019 15:20:00 24.7 C 16.98 g/m*3 24.7 C 4.8 km/h
762 27-07-2019 15:25:00 24.8 C 17.07 g/m*3 24.8 C 3.2 km/h
763 27-07-2019 15:30:00 24.8 C 16.84 g/m*3 24.8 C 6.4 km/h
764 27-07-2019 15:35:00 25 C 17.03 g/m*3 25 C 9.7 km/h
765 27-07-2019 15:40:00 25.1 C 17.13 g/m*3 25.1 C 8.1 km/h
766 27-07-2019 15:45:00 25.2 C 16.99 g/m*3 25.2 C 8.1 km/h
767 27-07-2019 15:50:00 25.4 C 17.19 g/m*3 25.4 C 8.1 km/h
768 27-07-2019 15:55:00 25.6 C 17.62 g/m*3 25.6 C 8.1 km/h
769 27-07-2019 16:00:00 25.8 C 17.33 g/m*3 25.8 C 11.3 km/h
770 27-07-2019 16:05:00 26.1 C 17.14 g/m*3 26.1 C 12.9 km/h
771 27-07-2019 16:10:00 26.2 C 16.74 g/m*3 26.2 C 9.7 km/h
772 27-07-2019 16:15:00 26.2 C 16.49 g/m*3 26.2 C 12.9 km/h
773 27-07-2019 16:20:00 26.2 C 16.74 g/m*3 26.2 C 12.9 km/h
774 27-07-2019 16:25:00 26.3 C 16.83 g/m*3 26.3 C 9.7 km/h
775 27-07-2019 16:30:00 26.3 C 16.59 g/m*3 26.3 C 11.3 km/h
Sensor: Nr:Datum:Temp:Abs-Feuchte:Windchill:Wind:
Aussen-T/F 776 27-07-2019 16:35:00 26.2 C 16.49 g/m*3 26.2 C 9.7 km/h
777 27-07-2019 16:40:00 25.9 C 16.46 g/m*3 25.9 C 8.1 km/h
778 27-07-2019 16:45:00 25.7 C 16.04 g/m*3 25.7 C 12.9 km/h
779 27-07-2019 16:50:00 25.5 C 16.34 g/m*3 25.5 C 12.9 km/h
780 27-07-2019 16:55:00 25.2 C 16.53 g/m*3 25.2 C 14.5 km/h
781 27-07-2019 17:00:00 24.9 C 16.71 g/m*3 24.9 C 12.9 km/h
782 27-07-2019 17:05:00 24.6 C 16.66 g/m*3 24.6 C 12.9 km/h
783 27-07-2019 17:10:00 24.5 C 17.01 g/m*3 24.5 C 9.7 km/h
784 27-07-2019 17:15:00 24.5 C 17.23 g/m*3 24.5 C 6.4 km/h
785 27-07-2019 17:20:00 24.5 C 17.23 g/m*3 24.5 C 6.4 km/h
786 27-07-2019 17:25:00 24.5 C 17.23 g/m*3 24.5 C 8.1 km/h
787 27-07-2019 17:30:00 24.4 C 16.91 g/m*3 24.4 C 8.1 km/h
788 27-07-2019 17:35:00 24.4 C 16.91 g/m*3 24.4 C 8.1 km/h
789 27-07-2019 17:40:00 24.4 C 17.14 g/m*3 24.4 C 6.4 km/h
790 27-07-2019 17:45:00 24.4 C 16.91 g/m*3 24.4 C 4.8 km/h
791 27-07-2019 17:50:00 24.4 C 16.91 g/m*3 24.4 C 4.8 km/h
792 27-07-2019 17:55:00 24.4 C 16.91 g/m*3 24.4 C 6.4 km/h
793 27-07-2019 18:00:00 24.4 C 17.14 g/m*3 24.4 C 6.4 km/h
794 27-07-2019 18:05:00 24.4 C 17.14 g/m*3 24.4 C 6.4 km/h
795 27-07-2019 18:10:00 24.4 C 16.91 g/m*3 24.4 C 4.8 km/h
796 27-07-2019 18:15:00 24.6 C 17.33 g/m*3 24.6 C 4.8 km/h
797 27-07-2019 18:20:00 24.8 C 17.3 g/m*3 24.8 C 8.1 km/h
798 27-07-2019 18:25:00 25.1 C 17.36 g/m*3 25.1 C 4.8 km/h
799 27-07-2019 18:30:00 25.4 C 17.66 g/m*3 25.4 C 6.4 km/h
800 27-07-2019 18:35:00 25.3 C 17.56 g/m*3 25.3 C 6.4 km/h
Sensor: Nr:Datum:Temp:Abs-Feuchte:Windchill:Wind:
Aussen-T/F 801 27-07-2019 18:40:00 25.3 C 17.56 g/m*3 25.3 C 6.4 km/h
802 27-07-2019 18:45:00 25.2 C 17.46 g/m*3 25.2 C 6.4 km/h
803 27-07-2019 18:50:00 25.1 C 17.36 g/m*3 25.1 C 6.4 km/h
804 27-07-2019 18:55:00 24.9 C 17.4 g/m*3 24.9 C 8.1 km/h
805 27-07-2019 19:00:00 24.7 C 17.43 g/m*3 24.7 C 9.7 km/h
806 27-07-2019 19:05:00 24.5 C 17.23 g/m*3 24.5 C 8.1 km/h
807 27-07-2019 19:10:00 24.3 C 16.82 g/m*3 24.3 C 8.1 km/h
808 27-07-2019 19:15:00 24.1 C 16.85 g/m*3 24.1 C 9.7 km/h
809 27-07-2019 19:20:00 23.9 C 17.09 g/m*3 23.9 C 6.4 km/h
810 27-07-2019 19:25:00 23.8 C 17.42 g/m*3 23.8 C 9.7 km/h
811 27-07-2019 19:30:00 23.7 C 17.54 g/m*3 23.7 C 4.8 km/h
812 27-07-2019 19:35:00 23.6 C 17.65 g/m*3 23.6 C 4.8 km/h
813 27-07-2019 19:40:00 23.4 C 17.66 g/m*3 23.4 C 4.8 km/h
814 27-07-2019 19:45:00 23.4 C 17.66 g/m*3 23.4 C 4.8 km/h
815 27-07-2019 19:50:00 23.4 C 17.87 g/m*3 23.4 C 4.8 km/h
816 27-07-2019 19:55:00 23.3 C 17.56 g/m*3 23.3 C 8.1 km/h
817 27-07-2019 20:00:00 23.2 C 17.46 g/m*3 23.2 C 6.4 km/h
818 27-07-2019 20:05:00 23.1 C 17.57 g/m*3 23.1 C 6.4 km/h
819 27-07-2019 20:10:00 23.1 C 17.57 g/m*3 23.1 C 4.8 km/h
820 27-07-2019 20:15:00 23 C 17.47 g/m*3 23 C 3.2 km/h
821 27-07-2019 20:20:00 23 C 17.47 g/m*3 23 C 6.4 km/h
822 27-07-2019 20:25:00 22.9 C 17.37 g/m*3 22.9 C 6.4 km/h
823 27-07-2019 20:30:00 22.8 C 17.27 g/m*3 22.8 C 4.8 km/h
824 27-07-2019 20:35:00 22.8 C 17.27 g/m*3 22.8 C 4.8 km/h
825 27-07-2019 20:40:00 22.8 C 17.27 g/m*3 22.8 C 6.4 km/h
Sensor: Nr:Datum:Temp:Abs-Feuchte:Windchill:Wind:
Aussen-T/F 826 27-07-2019 20:45:00 22.7 C 17.17 g/m*3 22.7 C 6.4 km/h
827 27-07-2019 20:50:00 22.6 C 17.08 g/m*3 22.6 C 4.8 km/h
828 27-07-2019 20:55:00 22.6 C 17.08 g/m*3 22.6 C 8.1 km/h
829 27-07-2019 21:00:00 22.4 C 16.88 g/m*3 22.4 C 6.4 km/h
830 27-07-2019 21:05:00 22.4 C 16.88 g/m*3 22.4 C 6.4 km/h
831 27-07-2019 21:10:00 22.3 C 16.78 g/m*3 22.3 C 4.8 km/h
832 27-07-2019 21:15:00 22.3 C 16.78 g/m*3 22.3 C 4.8 km/h
833 27-07-2019 21:20:00 22.2 C 16.88 g/m*3 22.2 C 4.8 km/h
834 27-07-2019 21:25:00 22.1 C 16.79 g/m*3 22.1 C 8.1 km/h
835 27-07-2019 21:30:00 22.1 C 16.79 g/m*3 22.1 C 9.7 km/h
836 27-07-2019 21:35:00 21.9 C 16.6 g/m*3 21.9 C 6.4 km/h
837 27-07-2019 21:40:00 21.9 C 16.6 g/m*3 21.9 C 8.1 km/h
838 27-07-2019 21:45:00 21.8 C 16.5 g/m*3 21.8 C 3.2 km/h
839 27-07-2019 21:50:00 21.8 C 16.5 g/m*3 21.8 C 9.7 km/h
840 27-07-2019 21:55:00 21.7 C 16.41 g/m*3 21.7 C 11.3 km/h
841 27-07-2019 22:00:00 21.7 C 16.41 g/m*3 21.7 C 8.1 km/h
842 27-07-2019 22:05:00 21.6 C 16.5 g/m*3 21.6 C 9.7 km/h
843 27-07-2019 22:10:00 21.6 C 16.5 g/m*3 21.6 C 8.1 km/h
844 27-07-2019 22:15:00 21.6 C 16.5 g/m*3 21.6 C 8.1 km/h
845 27-07-2019 22:20:00 21.5 C 16.41 g/m*3 21.5 C 12.9 km/h
846 27-07-2019 22:25:00 21.4 C 16.31 g/m*3 21.4 C 6.4 km/h
847 27-07-2019 22:30:00 21.4 C 16.31 g/m*3 21.4 C 4.8 km/h
848 27-07-2019 22:35:00 21.4 C 16.31 g/m*3 21.4 C 9.7 km/h
849 27-07-2019 22:40:00 21.3 C 16.22 g/m*3 21.3 C 8.1 km/h
850 27-07-2019 22:45:00 21.3 C 16.4 g/m*3 21.3 C 8.1 km/h
Sensor: Nr:Datum:Temp:Abs-Feuchte:Windchill:Wind:
Aussen-T/F 851 27-07-2019 22:50:00 21.3 C 16.4 g/m*3 21.3 C 6.4 km/h
852 27-07-2019 22:55:00 21.3 C 16.4 g/m*3 21.3 C 4.8 km/h
853 27-07-2019 23:00:00 21.3 C 16.4 g/m*3 21.3 C 8.1 km/h
854 27-07-2019 23:05:00 21.2 C 16.31 g/m*3 21.2 C 6.4 km/h
855 27-07-2019 23:10:00 21.2 C 16.31 g/m*3 21.2 C 8.1 km/h
856 27-07-2019 23:15:00 21.2 C 16.49 g/m*3 21.2 C 4.8 km/h
857 27-07-2019 23:20:00 21.2 C 16.49 g/m*3 21.2 C 1.6 km/h
858 27-07-2019 23:25:00 21.2 C 16.49 g/m*3 21.2 C 3.2 km/h
859 27-07-2019 23:30:00 21.1 C 16.4 g/m*3 21.1 C 0 km/h
860 27-07-2019 23:35:00 21.1 C 16.4 g/m*3 21.1 C 0 km/h
861 27-07-2019 23:40:00 21.1 C 16.4 g/m*3 21.1 C 1.6 km/h
862 27-07-2019 23:45:00 21.1 C 16.4 g/m*3 21.1 C 0 km/h
863 27-07-2019 23:50:00 21 C 16.3 g/m*3 21 C 0 km/h
864 27-07-2019 23:55:00 21 C 16.3 g/m*3 21 C 4.8 km/h
865 28-07-2019 00:00:00 20.9 C 16.21 g/m*3 20.9 C 3.2 km/h
866 28-07-2019 00:05:00 20.9 C 16.39 g/m*3 20.9 C 3.2 km/h
867 28-07-2019 00:10:00 20.9 C 16.39 g/m*3 20.9 C 1.6 km/h
868 28-07-2019 00:15:00 20.9 C 16.39 g/m*3 20.9 C 4.8 km/h
869 28-07-2019 00:20:00 20.8 C 16.3 g/m*3 20.8 C 1.6 km/h
870 28-07-2019 00:25:00 20.8 C 16.3 g/m*3 20.8 C 1.6 km/h
871 28-07-2019 00:30:00 20.8 C 16.3 g/m*3 20.8 C 3.2 km/h
872 28-07-2019 00:35:00 20.8 C 16.3 g/m*3 20.8 C 4.8 km/h
873 28-07-2019 00:40:00 20.8 C 16.3 g/m*3 20.8 C 0 km/h
874 28-07-2019 00:45:00 20.8 C 16.3 g/m*3 20.8 C 3.2 km/h
875 28-07-2019 00:50:00 20.8 C 16.3 g/m*3 20.8 C 4.8 km/h
Sensor: Nr:Datum:Temp:Abs-Feuchte:Windchill:Wind:
Aussen-T/F 876 28-07-2019 00:55:00 20.8 C 16.3 g/m*3 20.8 C 1.6 km/h
877 28-07-2019 01:00:00 20.8 C 16.3 g/m*3 20.8 C 6.4 km/h
878 28-07-2019 01:05:00 20.7 C 16.2 g/m*3 20.7 C 3.2 km/h
879 28-07-2019 01:10:00 20.7 C 16.2 g/m*3 20.7 C 3.2 km/h
880 28-07-2019 01:15:00 20.7 C 16.2 g/m*3 20.7 C 4.8 km/h
881 28-07-2019 01:20:00 20.7 C 16.2 g/m*3 20.7 C 3.2 km/h
882 28-07-2019 01:25:00 20.7 C 16.2 g/m*3 20.7 C 4.8 km/h
883 28-07-2019 01:30:00 20.7 C 16.2 g/m*3 20.7 C 3.2 km/h
884 28-07-2019 01:35:00 20.7 C 16.2 g/m*3 20.7 C 0 km/h
885 28-07-2019 01:40:00 20.7 C 16.2 g/m*3 20.7 C 0 km/h
886 28-07-2019 01:45:00 20.7 C 16.2 g/m*3 20.7 C 0 km/h
887 28-07-2019 01:50:00 20.7 C 16.2 g/m*3 20.7 C 0 km/h
888 28-07-2019 01:55:00 20.7 C 16.2 g/m*3 20.7 C 4.8 km/h
889 28-07-2019 02:00:00 20.7 C 16.2 g/m*3 20.7 C 4.8 km/h
890 28-07-2019 02:05:00 20.7 C 16.2 g/m*3 20.7 C 3.2 km/h
891 28-07-2019 02:10:00 20.7 C 16.2 g/m*3 20.7 C 1.6 km/h
892 28-07-2019 02:15:00 20.7 C 16.2 g/m*3 20.7 C 0 km/h
893 28-07-2019 02:20:00 20.7 C 16.2 g/m*3 20.7 C 3.2 km/h
894 28-07-2019 02:25:00 20.7 C 16.2 g/m*3 20.7 C 3.2 km/h
895 28-07-2019 02:30:00 20.7 C 16.2 g/m*3 20.7 C 0 km/h
896 28-07-2019 02:35:00 20.7 C 16.2 g/m*3 20.7 C 3.2 km/h
897 28-07-2019 02:40:00 20.7 C 16.2 g/m*3 20.7 C 1.6 km/h
898 28-07-2019 02:45:00 20.7 C 16.2 g/m*3 20.7 C 0 km/h
899 28-07-2019 02:50:00 20.7 C 16.2 g/m*3 20.7 C 0 km/h
900 28-07-2019 02:55:00 20.7 C 16.2 g/m*3 20.7 C 0 km/h
Sensor: Nr:Datum:Temp:Abs-Feuchte:Windchill:Wind:
Aussen-T/F 901 28-07-2019 03:00:00 20.7 C 16.2 g/m*3 20.7 C 0 km/h
902 28-07-2019 03:05:00 20.7 C 16.2 g/m*3 20.7 C 0 km/h
903 28-07-2019 03:10:00 20.7 C 16.2 g/m*3 20.7 C 1.6 km/h
904 28-07-2019 03:15:00 20.7 C 16.2 g/m*3 20.7 C 0 km/h
905 28-07-2019 03:20:00 20.7 C 16.2 g/m*3 20.7 C 1.6 km/h
906 28-07-2019 03:25:00 20.7 C 16.2 g/m*3 20.7 C 0 km/h
907 28-07-2019 03:30:00 20.7 C 16.2 g/m*3 20.7 C 0 km/h
908 28-07-2019 03:35:00 20.7 C 16.2 g/m*3 20.7 C 0 km/h
909 28-07-2019 03:40:00 20.7 C 16.2 g/m*3 20.7 C 0 km/h
910 28-07-2019 03:45:00 20.7 C 16.2 g/m*3 20.7 C 0 km/h
911 28-07-2019 03:50:00 20.6 C 16.11 g/m*3 20.6 C 1.6 km/h
912 28-07-2019 03:55:00 20.6 C 16.11 g/m*3 20.6 C 0 km/h
913 28-07-2019 04:00:00 20.7 C 16.2 g/m*3 20.7 C 0 km/h
914 28-07-2019 04:05:00 20.6 C 16.11 g/m*3 20.6 C 0 km/h
915 28-07-2019 04:10:00 20.6 C 16.29 g/m*3 20.6 C 6.4 km/h
916 28-07-2019 04:15:00 20.6 C 16.29 g/m*3 20.6 C 1.6 km/h
917 28-07-2019 04:20:00 20.6 C 16.29 g/m*3 20.6 C 3.2 km/h
918 28-07-2019 04:25:00 20.6 C 16.29 g/m*3 20.6 C 0 km/h
919 28-07-2019 04:30:00 20.6 C 16.29 g/m*3 20.6 C 0 km/h
920 28-07-2019 04:35:00 20.6 C 16.29 g/m*3 20.6 C 0 km/h
921 28-07-2019 04:40:00 20.6 C 16.29 g/m*3 20.6 C 0 km/h
922 28-07-2019 04:45:00 20.6 C 16.29 g/m*3 20.6 C 0 km/h
923 28-07-2019 04:50:00 20.6 C 16.29 g/m*3 20.6 C 0 km/h
924 28-07-2019 04:55:00 20.6 C 16.29 g/m*3 20.6 C 0 km/h
925 28-07-2019 05:00:00 20.6 C 16.29 g/m*3 20.6 C 0 km/h
Sensor: Nr:Datum:Temp:Abs-Feuchte:Windchill:Wind:
Aussen-T/F 926 28-07-2019 05:05:00 20.6 C 16.29 g/m*3 20.6 C 4.8 km/h
927 28-07-2019 05:10:00 20.6 C 16.29 g/m*3 20.6 C 3.2 km/h
928 28-07-2019 05:15:00 20.6 C 16.29 g/m*3 20.6 C 4.8 km/h
929 28-07-2019 05:20:00 20.6 C 16.29 g/m*3 20.6 C 6.4 km/h
930 28-07-2019 05:25:00 20.6 C 16.29 g/m*3 20.6 C 1.6 km/h
931 28-07-2019 05:30:00 20.5 C 16.19 g/m*3 20.5 C 1.6 km/h
932 28-07-2019 05:35:00 20.5 C 16.19 g/m*3 20.5 C 1.6 km/h
933 28-07-2019 05:40:00 20.5 C 16.19 g/m*3 20.5 C 3.2 km/h
934 28-07-2019 05:45:00 20.5 C 16.19 g/m*3 20.5 C 0 km/h
935 28-07-2019 05:50:00 20.5 C 16.19 g/m*3 20.5 C 0 km/h
936 28-07-2019 05:55:00 20.5 C 16.19 g/m*3 20.5 C 0 km/h
937 28-07-2019 06:00:00 20.5 C 16.19 g/m*3 20.5 C 3.2 km/h
938 28-07-2019 06:05:00 20.5 C 16.19 g/m*3 20.5 C 0 km/h
939 28-07-2019 06:10:00 20.5 C 16.19 g/m*3 20.5 C 0 km/h
940 28-07-2019 06:15:00 20.5 C 16.19 g/m*3 20.5 C 0 km/h
941 28-07-2019 06:20:00 20.5 C 16.19 g/m*3 20.5 C 0 km/h
942 28-07-2019 06:25:00 20.5 C 16.19 g/m*3 20.5 C 1.6 km/h
943 28-07-2019 06:30:00 20.5 C 16.19 g/m*3 20.5 C 4.8 km/h
944 28-07-2019 06:35:00 20.6 C 16.29 g/m*3 20.6 C 3.2 km/h
945 28-07-2019 06:40:00 20.6 C 16.29 g/m*3 20.6 C 4.8 km/h
946 28-07-2019 06:45:00 20.6 C 16.29 g/m*3 20.6 C 3.2 km/h
947 28-07-2019 06:50:00 20.6 C 16.29 g/m*3 20.6 C 1.6 km/h
948 28-07-2019 06:55:00 20.6 C 16.29 g/m*3 20.6 C 3.2 km/h
949 28-07-2019 07:00:00 20.6 C 16.29 g/m*3 20.6 C 4.8 km/h
950 28-07-2019 07:05:00 20.7 C 16.38 g/m*3 20.7 C 3.2 km/h
Sensor: Nr:Datum:Temp:Abs-Feuchte:Windchill:Wind:
Aussen-T/F 951 28-07-2019 07:10:00 20.7 C 16.38 g/m*3 20.7 C 6.4 km/h
952 28-07-2019 07:15:00 20.7 C 16.2 g/m*3 20.7 C 9.7 km/h
953 28-07-2019 07:20:00 20.7 C 16.2 g/m*3 20.7 C 8.1 km/h
954 28-07-2019 07:25:00 20.7 C 16.2 g/m*3 20.7 C 6.4 km/h
955 28-07-2019 07:30:00 20.7 C 16.2 g/m*3 20.7 C 12.9 km/h
956 28-07-2019 07:35:00 20.7 C 16.2 g/m*3 20.7 C 12.9 km/h
957 28-07-2019 07:40:00 20.7 C 16.2 g/m*3 20.7 C 8.1 km/h
958 28-07-2019 07:45:00 20.7 C 16.02 g/m*3 20.7 C 4.8 km/h
959 28-07-2019 07:50:00 20.7 C 16.02 g/m*3 20.7 C 4.8 km/h
960 28-07-2019 07:55:00 20.7 C 16.02 g/m*3 20.7 C 9.7 km/h
961 28-07-2019 08:00:00 20.7 C 16.02 g/m*3 20.7 C 11.3 km/h
962 28-07-2019 08:05:00 20.7 C 16.02 g/m*3 20.7 C 4.8 km/h
963 28-07-2019 08:10:00 20.8 C 16.12 g/m*3 20.8 C 6.4 km/h
964 28-07-2019 08:15:00 20.8 C 16.12 g/m*3 20.8 C 8.1 km/h
965 28-07-2019 08:20:00 20.7 C 16.02 g/m*3 20.7 C 11.3 km/h
966 28-07-2019 08:25:00 20.7 C 16.02 g/m*3 20.7 C 8.1 km/h
967 28-07-2019 08:30:00 20.7 C 16.02 g/m*3 20.7 C 6.4 km/h
968 28-07-2019 08:35:00 20.7 C 16.02 g/m*3 20.7 C 8.1 km/h
969 28-07-2019 08:40:00 20.7 C 16.02 g/m*3 20.7 C 9.7 km/h
970 28-07-2019 08:45:00 20.7 C 16.02 g/m*3 20.7 C 9.7 km/h
971 28-07-2019 08:50:00 20.7 C 16.02 g/m*3 20.7 C 8.1 km/h
972 28-07-2019 08:55:00 20.7 C 16.2 g/m*3 20.7 C 8.1 km/h
973 28-07-2019 09:00:00 20.6 C 16.11 g/m*3 20.6 C 4.8 km/h
974 28-07-2019 09:05:00 20.6 C 16.11 g/m*3 20.6 C 8.1 km/h
975 28-07-2019 09:10:00 20.6 C 16.11 g/m*3 20.6 C 6.4 km/h
Sensor: Nr:Datum:Temp:Abs-Feuchte:Windchill:Wind:
Aussen-T/F 976 28-07-2019 09:15:00 20.6 C 16.11 g/m*3 20.6 C 8.1 km/h
977 28-07-2019 09:20:00 20.5 C 16.01 g/m*3 20.5 C 8.1 km/h
978 28-07-2019 09:25:00 20.4 C 15.92 g/m*3 20.4 C 8.1 km/h
979 28-07-2019 09:30:00 20.4 C 15.92 g/m*3 20.4 C 6.4 km/h
980 28-07-2019 09:35:00 20.3 C 15.83 g/m*3 20.3 C 11.3 km/h
981 28-07-2019 09:40:00 20.3 C 16 g/m*3 20.3 C 9.7 km/h
982 28-07-2019 09:45:00 20.3 C 16 g/m*3 20.3 C 9.7 km/h
983 28-07-2019 09:50:00 20.3 C 16 g/m*3 20.3 C 9.7 km/h
984 28-07-2019 09:55:00 20.2 C 15.91 g/m*3 20.2 C 9.7 km/h
985 28-07-2019 10:00:00 20.2 C 15.91 g/m*3 20.2 C 8.1 km/h
986 28-07-2019 10:05:00 20.2 C 15.91 g/m*3 20.2 C 6.4 km/h
987 28-07-2019 10:10:00 20.2 C 15.91 g/m*3 20.2 C 4.8 km/h
988 28-07-2019 10:15:00 20.2 C 15.91 g/m*3 20.2 C 11.3 km/h
989 28-07-2019 10:20:00 20.1 C 15.82 g/m*3 20.1 C 6.4 km/h
990 28-07-2019 10:25:00 20.1 C 15.99 g/m*3 20.1 C 11.3 km/h
991 28-07-2019 10:30:00 19.9 C 15.81 g/m*3 19.9 C 9.7 km/h
992 28-07-2019 10:35:00 19.9 C 15.81 g/m*3 19.9 C 11.3 km/h
993 28-07-2019 10:40:00 19.9 C 15.81 g/m*3 19.9 C 9.7 km/h
994 28-07-2019 10:45:00 19.9 C 15.98 g/m*3 19.9 C 8.1 km/h
995 28-07-2019 10:50:00 19.8 C 15.89 g/m*3 19.8 C 6.4 km/h
996 28-07-2019 10:55:00 19.9 C 15.98 g/m*3 19.9 C 3.2 km/h
997 28-07-2019 11:00:00 19.8 C 15.89 g/m*3 19.8 C 4.8 km/h
998 28-07-2019 11:05:00 19.8 C 15.89 g/m*3 19.8 C 6.4 km/h
999 28-07-2019 11:10:00 19.8 C 15.89 g/m*3 19.8 C 3.2 km/h
1000 28-07-2019 11:15:00 19.8 C 15.89 g/m*3 19.8 C 4.8 km/h
Sensor: Nr:Datum:Temp:Abs-Feuchte:Windchill:Wind:
Aussen-T/F 1001 28-07-2019 11:20:00 19.9 C 15.98 g/m*3 19.9 C 1.6 km/h
1002 28-07-2019 11:25:00 19.9 C 15.98 g/m*3 19.9 C 4.8 km/h
1003 28-07-2019 11:30:00 20.1 C 15.99 g/m*3 20.1 C 6.4 km/h
1004 28-07-2019 11:35:00 20.2 C 16.09 g/m*3 20.2 C 8.1 km/h
1005 28-07-2019 11:40:00 20.3 C 16 g/m*3 20.3 C 8.1 km/h
1006 28-07-2019 11:45:00 20.4 C 15.92 g/m*3 20.4 C 12.9 km/h
1007 28-07-2019 11:50:00 20.4 C 15.92 g/m*3 20.4 C 4.8 km/h
1008 28-07-2019 11:55:00 20.6 C 15.93 g/m*3 20.6 C 4.8 km/h
1009 28-07-2019 12:00:00 20.6 C 15.93 g/m*3 20.6 C 8.1 km/h
1010 28-07-2019 12:05:00 20.5 C 15.84 g/m*3 20.5 C 9.7 km/h
1011 28-07-2019 12:10:00 20.5 C 15.84 g/m*3 20.5 C 6.4 km/h
1012 28-07-2019 12:15:00 20.5 C 15.66 g/m*3 20.5 C 9.7 km/h
1013 28-07-2019 12:20:00 20.5 C 15.66 g/m*3 20.5 C 8.1 km/h
1014 28-07-2019 12:25:00 20.5 C 15.66 g/m*3 20.5 C 1.6 km/h
1015 28-07-2019 12:30:00 20.4 C 15.39 g/m*3 20.4 C 8.1 km/h
1016 28-07-2019 12:35:00 20.5 C 15.48 g/m*3 20.5 C 6.4 km/h
1017 28-07-2019 12:40:00 20.6 C 15.75 g/m*3 20.6 C 6.4 km/h
1018 28-07-2019 12:45:00 20.5 C 15.48 g/m*3 20.5 C 8.1 km/h
1019 28-07-2019 12:50:00 20.5 C 15.48 g/m*3 20.5 C 9.7 km/h
1020 28-07-2019 12:55:00 20.5 C 15.48 g/m*3 20.5 C 11.3 km/h
1021 28-07-2019 13:00:00 20.5 C 15.48 g/m*3 20.5 C 4.8 km/h
1022 28-07-2019 13:05:00 20.6 C 15.57 g/m*3 20.6 C 4.8 km/h
1023 28-07-2019 13:10:00 20.5 C 15.3 g/m*3 20.5 C 9.7 km/h
1024 28-07-2019 13:15:00 20.5 C 15.3 g/m*3 20.5 C 3.2 km/h
1025 28-07-2019 13:20:00 20.4 C 15.21 g/m*3 20.4 C 8.1 km/h
Sensor: Nr:Datum:Temp:Abs-Feuchte:Windchill:Wind:
Aussen-T/F 1026 28-07-2019 13:25:00 20.4 C 15.39 g/m*3 20.4 C 8.1 km/h
1027 28-07-2019 13:30:00 20.4 C 15.39 g/m*3 20.4 C 4.8 km/h
1028 28-07-2019 13:35:00 20.3 C 15.3 g/m*3 20.3 C 8.1 km/h
1029 28-07-2019 13:40:00 20.2 C 15.39 g/m*3 20.2 C 6.4 km/h
1030 28-07-2019 13:45:00 20.1 C 15.47 g/m*3 20.1 C 8.1 km/h
1031 28-07-2019 13:50:00 19.9 C 15.29 g/m*3 19.9 C 8.1 km/h
1032 28-07-2019 13:55:00 19.9 C 15.29 g/m*3 19.9 C 3.2 km/h
1033 28-07-2019 14:00:00 19.9 C 15.29 g/m*3 19.9 C 4.8 km/h
1034 28-07-2019 14:05:00 19.9 C 15.29 g/m*3 19.9 C 4.8 km/h
1035 28-07-2019 14:10:00 19.9 C 15.46 g/m*3 19.9 C 4.8 km/h
1036 28-07-2019 14:15:00 19.9 C 15.46 g/m*3 19.9 C 8.1 km/h
1037 28-07-2019 14:20:00 19.9 C 15.46 g/m*3 19.9 C 9.7 km/h
1038 28-07-2019 14:25:00 20 C 15.38 g/m*3 20 C 4.8 km/h
1039 28-07-2019 14:30:00 20.1 C 15.47 g/m*3 20.1 C 4.8 km/h
1040 28-07-2019 14:35:00 20.1 C 15.47 g/m*3 20.1 C 6.4 km/h
1041 28-07-2019 14:40:00 20.1 C 15.47 g/m*3 20.1 C 6.4 km/h
1042 28-07-2019 14:45:00 20.1 C 15.47 g/m*3 20.1 C 9.7 km/h
1043 28-07-2019 14:50:00 20 C 15.38 g/m*3 20 C 9.7 km/h
1044 28-07-2019 14:55:00 19.9 C 15.29 g/m*3 19.9 C 4.8 km/h
1045 28-07-2019 15:00:00 20 C 15.38 g/m*3 20 C 3.2 km/h
1046 28-07-2019 15:05:00 19.9 C 15.29 g/m*3 19.9 C 9.7 km/h
1047 28-07-2019 15:10:00 19.9 C 15.12 g/m*3 19.9 C 8.1 km/h
1048 28-07-2019 15:15:00 19.9 C 15.12 g/m*3 19.9 C 12.9 km/h
1049 28-07-2019 15:20:00 19.9 C 15.29 g/m*3 19.9 C 3.2 km/h
1050 28-07-2019 15:25:00 19.9 C 15.12 g/m*3 19.9 C 6.4 km/h
Sensor: Nr:Datum:Temp:Abs-Feuchte:Windchill:Wind:
Aussen-T/F 1051 28-07-2019 15:30:00 19.9 C 15.12 g/m*3 19.9 C 11.3 km/h
1052 28-07-2019 15:35:00 19.9 C 15.12 g/m*3 19.9 C 8.1 km/h
1053 28-07-2019 15:40:00 19.9 C 15.12 g/m*3 19.9 C 8.1 km/h
1054 28-07-2019 15:45:00 19.9 C 15.12 g/m*3 19.9 C 6.4 km/h
1055 28-07-2019 15:50:00 19.9 C 15.12 g/m*3 19.9 C 9.7 km/h
1056 28-07-2019 15:55:00 19.9 C 14.95 g/m*3 19.9 C 6.4 km/h
1057 28-07-2019 16:00:00 19.9 C 15.12 g/m*3 19.9 C 1.6 km/h
1058 28-07-2019 16:05:00 19.9 C 14.95 g/m*3 19.9 C 6.4 km/h
1059 28-07-2019 16:10:00 19.9 C 14.95 g/m*3 19.9 C 8.1 km/h
1060 28-07-2019 16:15:00 19.9 C 14.95 g/m*3 19.9 C 6.4 km/h
1061 28-07-2019 16:20:00 19.8 C 14.86 g/m*3 19.8 C 12.9 km/h
1062 28-07-2019 16:25:00 19.8 C 15.03 g/m*3 19.8 C 3.2 km/h
1063 28-07-2019 16:30:00 19.8 C 15.03 g/m*3 19.8 C 8.1 km/h
1064 28-07-2019 16:35:00 19.8 C 15.03 g/m*3 19.8 C 6.4 km/h
1065 28-07-2019 16:40:00 19.8 C 15.03 g/m*3 19.8 C 4.8 km/h
1066 28-07-2019 16:45:00 19.7 C 14.94 g/m*3 19.7 C 8.1 km/h
1067 28-07-2019 16:50:00 19.7 C 14.94 g/m*3 19.7 C 0 km/h
1068 28-07-2019 16:55:00 19.8 C 15.03 g/m*3 19.8 C 4.8 km/h
1069 28-07-2019 17:00:00 19.7 C 14.94 g/m*3 19.7 C 9.7 km/h
1070 28-07-2019 17:05:00 19.8 C 15.2 g/m*3 19.8 C 0 km/h
1071 28-07-2019 17:10:00 19.7 C 15.11 g/m*3 19.7 C 4.8 km/h
1072 28-07-2019 17:15:00 19.6 C 15.02 g/m*3 19.6 C 8.1 km/h
1073 28-07-2019 17:20:00 19.4 C 14.85 g/m*3 19.4 C 8.1 km/h
1074 28-07-2019 17:25:00 19.4 C 15.02 g/m*3 19.4 C 0 km/h
1075 28-07-2019 17:30:00 19.4 C 15.02 g/m*3 19.4 C 3.2 km/h
Sensor: Nr:Datum:Temp:Abs-Feuchte:Windchill:Wind:
Aussen-T/F 1076 28-07-2019 17:35:00 19.3 C 14.93 g/m*3 19.3 C 4.8 km/h
1077 28-07-2019 17:40:00 19.3 C 14.93 g/m*3 19.3 C 3.2 km/h
1078 28-07-2019 17:45:00 19.3 C 15.09 g/m*3 19.3 C 0 km/h
1079 28-07-2019 17:50:00 19.3 C 15.09 g/m*3 19.3 C 0 km/h
1080 28-07-2019 17:55:00 19.3 C 15.26 g/m*3 19.3 C 1.6 km/h
1081 28-07-2019 18:00:00 19.2 C 15.01 g/m*3 19.2 C 4.8 km/h
1082 28-07-2019 18:05:00 19.2 C 15.01 g/m*3 19.2 C 3.2 km/h
1083 28-07-2019 18:10:00 19.2 C 15.01 g/m*3 19.2 C 1.6 km/h
1084 28-07-2019 18:15:00 19.3 C 15.09 g/m*3 19.3 C 4.8 km/h
1085 28-07-2019 18:20:00 19.2 C 14.84 g/m*3 19.2 C 6.4 km/h
1086 28-07-2019 18:25:00 19.2 C 14.84 g/m*3 19.2 C 4.8 km/h
1087 28-07-2019 18:30:00 19.2 C 14.84 g/m*3 19.2 C 9.7 km/h
1088 28-07-2019 18:35:00 19.2 C 14.84 g/m*3 19.2 C 1.6 km/h
1089 28-07-2019 18:40:00 19.1 C 14.75 g/m*3 19.1 C 3.2 km/h
1090 28-07-2019 18:45:00 19.1 C 14.75 g/m*3 19.1 C 1.6 km/h
1091 28-07-2019 18:50:00 19.1 C 14.75 g/m*3 19.1 C 0 km/h
1092 28-07-2019 18:55:00 19.1 C 14.92 g/m*3 19.1 C 0 km/h
1093 28-07-2019 19:00:00 19.1 C 14.92 g/m*3 19.1 C 0 km/h
1094 28-07-2019 19:05:00 19.1 C 14.92 g/m*3 19.1 C 0 km/h
1095 28-07-2019 19:10:00 19 C 14.83 g/m*3 19 C 1.6 km/h
1096 28-07-2019 19:15:00 18.9 C 14.74 g/m*3 18.9 C 1.6 km/h
1097 28-07-2019 19:20:00 18.9 C 14.74 g/m*3 18.9 C 0 km/h
1098 28-07-2019 19:25:00 18.9 C 14.9 g/m*3 18.9 C 0 km/h
1099 28-07-2019 19:30:00 18.9 C 14.9 g/m*3 18.9 C 0 km/h
1100 28-07-2019 19:35:00 18.8 C 14.82 g/m*3 18.8 C 0 km/h
Sensor: Nr:Datum:Temp:Abs-Feuchte:Windchill:Wind:
Aussen-T/F 1101 28-07-2019 19:40:00 18.8 C 14.82 g/m*3 18.8 C 0 km/h
1102 28-07-2019 19:45:00 18.7 C 14.73 g/m*3 18.7 C 0 km/h
1103 28-07-2019 19:50:00 18.7 C 14.73 g/m*3 18.7 C 0 km/h
1104 28-07-2019 19:55:00 18.7 C 14.73 g/m*3 18.7 C 0 km/h
1105 28-07-2019 20:00:00 18.7 C 14.73 g/m*3 18.7 C 0 km/h
1106 28-07-2019 20:05:00 18.7 C 14.73 g/m*3 18.7 C 0 km/h
1107 28-07-2019 20:10:00 18.6 C 14.64 g/m*3 18.6 C 0 km/h
1108 28-07-2019 20:15:00 18.6 C 14.8 g/m*3 18.6 C 0 km/h
1109 28-07-2019 20:20:00 18.6 C 14.8 g/m*3 18.6 C 0 km/h
1110 28-07-2019 20:25:00 18.6 C 14.8 g/m*3 18.6 C 0 km/h
1111 28-07-2019 20:30:00 18.5 C 14.71 g/m*3 18.5 C 0 km/h
1112 28-07-2019 20:35:00 18.4 C 14.63 g/m*3 18.4 C 0 km/h
1113 28-07-2019 20:40:00 18.4 C 14.63 g/m*3 18.4 C 0 km/h
1114 28-07-2019 20:45:00 18.3 C 14.54 g/m*3 18.3 C 0 km/h
1115 28-07-2019 20:50:00 18.3 C 14.54 g/m*3 18.3 C 0 km/h
1116 28-07-2019 20:55:00 18.3 C 14.54 g/m*3 18.3 C 0 km/h
1117 28-07-2019 21:00:00 18.2 C 14.46 g/m*3 18.2 C 0 km/h
1118 28-07-2019 21:05:00 18.2 C 14.46 g/m*3 18.2 C 0 km/h
1119 28-07-2019 21:10:00 18.2 C 14.61 g/m*3 18.2 C 0 km/h
1120 28-07-2019 21:15:00 18.2 C 14.61 g/m*3 18.2 C 0 km/h
1121 28-07-2019 21:20:00 18.2 C 14.61 g/m*3 18.2 C 0 km/h
1122 28-07-2019 21:25:00 18.2 C 14.61 g/m*3 18.2 C 0 km/h
1123 28-07-2019 21:30:00 18.2 C 14.61 g/m*3 18.2 C 0 km/h
1124 28-07-2019 21:35:00 18.2 C 14.61 g/m*3 18.2 C 0 km/h
1125 28-07-2019 21:40:00 18.2 C 14.61 g/m*3 18.2 C 0 km/h
Sensor: Nr:Datum:Temp:Abs-Feuchte:Windchill:Wind:
Aussen-T/F 1126 28-07-2019 21:45:00 18.1 C 14.52 g/m*3 18.1 C 0 km/h
1127 28-07-2019 21:50:00 18.1 C 14.52 g/m*3 18.1 C 0 km/h
1128 28-07-2019 21:55:00 18.1 C 14.52 g/m*3 18.1 C 0 km/h
1129 28-07-2019 22:00:00 18.1 C 14.52 g/m*3 18.1 C 0 km/h
1130 28-07-2019 22:05:00 18.1 C 14.52 g/m*3 18.1 C 0 km/h
1131 28-07-2019 22:10:00 18 C 14.44 g/m*3 18 C 0 km/h
1132 28-07-2019 22:15:00 17.9 C 14.5 g/m*3 17.9 C 0 km/h
1133 28-07-2019 22:20:00 17.9 C 14.5 g/m*3 17.9 C 1.6 km/h
1134 28-07-2019 22:25:00 17.9 C 14.5 g/m*3 17.9 C 0 km/h
1135 28-07-2019 22:30:00 17.9 C 14.5 g/m*3 17.9 C 3.2 km/h
1136 28-07-2019 22:35:00 17.9 C 14.5 g/m*3 17.9 C 0 km/h
1137 28-07-2019 22:40:00 17.8 C 14.42 g/m*3 17.8 C 0 km/h
1138 28-07-2019 22:45:00 17.8 C 14.42 g/m*3 17.8 C 0 km/h
1139 28-07-2019 22:50:00 17.8 C 14.42 g/m*3 17.8 C 0 km/h
1140 28-07-2019 22:55:00 17.8 C 14.42 g/m*3 17.8 C 0 km/h
1141 28-07-2019 23:00:00 17.7 C 14.33 g/m*3 17.7 C 0 km/h
1142 28-07-2019 23:05:00 17.7 C 14.33 g/m*3 17.7 C 0 km/h
1143 28-07-2019 23:10:00 17.7 C 14.33 g/m*3 17.7 C 0 km/h
1144 28-07-2019 23:15:00 17.7 C 14.33 g/m*3 17.7 C 0 km/h
1145 28-07-2019 23:20:00 17.7 C 14.33 g/m*3 17.7 C 0 km/h
1146 28-07-2019 23:25:00 17.6 C 14.25 g/m*3 17.6 C 0 km/h
1147 28-07-2019 23:30:00 17.6 C 14.25 g/m*3 17.6 C 0 km/h
1148 28-07-2019 23:35:00 17.6 C 14.25 g/m*3 17.6 C 0 km/h
1149 28-07-2019 23:40:00 17.5 C 14.16 g/m*3 17.5 C 0 km/h
1150 28-07-2019 23:45:00 17.5 C 14.16 g/m*3 17.5 C 0 km/h
Sensor: Nr:Datum:Temp:Abs-Feuchte:Windchill:Wind:
Aussen-T/F 1151 28-07-2019 23:50:00 17.4 C 14.08 g/m*3 17.4 C 0 km/h
1152 28-07-2019 23:55:00 17.5 C 14.16 g/m*3 17.5 C 0 km/h
1153 29-07-2019 00:00:00 17.4 C 14.08 g/m*3 17.4 C 0 km/h
1154 29-07-2019 00:05:00 17.4 C 14.08 g/m*3 17.4 C 0 km/h
1155 29-07-2019 00:10:00 17.4 C 14.08 g/m*3 17.4 C 0 km/h
1156 29-07-2019 00:15:00 17.4 C 14.08 g/m*3 17.4 C 0 km/h
1157 29-07-2019 00:20:00 17.4 C 14.08 g/m*3 17.4 C 0 km/h
1158 29-07-2019 00:25:00 17.4 C 14.08 g/m*3 17.4 C 0 km/h
1159 29-07-2019 00:30:00 17.3 C 14 g/m*3 17.3 C 0 km/h
1160 29-07-2019 00:35:00 17.3 C 14 g/m*3 17.3 C 0 km/h
1161 29-07-2019 00:40:00 17.3 C 14 g/m*3 17.3 C 0 km/h
1162 29-07-2019 00:45:00 17.2 C 13.91 g/m*3 17.2 C 0 km/h
1163 29-07-2019 00:50:00 17.2 C 13.91 g/m*3 17.2 C 0 km/h
1164 29-07-2019 00:55:00 17.2 C 13.91 g/m*3 17.2 C 1.6 km/h
1165 29-07-2019 01:00:00 17.1 C 13.83 g/m*3 17.1 C 0 km/h
1166 29-07-2019 01:05:00 17.2 C 13.91 g/m*3 17.2 C 6.4 km/h
1167 29-07-2019 01:10:00 17.1 C 13.83 g/m*3 17.1 C 6.4 km/h
1168 29-07-2019 01:15:00 17.1 C 13.83 g/m*3 17.1 C 0 km/h
1169 29-07-2019 01:20:00 17.1 C 13.83 g/m*3 17.1 C 0 km/h
1170 29-07-2019 01:25:00 17.1 C 13.83 g/m*3 17.1 C 0 km/h
1171 29-07-2019 01:30:00 17.1 C 13.83 g/m*3 17.1 C 0 km/h
1172 29-07-2019 01:35:00 17.1 C 13.83 g/m*3 17.1 C 0 km/h
1173 29-07-2019 01:40:00 17.1 C 13.83 g/m*3 17.1 C 3.2 km/h
1174 29-07-2019 01:45:00 17.1 C 13.83 g/m*3 17.1 C 0 km/h
1175 29-07-2019 01:50:00 17.1 C 13.83 g/m*3 17.1 C 0 km/h
Sensor: Nr:Datum:Temp:Abs-Feuchte:Windchill:Wind:
Aussen-T/F 1176 29-07-2019 01:55:00 17.1 C 13.83 g/m*3 17.1 C 0 km/h
1177 29-07-2019 02:00:00 17.1 C 13.83 g/m*3 17.1 C 0 km/h
1178 29-07-2019 02:05:00 17 C 13.75 g/m*3 17 C 0 km/h
1179 29-07-2019 02:10:00 17 C 13.75 g/m*3 17 C 0 km/h
1180 29-07-2019 02:15:00 17 C 13.89 g/m*3 17 C 0 km/h
1181 29-07-2019 02:20:00 17 C 13.89 g/m*3 17 C 0 km/h
1182 29-07-2019 02:25:00 17 C 13.89 g/m*3 17 C 0 km/h
1183 29-07-2019 02:30:00 17 C 13.89 g/m*3 17 C 0 km/h
1184 29-07-2019 02:35:00 17 C 13.89 g/m*3 17 C 0 km/h
1185 29-07-2019 02:40:00 16.9 C 13.81 g/m*3 16.9 C 0 km/h
1186 29-07-2019 02:45:00 16.9 C 13.81 g/m*3 16.9 C 0 km/h
1187 29-07-2019 02:50:00 16.9 C 13.81 g/m*3 16.9 C 0 km/h
1188 29-07-2019 02:55:00 16.9 C 13.81 g/m*3 16.9 C 0 km/h
1189 29-07-2019 03:00:00 16.9 C 13.81 g/m*3 16.9 C 0 km/h
1190 29-07-2019 03:05:00 16.9 C 13.81 g/m*3 16.9 C 0 km/h
1191 29-07-2019 03:10:00 16.9 C 13.81 g/m*3 16.9 C 0 km/h
1192 29-07-2019 03:15:00 16.9 C 13.81 g/m*3 16.9 C 0 km/h
1193 29-07-2019 03:20:00 16.9 C 13.81 g/m*3 16.9 C 0 km/h
1194 29-07-2019 03:25:00 16.8 C 13.73 g/m*3 16.8 C 0 km/h
1195 29-07-2019 03:30:00 16.8 C 13.73 g/m*3 16.8 C 0 km/h
1196 29-07-2019 03:35:00 16.8 C 13.73 g/m*3 16.8 C 0 km/h
1197 29-07-2019 03:40:00 16.8 C 13.73 g/m*3 16.8 C 0 km/h
1198 29-07-2019 03:45:00 16.8 C 13.73 g/m*3 16.8 C 0 km/h
1199 29-07-2019 03:50:00 16.8 C 13.73 g/m*3 16.8 C 0 km/h
1200 29-07-2019 03:55:00 16.8 C 13.73 g/m*3 16.8 C 0 km/h
Sensor: Nr:Datum:Temp:Abs-Feuchte:Windchill:Wind:
Aussen-T/F 1201 29-07-2019 04:00:00 16.9 C 13.81 g/m*3 16.9 C 0 km/h
1202 29-07-2019 04:05:00 16.8 C 13.73 g/m*3 16.8 C 0 km/h
1203 29-07-2019 04:10:00 16.8 C 13.73 g/m*3 16.8 C 0 km/h
1204 29-07-2019 04:15:00 16.8 C 13.73 g/m*3 16.8 C 0 km/h
1205 29-07-2019 04:20:00 16.8 C 13.73 g/m*3 16.8 C 0 km/h
1206 29-07-2019 04:25:00 16.8 C 13.73 g/m*3 16.8 C 0 km/h
1207 29-07-2019 04:30:00 16.8 C 13.73 g/m*3 16.8 C 0 km/h
1208 29-07-2019 04:35:00 16.8 C 13.73 g/m*3 16.8 C 0 km/h
1209 29-07-2019 04:40:00 16.8 C 13.73 g/m*3 16.8 C 0 km/h
1210 29-07-2019 04:45:00 16.8 C 13.73 g/m*3 16.8 C 0 km/h
1211 29-07-2019 04:50:00 16.8 C 13.73 g/m*3 16.8 C 0 km/h
1212 29-07-2019 04:55:00 16.8 C 13.73 g/m*3 16.8 C 0 km/h
1213 29-07-2019 05:00:00 16.8 C 13.73 g/m*3 16.8 C 0 km/h
1214 29-07-2019 05:05:00 16.8 C 13.73 g/m*3 16.8 C 0 km/h
1215 29-07-2019 05:10:00 16.8 C 13.73 g/m*3 16.8 C 0 km/h
1216 29-07-2019 05:15:00 16.8 C 13.73 g/m*3 16.8 C 0 km/h
1217 29-07-2019 05:20:00 16.8 C 13.73 g/m*3 16.8 C 0 km/h
1218 29-07-2019 05:25:00 16.7 C 13.64 g/m*3 16.7 C 0 km/h
1219 29-07-2019 05:30:00 16.7 C 13.64 g/m*3 16.7 C 0 km/h
1220 29-07-2019 05:35:00 16.7 C 13.64 g/m*3 16.7 C 0 km/h
1221 29-07-2019 05:40:00 16.7 C 13.64 g/m*3 16.7 C 0 km/h
1222 29-07-2019 05:45:00 16.7 C 13.64 g/m*3 16.7 C 0 km/h
1223 29-07-2019 05:50:00 16.7 C 13.64 g/m*3 16.7 C 0 km/h
1224 29-07-2019 05:55:00 16.7 C 13.64 g/m*3 16.7 C 0 km/h
1225 29-07-2019 06:00:00 16.7 C 13.64 g/m*3 16.7 C 0 km/h
Sensor: Nr:Datum:Temp:Abs-Feuchte:Windchill:Wind:
Aussen-T/F 1226 29-07-2019 06:05:00 16.7 C 13.64 g/m*3 16.7 C 0 km/h
1227 29-07-2019 06:10:00 16.7 C 13.64 g/m*3 16.7 C 0 km/h
1228 29-07-2019 06:15:00 16.7 C 13.64 g/m*3 16.7 C 0 km/h
1229 29-07-2019 06:20:00 16.7 C 13.64 g/m*3 16.7 C 0 km/h
1230 29-07-2019 06:25:00 16.7 C 13.64 g/m*3 16.7 C 0 km/h
1231 29-07-2019 06:30:00 16.7 C 13.64 g/m*3 16.7 C 0 km/h
1232 29-07-2019 06:35:00 16.7 C 13.64 g/m*3 16.7 C 0 km/h
1233 29-07-2019 06:40:00 16.7 C 13.64 g/m*3 16.7 C 0 km/h
1234 29-07-2019 06:45:00 16.8 C 13.73 g/m*3 16.8 C 0 km/h
1235 29-07-2019 06:50:00 16.8 C 13.73 g/m*3 16.8 C 0 km/h
1236 29-07-2019 06:55:00 16.8 C 13.73 g/m*3 16.8 C 0 km/h
1237 29-07-2019 07:00:00 16.9 C 13.81 g/m*3 16.9 C 0 km/h
1238 29-07-2019 07:05:00 16.9 C 13.81 g/m*3 16.9 C 0 km/h
1239 29-07-2019 07:10:00 16.9 C 13.81 g/m*3 16.9 C 0 km/h
1240 29-07-2019 07:15:00 17 C 13.89 g/m*3 17 C 0 km/h
1241 29-07-2019 07:20:00 17.1 C 13.97 g/m*3 17.1 C 3.2 km/h
1242 29-07-2019 07:25:00 17.1 C 13.97 g/m*3 17.1 C 3.2 km/h
1243 29-07-2019 07:30:00 16.9 C 13.81 g/m*3 16.9 C 4.8 km/h
1244 29-07-2019 07:35:00 16.9 C 13.81 g/m*3 16.9 C 4.8 km/h
1245 29-07-2019 07:40:00 17 C 13.89 g/m*3 17 C 3.2 km/h
1246 29-07-2019 07:45:00 17 C 13.75 g/m*3 17 C 4.8 km/h
1247 29-07-2019 07:50:00 17.1 C 13.83 g/m*3 17.1 C 1.6 km/h
1248 29-07-2019 07:55:00 17.1 C 13.83 g/m*3 17.1 C 0 km/h
1249 29-07-2019 08:00:00 17.2 C 13.91 g/m*3 17.2 C 1.6 km/h
1250 29-07-2019 08:05:00 17.2 C 13.77 g/m*3 17.2 C 0 km/h
Sensor: Nr:Datum:Temp:Abs-Feuchte:Windchill:Wind:
Aussen-T/F 1251 29-07-2019 08:10:00 17.3 C 13.85 g/m*3 17.3 C 3.2 km/h
1252 29-07-2019 08:15:00 17.3 C 13.7 g/m*3 17.3 C 3.2 km/h
1253 29-07-2019 08:20:00 17.4 C 13.93 g/m*3 17.4 C 0 km/h
1254 29-07-2019 08:25:00 17.4 C 13.78 g/m*3 17.4 C 0 km/h
1255 29-07-2019 08:30:00 17.4 C 13.63 g/m*3 17.4 C 0 km/h
1256 29-07-2019 08:35:00 17.6 C 13.8 g/m*3 17.6 C 0 km/h
1257 29-07-2019 08:40:00 17.6 C 13.8 g/m*3 17.6 C 0 km/h
1258 29-07-2019 08:45:00 17.6 C 13.65 g/m*3 17.6 C 1.6 km/h
1259 29-07-2019 08:50:00 17.7 C 13.58 g/m*3 17.7 C 3.2 km/h
1260 29-07-2019 08:55:00 17.9 C 13.89 g/m*3 17.9 C 3.2 km/h
1261 29-07-2019 09:00:00 18 C 13.82 g/m*3 18 C 0 km/h
1262 29-07-2019 09:05:00 18.2 C 13.99 g/m*3 18.2 C 4.8 km/h
1263 29-07-2019 09:10:00 18.2 C 13.68 g/m*3 18.2 C 8.1 km/h
1264 29-07-2019 09:15:00 18.3 C 13.76 g/m*3 18.3 C 0 km/h
1265 29-07-2019 09:20:00 18.3 C 13.76 g/m*3 18.3 C 1.6 km/h
1266 29-07-2019 09:25:00 18.4 C 13.68 g/m*3 18.4 C 9.7 km/h
1267 29-07-2019 09:30:00 18.6 C 13.69 g/m*3 18.6 C 11.3 km/h
1268 29-07-2019 09:35:00 18.7 C 13.77 g/m*3 18.7 C 9.7 km/h
1269 29-07-2019 09:40:00 18.8 C 13.53 g/m*3 18.8 C 9.7 km/h
1270 29-07-2019 09:45:00 18.8 C 13.37 g/m*3 18.8 C 6.4 km/h
1271 29-07-2019 09:50:00 18.8 C 13.37 g/m*3 18.8 C 4.8 km/h
1272 29-07-2019 09:55:00 18.8 C 13.37 g/m*3 18.8 C 6.4 km/h
1273 29-07-2019 10:00:00 18.8 C 13.21 g/m*3 18.8 C 4.8 km/h
1274 29-07-2019 10:05:00 18.8 C 13.37 g/m*3 18.8 C 4.8 km/h
1275 29-07-2019 10:10:00 18.9 C 13.45 g/m*3 18.9 C 4.8 km/h
Sensor: Nr:Datum:Temp:Abs-Feuchte:Windchill:Wind:
Aussen-T/F 1276 29-07-2019 10:15:00 19.1 C 13.28 g/m*3 19.1 C 6.4 km/h
1277 29-07-2019 10:20:00 19.3 C 13.27 g/m*3 19.3 C 6.4 km/h
1278 29-07-2019 10:25:00 19.4 C 13.18 g/m*3 19.4 C 9.7 km/h
1279 29-07-2019 10:30:00 19.5 C 13.26 g/m*3 19.5 C 4.8 km/h
1280 29-07-2019 10:35:00 19.7 C 13.41 g/m*3 19.7 C 6.4 km/h
1281 29-07-2019 10:40:00 19.7 C 13.08 g/m*3 19.7 C 6.4 km/h
1282 29-07-2019 10:45:00 19.8 C 13.32 g/m*3 19.8 C 6.4 km/h
1283 29-07-2019 10:50:00 19.8 C 12.98 g/m*3 19.8 C 3.2 km/h
1284 29-07-2019 10:55:00 19.9 C 12.89 g/m*3 19.9 C 8.1 km/h
1285 29-07-2019 11:00:00 19.9 C 12.89 g/m*3 19.9 C 4.8 km/h
1286 29-07-2019 11:05:00 20 C 13.13 g/m*3 20 C 8.1 km/h
1287 29-07-2019 11:10:00 20 C 12.96 g/m*3 20 C 8.1 km/h
1288 29-07-2019 11:15:00 20.1 C 13.04 g/m*3 20.1 C 4.8 km/h
1289 29-07-2019 11:20:00 20.2 C 13.11 g/m*3 20.2 C 4.8 km/h
1290 29-07-2019 11:25:00 20.3 C 13.37 g/m*3 20.3 C 8.1 km/h
1291 29-07-2019 11:30:00 20.4 C 13.09 g/m*3 20.4 C 11.3 km/h
1292 29-07-2019 11:35:00 20.6 C 13.07 g/m*3 20.6 C 4.8 km/h
1293 29-07-2019 11:40:00 20.8 C 13.04 g/m*3 20.8 C 4.8 km/h
1294 29-07-2019 11:45:00 21 C 13.19 g/m*3 21 C 6.4 km/h
1295 29-07-2019 11:50:00 21.2 C 13.34 g/m*3 21.2 C 6.4 km/h
1296 29-07-2019 11:55:00 21.2 C 12.97 g/m*3 21.2 C 9.7 km/h
1297 29-07-2019 12:00:00 21.4 C 12.75 g/m*3 21.4 C 11.3 km/h
1298 29-07-2019 12:05:00 21.5 C 12.63 g/m*3 21.5 C 6.4 km/h
1299 29-07-2019 12:10:00 21.6 C 13.09 g/m*3 21.6 C 3.2 km/h
1300 29-07-2019 12:15:00 21.6 C 12.9 g/m*3 21.6 C 1.6 km/h
Sensor: Nr:Datum:Temp:Abs-Feuchte:Windchill:Wind:
Aussen-T/F 1301 29-07-2019 12:20:00 21.8 C 13.05 g/m*3 21.8 C 9.7 km/h
1302 29-07-2019 12:25:00 21.9 C 12.74 g/m*3 21.9 C 9.7 km/h
1303 29-07-2019 12:30:00 22.1 C 12.88 g/m*3 22.1 C 11.3 km/h
1304 29-07-2019 12:35:00 22.1 C 12.69 g/m*3 22.1 C 9.7 km/h
1305 29-07-2019 12:40:00 22.2 C 12.96 g/m*3 22.2 C 8.1 km/h
1306 29-07-2019 12:45:00 22.3 C 12.83 g/m*3 22.3 C 8.1 km/h
1307 29-07-2019 12:50:00 22.4 C 12.91 g/m*3 22.4 C 8.1 km/h
1308 29-07-2019 12:55:00 22.5 C 12.78 g/m*3 22.5 C 8.1 km/h
1309 29-07-2019 13:00:00 22.6 C 13.06 g/m*3 22.6 C 8.1 km/h
1310 29-07-2019 13:05:00 22.7 C 12.73 g/m*3 22.7 C 9.7 km/h
1311 29-07-2019 13:10:00 22.8 C 13 g/m*3 22.8 C 6.4 km/h
1312 29-07-2019 13:15:00 23 C 12.54 g/m*3 23 C 11.3 km/h
1313 29-07-2019 13:20:00 23.2 C 12.68 g/m*3 23.2 C 9.7 km/h
1314 29-07-2019 13:25:00 23.3 C 12.96 g/m*3 23.3 C 6.4 km/h
1315 29-07-2019 13:30:00 23.5 C 12.9 g/m*3 23.5 C 9.7 km/h
1316 29-07-2019 13:35:00 23.6 C 13.19 g/m*3 23.6 C 8.1 km/h
1317 29-07-2019 13:40:00 23.5 C 13.11 g/m*3 23.5 C 6.4 km/h
1318 29-07-2019 13:45:00 23.5 C 13.11 g/m*3 23.5 C 4.8 km/h
1319 29-07-2019 13:50:00 23.6 C 12.97 g/m*3 23.6 C 8.1 km/h
1320 29-07-2019 13:55:00 23.7 C 12.83 g/m*3 23.7 C 9.7 km/h
1321 29-07-2019 14:00:00 23.7 C 12.83 g/m*3 23.7 C 3.2 km/h
1322 29-07-2019 14:05:00 23.8 C 12.91 g/m*3 23.8 C 8.1 km/h
1323 29-07-2019 14:10:00 23.9 C 13.2 g/m*3 23.9 C 1.6 km/h
1324 29-07-2019 14:15:00 24.2 C 12.98 g/m*3 24.2 C 11.3 km/h
1325 29-07-2019 14:20:00 24.4 C 12.91 g/m*3 24.4 C 11.3 km/h
Sensor: Nr:Datum:Temp:Abs-Feuchte:Windchill:Wind:
Aussen-T/F 1326 29-07-2019 14:25:00 24.5 C 12.98 g/m*3 24.5 C 8.1 km/h
1327 29-07-2019 14:30:00 24.7 C 12.68 g/m*3 24.7 C 6.4 km/h
1328 29-07-2019 14:35:00 24.7 C 12.9 g/m*3 24.7 C 0 km/h
1329 29-07-2019 14:40:00 24.7 C 12.9 g/m*3 24.7 C 3.2 km/h
1330 29-07-2019 14:45:00 24.8 C 12.29 g/m*3 24.8 C 9.7 km/h
1331 29-07-2019 14:50:00 24.8 C 12.52 g/m*3 24.8 C 4.8 km/h
1332 29-07-2019 14:55:00 24.8 C 12.52 g/m*3 24.8 C 11.3 km/h
1333 29-07-2019 15:00:00 24.8 C 12.29 g/m*3 24.8 C 9.7 km/h
1334 29-07-2019 15:05:00 24.9 C 12.36 g/m*3 24.9 C 6.4 km/h
1335 29-07-2019 15:10:00 25.1 C 12.5 g/m*3 25.1 C 12.9 km/h
1336 29-07-2019 15:15:00 25.4 C 12.48 g/m*3 25.4 C 12.9 km/h
1337 29-07-2019 15:20:00 25.6 C 12.38 g/m*3 25.6 C 9.7 km/h
1338 29-07-2019 15:25:00 25.7 C 12.21 g/m*3 25.7 C 11.3 km/h
1339 29-07-2019 15:30:00 25.9 C 12.35 g/m*3 25.9 C 14.5 km/h
1340 29-07-2019 15:35:00 26.1 C 12.49 g/m*3 26.1 C 14.5 km/h
1341 29-07-2019 15:40:00 26.1 C 12.24 g/m*3 26.1 C 12.9 km/h
1342 29-07-2019 15:45:00 26.4 C 12.45 g/m*3 26.4 C 9.7 km/h
1343 29-07-2019 15:50:00 26.8 C 12.47 g/m*3 26.8 C 6.4 km/h
1344 29-07-2019 15:55:00 27.2 C 12.49 g/m*3 27.2 C 9.7 km/h
1345 29-07-2019 16:00:00 27.3 C 12.3 g/m*3 27.3 C 8.1 km/h
1346 29-07-2019 16:05:00 27.4 C 12.37 g/m*3 27.4 C 9.7 km/h
1347 29-07-2019 16:10:00 27.6 C 12.24 g/m*3 27.6 C 8.1 km/h
1348 29-07-2019 16:15:00 27.3 C 12.3 g/m*3 27.3 C 9.7 km/h
1349 29-07-2019 16:20:00 27.2 C 12.23 g/m*3 27.2 C 6.4 km/h
1350 29-07-2019 16:25:00 27.2 C 11.97 g/m*3 27.2 C 12.9 km/h
Sensor: Nr:Datum:Temp:Abs-Feuchte:Windchill:Wind:
Aussen-T/F 1351 29-07-2019 16:30:00 27.3 C 12.3 g/m*3 27.3 C 3.2 km/h
1352 29-07-2019 16:35:00 27.7 C 12.04 g/m*3 27.7 C 8.1 km/h
1353 29-07-2019 16:40:00 27.9 C 12.17 g/m*3 27.9 C 6.4 km/h
1354 29-07-2019 16:45:00 28.2 C 12.1 g/m*3 28.2 C 6.4 km/h
1355 29-07-2019 16:50:00 28.2 C 12.1 g/m*3 28.2 C 4.8 km/h
1356 29-07-2019 16:55:00 27.9 C 11.9 g/m*3 27.9 C 9.7 km/h
1357 29-07-2019 17:00:00 27.9 C 12.17 g/m*3 27.9 C 11.3 km/h
1358 29-07-2019 17:05:00 28 C 12.24 g/m*3 28 C 8.1 km/h
1359 29-07-2019 17:10:00 28.3 C 12.16 g/m*3 28.3 C 8.1 km/h
1360 29-07-2019 17:15:00 28.4 C 11.95 g/m*3 28.4 C 11.3 km/h
1361 29-07-2019 17:20:00 28.3 C 11.61 g/m*3 28.3 C 6.4 km/h
1362 29-07-2019 17:25:00 28.4 C 11.95 g/m*3 28.4 C 9.7 km/h
1363 29-07-2019 17:30:00 28.4 C 11.67 g/m*3 28.4 C 6.4 km/h
1364 29-07-2019 17:35:00 28.4 C 11.95 g/m*3 28.4 C 4.8 km/h
1365 29-07-2019 17:40:00 28.6 C 12.08 g/m*3 28.6 C 9.7 km/h
1366 29-07-2019 17:45:00 28.3 C 11.89 g/m*3 28.3 C 8.1 km/h
1367 29-07-2019 17:50:00 28.1 C 11.76 g/m*3 28.1 C 4.8 km/h
1368 29-07-2019 17:55:00 27.7 C 11.5 g/m*3 27.7 C 4.8 km/h
1369 29-07-2019 18:00:00 27.4 C 11.58 g/m*3 27.4 C 11.3 km/h
1370 29-07-2019 18:05:00 27.2 C 11.45 g/m*3 27.2 C 4.8 km/h
1371 29-07-2019 18:10:00 27.1 C 11.65 g/m*3 27.1 C 3.2 km/h
1372 29-07-2019 18:15:00 27.3 C 11.77 g/m*3 27.3 C 4.8 km/h
1373 29-07-2019 18:20:00 27.4 C 11.58 g/m*3 27.4 C 4.8 km/h
1374 29-07-2019 18:25:00 27.4 C 11.58 g/m*3 27.4 C 1.6 km/h
1375 29-07-2019 18:30:00 27.4 C 11.58 g/m*3 27.4 C 3.2 km/h
Sensor: Nr:Datum:Temp:Abs-Feuchte:Windchill:Wind:
Aussen-T/F 1376 29-07-2019 18:35:00 27.7 C 11.77 g/m*3 27.7 C 3.2 km/h
1377 29-07-2019 18:40:00 28 C 11.69 g/m*3 28 C 6.4 km/h
1378 29-07-2019 18:45:00 28.3 C 11.61 g/m*3 28.3 C 4.8 km/h
1379 29-07-2019 18:50:00 28.6 C 11.8 g/m*3 28.6 C 6.4 km/h
1380 29-07-2019 18:55:00 28.7 C 11.59 g/m*3 28.7 C 4.8 km/h
1381 29-07-2019 19:00:00 28.8 C 11.65 g/m*3 28.8 C 6.4 km/h
1382 29-07-2019 19:05:00 28.9 C 12 g/m*3 28.9 C 4.8 km/h
1383 29-07-2019 19:10:00 28.9 C 11.71 g/m*3 28.9 C 4.8 km/h
1384 29-07-2019 19:15:00 28.8 C 11.65 g/m*3 28.8 C 4.8 km/h
1385 29-07-2019 19:20:00 28.6 C 11.8 g/m*3 28.6 C 9.7 km/h
1386 29-07-2019 19:25:00 28.1 C 11.76 g/m*3 28.1 C 8.1 km/h
1387 29-07-2019 19:30:00 27.9 C 11.9 g/m*3 27.9 C 6.4 km/h
1388 29-07-2019 19:35:00 27.7 C 11.77 g/m*3 27.7 C 8.1 km/h
1389 29-07-2019 19:40:00 27.6 C 11.97 g/m*3 27.6 C 6.4 km/h
1390 29-07-2019 19:45:00 27.4 C 12.1 g/m*3 27.4 C 4.8 km/h
1391 29-07-2019 19:50:00 27.3 C 11.77 g/m*3 27.3 C 6.4 km/h
1392 29-07-2019 19:55:00 27.2 C 11.97 g/m*3 27.2 C 4.8 km/h
1393 29-07-2019 20:00:00 27.1 C 11.9 g/m*3 27.1 C 6.4 km/h
1394 29-07-2019 20:05:00 27 C 12.1 g/m*3 27 C 6.4 km/h
1395 29-07-2019 20:10:00 26.8 C 11.96 g/m*3 26.8 C 8.1 km/h
1396 29-07-2019 20:15:00 26.6 C 12.08 g/m*3 26.6 C 6.4 km/h
1397 29-07-2019 20:20:00 26.4 C 12.2 g/m*3 26.4 C 6.4 km/h
1398 29-07-2019 20:25:00 26.3 C 12.13 g/m*3 26.3 C 4.8 km/h
1399 29-07-2019 20:30:00 26.3 C 12.38 g/m*3 26.3 C 3.2 km/h
1400 29-07-2019 20:35:00 26.2 C 12.31 g/m*3 26.2 C 0 km/h
Sensor: Nr:Datum:Temp:Abs-Feuchte:Windchill:Wind:
Aussen-T/F 1401 29-07-2019 20:40:00 26 C 12.17 g/m*3 26 C 0 km/h
1402 29-07-2019 20:45:00 25.9 C 12.35 g/m*3 25.9 C 0 km/h
1403 29-07-2019 20:50:00 25.8 C 12.28 g/m*3 25.8 C 0 km/h
1404 29-07-2019 20:55:00 25.6 C 12.38 g/m*3 25.6 C 0 km/h
1405 29-07-2019 21:00:00 25.3 C 12.88 g/m*3 25.3 C 0 km/h
1406 29-07-2019 21:05:00 24.9 C 12.82 g/m*3 24.9 C 0 km/h
1407 29-07-2019 21:10:00 24.5 C 13.2 g/m*3 24.5 C 0 km/h
1408 29-07-2019 21:15:00 24 C 12.84 g/m*3 24 C 0 km/h
1409 29-07-2019 21:20:00 23.5 C 12.69 g/m*3 23.5 C 0 km/h
1410 29-07-2019 21:25:00 23 C 12.54 g/m*3 23 C 0 km/h
1411 29-07-2019 21:30:00 22.6 C 12.66 g/m*3 22.6 C 0 km/h
1412 29-07-2019 21:35:00 22.2 C 12.57 g/m*3 22.2 C 0 km/h
1413 29-07-2019 21:40:00 21.9 C 12.54 g/m*3 21.9 C 0 km/h
1414 29-07-2019 21:45:00 21.8 C 12.66 g/m*3 21.8 C 0 km/h
1415 29-07-2019 21:50:00 21.6 C 12.52 g/m*3 21.6 C 0 km/h
1416 29-07-2019 21:55:00 21.4 C 12.37 g/m*3 21.4 C 0 km/h
1417 29-07-2019 22:00:00 21.3 C 12.49 g/m*3 21.3 C 0 km/h
1418 29-07-2019 22:05:00 21.2 C 12.6 g/m*3 21.2 C 0 km/h
1419 29-07-2019 22:10:00 21.1 C 12.53 g/m*3 21.1 C 0 km/h
1420 29-07-2019 22:15:00 21 C 12.46 g/m*3 21 C 0 km/h
1421 29-07-2019 22:20:00 20.9 C 12.38 g/m*3 20.9 C 0 km/h
1422 29-07-2019 22:25:00 20.8 C 12.49 g/m*3 20.8 C 0 km/h
1423 29-07-2019 22:30:00 20.8 C 12.67 g/m*3 20.8 C 0 km/h
1424 29-07-2019 22:35:00 20.7 C 12.78 g/m*3 20.7 C 0 km/h
1425 29-07-2019 22:40:00 20.6 C 12.71 g/m*3 20.6 C 0 km/h
Sensor: Nr:Datum:Temp:Abs-Feuchte:Windchill:Wind:
Aussen-T/F 1426 29-07-2019 22:45:00 20.4 C 12.56 g/m*3 20.4 C 0 km/h
1427 29-07-2019 22:50:00 20.2 C 12.59 g/m*3 20.2 C 0 km/h
1428 29-07-2019 22:55:00 20.1 C 12.69 g/m*3 20.1 C 0 km/h
1429 29-07-2019 23:00:00 20 C 12.62 g/m*3 20 C 0 km/h
1430 29-07-2019 23:05:00 19.9 C 12.54 g/m*3 19.9 C 0 km/h
1431 29-07-2019 23:10:00 19.8 C 12.64 g/m*3 19.8 C 0 km/h
1432 29-07-2019 23:15:00 19.7 C 12.74 g/m*3 19.7 C 0 km/h
1433 29-07-2019 23:20:00 19.6 C 12.66 g/m*3 19.6 C 0 km/h
1434 29-07-2019 23:25:00 19.4 C 12.51 g/m*3 19.4 C 0 km/h
1435 29-07-2019 23:30:00 19.3 C 12.61 g/m*3 19.3 C 0 km/h
1436 29-07-2019 23:35:00 19.1 C 12.46 g/m*3 19.1 C 0 km/h
1437 29-07-2019 23:40:00 19 C 12.55 g/m*3 19 C 0 km/h
1438 29-07-2019 23:45:00 18.8 C 12.4 g/m*3 18.8 C 0 km/h
1439 29-07-2019 23:50:00 18.8 C 12.56 g/m*3 18.8 C 0 km/h
1440 29-07-2019 23:55:00 18.7 C 12.49 g/m*3 18.7 C 0 km/h
1441 30-07-2019 00:00:00 18.5 C 12.5 g/m*3 18.5 C 0 km/h
1442 30-07-2019 00:05:00 18.3 C 12.35 g/m*3 18.3 C 0 km/h
1443 30-07-2019 00:10:00 18.2 C 12.43 g/m*3 18.2 C 0 km/h
1444 30-07-2019 00:15:00 18.1 C 12.36 g/m*3 18.1 C 0 km/h
1445 30-07-2019 00:20:00 18 C 12.44 g/m*3 18 C 0 km/h
1446 30-07-2019 00:25:00 17.9 C 12.37 g/m*3 17.9 C 0 km/h
1447 30-07-2019 00:30:00 17.8 C 12.29 g/m*3 17.8 C 0 km/h
1448 30-07-2019 00:35:00 17.8 C 12.45 g/m*3 17.8 C 0 km/h
1449 30-07-2019 00:40:00 17.7 C 12.37 g/m*3 17.7 C 0 km/h
1450 30-07-2019 00:45:00 17.7 C 12.37 g/m*3 17.7 C 0 km/h
Sensor: Nr:Datum:Temp:Abs-Feuchte:Windchill:Wind:
Aussen-T/F 1451 30-07-2019 00:50:00 17.7 C 12.52 g/m*3 17.7 C 0 km/h
1452 30-07-2019 00:55:00 17.7 C 12.52 g/m*3 17.7 C 0 km/h
1453 30-07-2019 01:00:00 17.7 C 12.52 g/m*3 17.7 C 0 km/h
1454 30-07-2019 01:05:00 17.7 C 12.67 g/m*3 17.7 C 0 km/h
1455 30-07-2019 01:10:00 17.7 C 12.52 g/m*3 17.7 C 0 km/h
1456 30-07-2019 01:15:00 17.7 C 12.52 g/m*3 17.7 C 0 km/h
1457 30-07-2019 01:20:00 17.6 C 12.45 g/m*3 17.6 C 0 km/h
1458 30-07-2019 01:25:00 17.5 C 12.37 g/m*3 17.5 C 0 km/h
1459 30-07-2019 01:30:00 17.4 C 12.3 g/m*3 17.4 C 0 km/h
1460 30-07-2019 01:35:00 17.3 C 12.37 g/m*3 17.3 C 0 km/h
1461 30-07-2019 01:40:00 17.2 C 12.3 g/m*3 17.2 C 0 km/h
1462 30-07-2019 01:45:00 17.2 C 12.3 g/m*3 17.2 C 0 km/h
1463 30-07-2019 01:50:00 17.1 C 12.23 g/m*3 17.1 C 0 km/h
1464 30-07-2019 01:55:00 17 C 12.15 g/m*3 17 C 0 km/h
1465 30-07-2019 02:00:00 16.9 C 12.08 g/m*3 16.9 C 0 km/h
1466 30-07-2019 02:05:00 16.9 C 12.23 g/m*3 16.9 C 0 km/h
1467 30-07-2019 02:10:00 16.8 C 12.15 g/m*3 16.8 C 0 km/h
1468 30-07-2019 02:15:00 16.8 C 12.15 g/m*3 16.8 C 0 km/h
1469 30-07-2019 02:20:00 16.7 C 12.08 g/m*3 16.7 C 0 km/h
1470 30-07-2019 02:25:00 16.6 C 12.01 g/m*3 16.6 C 0 km/h
1471 30-07-2019 02:30:00 16.6 C 12.15 g/m*3 16.6 C 0 km/h
1472 30-07-2019 02:35:00 16.5 C 12.08 g/m*3 16.5 C 0 km/h
1473 30-07-2019 02:40:00 16.4 C 12 g/m*3 16.4 C 0 km/h
1474 30-07-2019 02:45:00 16.4 C 12 g/m*3 16.4 C 0 km/h
1475 30-07-2019 02:50:00 16.3 C 11.93 g/m*3 16.3 C 0 km/h
Sensor: Nr:Datum:Temp:Abs-Feuchte:Windchill:Wind:
Aussen-T/F 1476 30-07-2019 02:55:00 16.3 C 12.07 g/m*3 16.3 C 0 km/h
1477 30-07-2019 03:00:00 16.2 C 12 g/m*3 16.2 C 0 km/h
1478 30-07-2019 03:05:00 16.1 C 11.93 g/m*3 16.1 C 0 km/h
1479 30-07-2019 03:10:00 16 C 11.85 g/m*3 16 C 0 km/h
1480 30-07-2019 03:15:00 15.9 C 11.92 g/m*3 15.9 C 0 km/h
1481 30-07-2019 03:20:00 15.9 C 11.92 g/m*3 15.9 C 0 km/h
1482 30-07-2019 03:25:00 15.9 C 11.92 g/m*3 15.9 C 0 km/h
1483 30-07-2019 03:30:00 15.9 C 11.92 g/m*3 15.9 C 0 km/h
1484 30-07-2019 03:35:00 15.8 C 11.98 g/m*3 15.8 C 0 km/h
1485 30-07-2019 03:40:00 15.8 C 11.98 g/m*3 15.8 C 0 km/h
1486 30-07-2019 03:45:00 15.7 C 11.91 g/m*3 15.7 C 0 km/h
1487 30-07-2019 03:50:00 15.7 C 11.91 g/m*3 15.7 C 0 km/h
1488 30-07-2019 03:55:00 15.6 C 11.84 g/m*3 15.6 C 0 km/h
1489 30-07-2019 04:00:00 15.6 C 11.84 g/m*3 15.6 C 0 km/h
1490 30-07-2019 04:05:00 15.6 C 11.84 g/m*3 15.6 C 0 km/h
1491 30-07-2019 04:10:00 15.5 C 11.9 g/m*3 15.5 C 0 km/h
1492 30-07-2019 04:15:00 15.5 C 11.9 g/m*3 15.5 C 0 km/h
1493 30-07-2019 04:20:00 15.4 C 11.82 g/m*3 15.4 C 0 km/h
1494 30-07-2019 04:25:00 15.4 C 11.82 g/m*3 15.4 C 0 km/h
1495 30-07-2019 04:30:00 15.4 C 11.82 g/m*3 15.4 C 0 km/h
1496 30-07-2019 04:35:00 15.3 C 11.75 g/m*3 15.3 C 0 km/h
1497 30-07-2019 04:40:00 15.3 C 11.75 g/m*3 15.3 C 0 km/h
1498 30-07-2019 04:45:00 15.3 C 11.88 g/m*3 15.3 C 0 km/h
1499 30-07-2019 04:50:00 15.3 C 11.88 g/m*3 15.3 C 0 km/h
1500 30-07-2019 04:55:00 15.2 C 11.81 g/m*3 15.2 C 0 km/h
Sensor: Nr:Datum:Temp:Abs-Feuchte:Windchill:Wind:
Aussen-T/F 1501 30-07-2019 05:00:00 15.2 C 11.81 g/m*3 15.2 C 0 km/h
1502 30-07-2019 05:05:00 15.1 C 11.74 g/m*3 15.1 C 0 km/h
1503 30-07-2019 05:10:00 15.1 C 11.74 g/m*3 15.1 C 0 km/h
1504 30-07-2019 05:15:00 15.1 C 11.74 g/m*3 15.1 C 0 km/h
1505 30-07-2019 05:20:00 15.1 C 11.74 g/m*3 15.1 C 0 km/h
1506 30-07-2019 05:25:00 15.1 C 11.74 g/m*3 15.1 C 0 km/h
1507 30-07-2019 05:30:00 15.1 C 11.87 g/m*3 15.1 C 0 km/h
1508 30-07-2019 05:35:00 15 C 11.8 g/m*3 15 C 0 km/h
1509 30-07-2019 05:40:00 15 C 11.8 g/m*3 15 C 0 km/h
1510 30-07-2019 05:45:00 14.9 C 11.73 g/m*3 14.9 C 0 km/h
1511 30-07-2019 05:50:00 14.9 C 11.73 g/m*3 14.9 C 0 km/h
1512 30-07-2019 05:55:00 14.8 C 11.65 g/m*3 14.8 C 0 km/h
1513 30-07-2019 06:00:00 14.8 C 11.65 g/m*3 14.8 C 0 km/h
1514 30-07-2019 06:05:00 14.8 C 11.65 g/m*3 14.8 C 0 km/h
1515 30-07-2019 06:10:00 14.7 C 11.71 g/m*3 14.7 C 0 km/h
1516 30-07-2019 06:15:00 14.7 C 11.71 g/m*3 14.7 C 0 km/h
1517 30-07-2019 06:20:00 14.7 C 11.71 g/m*3 14.7 C 0 km/h
1518 30-07-2019 06:25:00 14.7 C 11.71 g/m*3 14.7 C 0 km/h
1519 30-07-2019 06:30:00 14.7 C 11.71 g/m*3 14.7 C 0 km/h
1520 30-07-2019 06:35:00 14.7 C 11.71 g/m*3 14.7 C 0 km/h
1521 30-07-2019 06:40:00 14.8 C 11.78 g/m*3 14.8 C 0 km/h
1522 30-07-2019 06:45:00 14.7 C 11.71 g/m*3 14.7 C 0 km/h
1523 30-07-2019 06:50:00 14.7 C 11.71 g/m*3 14.7 C 0 km/h
1524 30-07-2019 06:55:00 14.7 C 11.71 g/m*3 14.7 C 0 km/h
1525 30-07-2019 07:00:00 14.7 C 11.71 g/m*3 14.7 C 0 km/h
Sensor: Nr:Datum:Temp:Abs-Feuchte:Windchill:Wind:
Aussen-T/F 1526 30-07-2019 07:05:00 14.7 C 11.71 g/m*3 14.7 C 0 km/h
1527 30-07-2019 07:10:00 14.8 C 11.91 g/m*3 14.8 C 0 km/h
1528 30-07-2019 07:15:00 14.8 C 11.91 g/m*3 14.8 C 0 km/h
1529 30-07-2019 07:20:00 14.8 C 11.91 g/m*3 14.8 C 0 km/h
1530 30-07-2019 07:25:00 14.9 C 11.98 g/m*3 14.9 C 0 km/h
1531 30-07-2019 07:30:00 15 C 12.05 g/m*3 15 C 0 km/h
1532 30-07-2019 07:35:00 15 C 12.05 g/m*3 15 C 0 km/h
1533 30-07-2019 07:40:00 15.1 C 12.13 g/m*3 15.1 C 0 km/h
1534 30-07-2019 07:45:00 15.1 C 12.13 g/m*3 15.1 C 0 km/h
1535 30-07-2019 07:50:00 15.1 C 12.13 g/m*3 15.1 C 0 km/h
1536 30-07-2019 07:55:00 15.2 C 12.2 g/m*3 15.2 C 0 km/h
1537 30-07-2019 08:00:00 15.3 C 12.28 g/m*3 15.3 C 0 km/h
1538 30-07-2019 08:05:00 15.6 C 12.5 g/m*3 15.6 C 0 km/h
1539 30-07-2019 08:10:00 15.7 C 12.58 g/m*3 15.7 C 0 km/h
1540 30-07-2019 08:15:00 15.7 C 12.58 g/m*3 15.7 C 0 km/h
1541 30-07-2019 08:20:00 15.7 C 12.58 g/m*3 15.7 C 0 km/h
1542 30-07-2019 08:25:00 15.8 C 12.65 g/m*3 15.8 C 0 km/h
1543 30-07-2019 08:30:00 15.9 C 12.73 g/m*3 15.9 C 0 km/h
1544 30-07-2019 08:35:00 15.9 C 12.73 g/m*3 15.9 C 0 km/h
1545 30-07-2019 08:40:00 16.1 C 12.88 g/m*3 16.1 C 0 km/h
1546 30-07-2019 08:45:00 16.2 C 12.96 g/m*3 16.2 C 0 km/h
1547 30-07-2019 08:50:00 16.3 C 13.04 g/m*3 16.3 C 0 km/h
1548 30-07-2019 08:55:00 16.4 C 12.98 g/m*3 16.4 C 0 km/h
1549 30-07-2019 09:00:00 16.6 C 13.14 g/m*3 16.6 C 0 km/h
1550 30-07-2019 09:05:00 16.7 C 13.22 g/m*3 16.7 C 0 km/h
Sensor: Nr:Datum:Temp:Abs-Feuchte:Windchill:Wind:
Aussen-T/F 1551 30-07-2019 09:10:00 16.8 C 13.3 g/m*3 16.8 C 0 km/h
1552 30-07-2019 09:15:00 16.9 C 13.38 g/m*3 16.9 C 0 km/h
1553 30-07-2019 09:20:00 17.1 C 13.54 g/m*3 17.1 C 0 km/h
1554 30-07-2019 09:25:00 17.2 C 13.47 g/m*3 17.2 C 0 km/h
1555 30-07-2019 09:30:00 17.4 C 13.63 g/m*3 17.4 C 0 km/h
1556 30-07-2019 09:35:00 17.7 C 13.88 g/m*3 17.7 C 0 km/h
1557 30-07-2019 09:40:00 17.8 C 13.81 g/m*3 17.8 C 0 km/h
1558 30-07-2019 09:45:00 18 C 13.98 g/m*3 18 C 0 km/h
1559 30-07-2019 09:50:00 18.2 C 13.99 g/m*3 18.2 C 0 km/h
1560 30-07-2019 09:55:00 18.4 C 14 g/m*3 18.4 C 0 km/h
1561 30-07-2019 10:00:00 18.6 C 14.17 g/m*3 18.6 C 0 km/h
1562 30-07-2019 10:05:00 18.8 C 14.17 g/m*3 18.8 C 0 km/h
1563 30-07-2019 10:10:00 19.2 C 14.35 g/m*3 19.2 C 0 km/h
1564 30-07-2019 10:15:00 19.4 C 14.35 g/m*3 19.4 C 0 km/h
1565 30-07-2019 10:20:00 19.7 C 14.26 g/m*3 19.7 C 0 km/h
1566 30-07-2019 10:25:00 20.1 C 14.43 g/m*3 20.1 C 0 km/h
1567 30-07-2019 10:30:00 20.3 C 14.42 g/m*3 20.3 C 0 km/h
1568 30-07-2019 10:35:00 20.7 C 14.58 g/m*3 20.7 C 0 km/h
1569 30-07-2019 10:40:00 21.1 C 14.56 g/m*3 21.1 C 0 km/h
1570 30-07-2019 10:45:00 21.4 C 14.81 g/m*3 21.4 C 0 km/h
1571 30-07-2019 10:50:00 21.8 C 14.39 g/m*3 21.8 C 0 km/h
1572 30-07-2019 10:55:00 22.2 C 14.53 g/m*3 22.2 C 0 km/h
1573 30-07-2019 11:00:00 22.6 C 14.46 g/m*3 22.6 C 0 km/h
1574 30-07-2019 11:05:00 22.9 C 14.31 g/m*3 22.9 C 0 km/h
1575 30-07-2019 11:10:00 23.4 C 13.25 g/m*3 23.4 C 9.7 km/h
Sensor: Nr:Datum:Temp:Abs-Feuchte:Windchill:Wind:
Aussen-T/F 1576 30-07-2019 11:15:00 24.3 C 13.5 g/m*3 24.3 C 9.7 km/h
1577 30-07-2019 11:20:00 24.7 C 13.13 g/m*3 24.7 C 6.4 km/h
1578 30-07-2019 11:25:00 25.3 C 12.88 g/m*3 25.3 C 12.9 km/h
1579 30-07-2019 11:30:00 25.7 C 12.93 g/m*3 25.7 C 12.9 km/h
1580 30-07-2019 11:35:00 26.1 C 12.98 g/m*3 26.1 C 12.9 km/h
1581 30-07-2019 11:40:00 26.2 C 13.05 g/m*3 26.2 C 11.3 km/h
1582 30-07-2019 11:45:00 26.1 C 12.73 g/m*3 26.1 C 12.9 km/h
1583 30-07-2019 11:50:00 26.1 C 12.73 g/m*3 26.1 C 12.9 km/h
1584 30-07-2019 11:55:00 26.2 C 12.8 g/m*3 26.2 C 16.1 km/h
1585 30-07-2019 12:00:00 26.3 C 12.63 g/m*3 26.3 C 19.3 km/h
1586 30-07-2019 12:05:00 26.5 C 12.27 g/m*3 26.5 C 11.3 km/h
1587 30-07-2019 12:10:00 26.6 C 12.33 g/m*3 26.6 C 8.1 km/h
1588 30-07-2019 12:15:00 26.8 C 11.71 g/m*3 26.8 C 11.3 km/h
1589 30-07-2019 12:20:00 26.9 C 12.29 g/m*3 26.9 C 9.7 km/h
1590 30-07-2019 12:25:00 27.1 C 11.65 g/m*3 27.1 C 12.9 km/h
1591 30-07-2019 12:30:00 27.2 C 11.45 g/m*3 27.2 C 12.9 km/h
1592 30-07-2019 12:35:00 27.2 C 11.19 g/m*3 27.2 C 14.5 km/h
1593 30-07-2019 12:40:00 27.2 C 11.45 g/m*3 27.2 C 16.1 km/h
1594 30-07-2019 12:45:00 27.3 C 10.99 g/m*3 27.3 C 16.1 km/h
1595 30-07-2019 12:50:00 27.5 C 11.64 g/m*3 27.5 C 14.5 km/h
1596 30-07-2019 12:55:00 27.7 C 10.97 g/m*3 27.7 C 12.9 km/h
1597 30-07-2019 13:00:00 27.7 C 11.5 g/m*3 27.7 C 11.3 km/h
1598 30-07-2019 13:05:00 27.7 C 10.97 g/m*3 27.7 C 12.9 km/h
1599 30-07-2019 13:10:00 27.9 C 11.36 g/m*3 27.9 C 9.7 km/h
1600 30-07-2019 13:15:00 28.1 C 10.94 g/m*3 28.1 C 12.9 km/h
Sensor: Nr:Datum:Temp:Abs-Feuchte:Windchill:Wind:
Aussen-T/F 1601 30-07-2019 13:20:00 28.1 C 10.66 g/m*3 28.1 C 12.9 km/h
1602 30-07-2019 13:25:00 28.1 C 10.66 g/m*3 28.1 C 11.3 km/h
1603 30-07-2019 13:30:00 28.3 C 10.78 g/m*3 28.3 C 9.7 km/h
1604 30-07-2019 13:35:00 28.4 C 10.84 g/m*3 28.4 C 16.1 km/h
1605 30-07-2019 13:40:00 28.5 C 10.9 g/m*3 28.5 C 8.1 km/h
1606 30-07-2019 13:45:00 28.6 C 10.96 g/m*3 28.6 C 8.1 km/h
1607 30-07-2019 13:50:00 28.7 C 10.17 g/m*3 28.7 C 9.7 km/h
1608 30-07-2019 13:55:00 28.8 C 9.94 g/m*3 28.8 C 14.5 km/h
1609 30-07-2019 14:00:00 28.8 C 10.23 g/m*3 28.8 C 11.3 km/h
1610 30-07-2019 14:05:00 28.9 C 10.28 g/m*3 28.9 C 16.1 km/h
1611 30-07-2019 14:10:00 29.1 C 10.69 g/m*3 29.1 C 9.7 km/h
1612 30-07-2019 14:15:00 29.2 C 11.32 g/m*3 29.2 C 12.9 km/h
1613 30-07-2019 14:20:00 29.3 C 10.8 g/m*3 29.3 C 12.9 km/h
1614 30-07-2019 14:25:00 29.3 C 11.39 g/m*3 29.3 C 14.5 km/h
1615 30-07-2019 14:30:00 29.6 C 11.57 g/m*3 29.6 C 16.1 km/h
1616 30-07-2019 14:35:00 29.8 C 11.1 g/m*3 29.8 C 16.1 km/h
1617 30-07-2019 14:40:00 29.9 C 11.76 g/m*3 29.9 C 16.1 km/h
1618 30-07-2019 14:45:00 29.9 C 11.16 g/m*3 29.9 C 9.7 km/h
1619 30-07-2019 14:50:00 30 C 11.83 g/m*3 30 C 11.3 km/h
1620 30-07-2019 14:55:00 30.1 C 11.28 g/m*3 30.1 C 14.5 km/h
1621 30-07-2019 15:00:00 30.1 C 11.59 g/m*3 30.1 C 11.3 km/h
1622 30-07-2019 15:05:00 30.3 C 11.71 g/m*3 30.3 C 14.5 km/h
1623 30-07-2019 15:10:00 30.4 C 11.16 g/m*3 30.4 C 16.1 km/h
1624 30-07-2019 15:15:00 30.4 C 11.47 g/m*3 30.4 C 16.1 km/h
1625 30-07-2019 15:20:00 30.5 C 11.22 g/m*3 30.5 C 17.7 km/h
Sensor: Nr:Datum:Temp:Abs-Feuchte:Windchill:Wind:
Aussen-T/F 1626 30-07-2019 15:25:00 30.5 C 11.53 g/m*3 30.5 C 17.7 km/h
1627 30-07-2019 15:30:00 30.8 C 11.4 g/m*3 30.8 C 12.9 km/h
1628 30-07-2019 15:35:00 31 C 11.2 g/m*3 31 C 17.7 km/h
1629 30-07-2019 15:40:00 31.3 C 11.06 g/m*3 31.3 C 14.5 km/h
1630 30-07-2019 15:45:00 30.9 C 11.14 g/m*3 30.9 C 16.1 km/h
1631 30-07-2019 15:50:00 31 C 11.52 g/m*3 31 C 19.3 km/h
1632 30-07-2019 15:55:00 31.1 C 11.26 g/m*3 31.1 C 16.1 km/h
1633 30-07-2019 16:00:00 31.2 C 10.67 g/m*3 31.2 C 14.5 km/h
1634 30-07-2019 16:05:00 31.3 C 11.06 g/m*3 31.3 C 14.5 km/h
1635 30-07-2019 16:10:00 31.6 C 10.91 g/m*3 31.6 C 17.7 km/h
1636 30-07-2019 16:15:00 32 C 10.8 g/m*3 32 C 14.5 km/h
1637 30-07-2019 16:20:00 31.9 C 10.41 g/m*3 31.9 C 19.3 km/h
1638 30-07-2019 16:25:00 31.3 C 11.06 g/m*3 31.3 C 16.1 km/h
1639 30-07-2019 16:30:00 31.3 C 11.38 g/m*3 31.3 C 16.1 km/h
1640 30-07-2019 16:35:00 31.6 C 11.57 g/m*3 31.6 C 17.7 km/h
1641 30-07-2019 16:40:00 31.1 C 11.26 g/m*3 31.1 C 22.5 km/h
1642 30-07-2019 16:45:00 30.7 C 11.34 g/m*3 30.7 C 16.1 km/h
1643 30-07-2019 16:50:00 30.4 C 11.16 g/m*3 30.4 C 16.1 km/h
1644 30-07-2019 16:55:00 30.1 C 11.28 g/m*3 30.1 C 12.9 km/h
1645 30-07-2019 17:00:00 29.8 C 11.4 g/m*3 29.8 C 17.7 km/h
1646 30-07-2019 17:05:00 29.9 C 11.46 g/m*3 29.9 C 14.5 km/h
1647 30-07-2019 17:10:00 30.5 C 11.53 g/m*3 30.5 C 19.3 km/h
1648 30-07-2019 17:15:00 30.6 C 11.59 g/m*3 30.6 C 14.5 km/h
1649 30-07-2019 17:20:00 30.3 C 11.4 g/m*3 30.3 C 16.1 km/h
1650 30-07-2019 17:25:00 29.7 C 11.34 g/m*3 29.7 C 17.7 km/h
Sensor: Nr:Datum:Temp:Abs-Feuchte:Windchill:Wind:
Aussen-T/F 1651 30-07-2019 17:30:00 29.1 C 11.26 g/m*3 29.1 C 19.3 km/h
1652 30-07-2019 17:35:00 28.8 C 11.08 g/m*3 28.8 C 19.3 km/h
1653 30-07-2019 17:40:00 28.6 C 11.24 g/m*3 28.6 C 16.1 km/h
1654 30-07-2019 17:45:00 28.4 C 10.56 g/m*3 28.4 C 19.3 km/h
1655 30-07-2019 17:50:00 28.2 C 9.9 g/m*3 28.2 C 16.1 km/h
1656 30-07-2019 17:55:00 27.8 C 9.95 g/m*3 27.8 C 20.9 km/h
1657 30-07-2019 18:00:00 27.4 C 9.74 g/m*3 27.4 C 17.7 km/h
1658 30-07-2019 18:05:00 27.2 C 9.89 g/m*3 27.2 C 20.9 km/h
1659 30-07-2019 18:10:00 27.1 C 10.09 g/m*3 27.1 C 14.5 km/h
1660 30-07-2019 18:15:00 26.9 C 9.98 g/m*3 26.9 C 17.7 km/h
1661 30-07-2019 18:20:00 26.8 C 10.18 g/m*3 26.8 C 12.9 km/h
1662 30-07-2019 18:25:00 26.7 C 10.12 g/m*3 26.7 C 16.1 km/h
1663 30-07-2019 18:30:00 26.6 C 10.32 g/m*3 26.6 C 11.3 km/h
1664 30-07-2019 18:35:00 26.4 C 10.46 g/m*3 26.4 C 9.7 km/h
1665 30-07-2019 18:40:00 26.3 C 10.4 g/m*3 26.3 C 8.1 km/h
1666 30-07-2019 18:45:00 26.2 C 10.59 g/m*3 26.2 C 6.4 km/h
1667 30-07-2019 18:50:00 26 C 10.71 g/m*3 26 C 6.4 km/h
1668 30-07-2019 18:55:00 25.9 C 10.65 g/m*3 25.9 C 8.1 km/h
1669 30-07-2019 19:00:00 25.8 C 10.83 g/m*3 25.8 C 9.7 km/h
1670 30-07-2019 19:05:00 25.7 C 10.77 g/m*3 25.7 C 11.3 km/h
1671 30-07-2019 19:10:00 25.6 C 10.71 g/m*3 25.6 C 14.5 km/h
1672 30-07-2019 19:15:00 25.6 C 10.71 g/m*3 25.6 C 11.3 km/h
1673 30-07-2019 19:20:00 25.5 C 10.89 g/m*3 25.5 C 11.3 km/h
1674 30-07-2019 19:25:00 24.9 C 12.13 g/m*3 24.9 C 14.5 km/h
1675 30-07-2019 19:30:00 23.8 C 12.05 g/m*3 23.8 C 9.7 km/h
Sensor: Nr:Datum:Temp:Abs-Feuchte:Windchill:Wind:
Aussen-T/F 1676 30-07-2019 19:35:00 23.4 C 11.78 g/m*3 23.4 C 8.1 km/h
1677 30-07-2019 19:40:00 23.4 C 11.57 g/m*3 23.4 C 9.7 km/h
1678 30-07-2019 19:45:00 23.6 C 11.91 g/m*3 23.6 C 6.4 km/h
1679 30-07-2019 19:50:00 23.7 C 11.98 g/m*3 23.7 C 4.8 km/h
1680 30-07-2019 19:55:00 23.7 C 11.76 g/m*3 23.7 C 11.3 km/h
1681 30-07-2019 20:00:00 23.7 C 11.98 g/m*3 23.7 C 9.7 km/h
1682 30-07-2019 20:05:00 23.8 C 12.05 g/m*3 23.8 C 8.1 km/h
1683 30-07-2019 20:10:00 23.9 C 11.9 g/m*3 23.9 C 9.7 km/h
1684 30-07-2019 20:15:00 23.9 C 11.9 g/m*3 23.9 C 6.4 km/h
1685 30-07-2019 20:20:00 24 C 11.97 g/m*3 24 C 3.2 km/h
1686 30-07-2019 20:25:00 24 C 11.97 g/m*3 24 C 4.8 km/h
1687 30-07-2019 20:30:00 24.1 C 12.03 g/m*3 24.1 C 11.3 km/h
1688 30-07-2019 20:35:00 24.2 C 12.1 g/m*3 24.2 C 4.8 km/h
1689 30-07-2019 20:40:00 24.3 C 12.17 g/m*3 24.3 C 4.8 km/h
1690 30-07-2019 20:45:00 24.4 C 12.24 g/m*3 24.4 C 6.4 km/h
1691 30-07-2019 20:50:00 24.4 C 12.24 g/m*3 24.4 C 4.8 km/h
1692 30-07-2019 20:55:00 24.4 C 12.24 g/m*3 24.4 C 0 km/h
1693 30-07-2019 21:00:00 24.3 C 12.17 g/m*3 24.3 C 0 km/h
1694 30-07-2019 21:05:00 24.3 C 11.95 g/m*3 24.3 C 0 km/h
1695 30-07-2019 21:10:00 24.2 C 11.88 g/m*3 24.2 C 0 km/h
1696 30-07-2019 21:15:00 24.1 C 12.03 g/m*3 24.1 C 0 km/h
1697 30-07-2019 21:20:00 23.9 C 12.11 g/m*3 23.9 C 0 km/h
1698 30-07-2019 21:25:00 23.8 C 12.26 g/m*3 23.8 C 0 km/h
1699 30-07-2019 21:30:00 23.6 C 12.12 g/m*3 23.6 C 0 km/h
1700 30-07-2019 21:35:00 23.4 C 12.2 g/m*3 23.4 C 0 km/h
Sensor: Nr:Datum:Temp:Abs-Feuchte:Windchill:Wind:
Aussen-T/F 1701 30-07-2019 21:40:00 23.3 C 12.13 g/m*3 23.3 C 0 km/h
1702 30-07-2019 21:45:00 23.2 C 12.27 g/m*3 23.2 C 0 km/h
1703 30-07-2019 21:50:00 23.1 C 12.2 g/m*3 23.1 C 0 km/h
1704 30-07-2019 21:55:00 22.9 C 12.06 g/m*3 22.9 C 0 km/h
1705 30-07-2019 22:00:00 22.7 C 12.12 g/m*3 22.7 C 0 km/h
1706 30-07-2019 22:05:00 22.6 C 12.05 g/m*3 22.6 C 0 km/h
1707 30-07-2019 22:10:00 22.5 C 12.18 g/m*3 22.5 C 0 km/h
1708 30-07-2019 22:15:00 22.4 C 12.31 g/m*3 22.4 C 0 km/h
1709 30-07-2019 22:20:00 22.3 C 12.24 g/m*3 22.3 C 0 km/h
1710 30-07-2019 22:25:00 22.2 C 12.37 g/m*3 22.2 C 0 km/h
1711 30-07-2019 22:30:00 22.1 C 12.3 g/m*3 22.1 C 0 km/h
1712 30-07-2019 22:35:00 22.1 C 12.3 g/m*3 22.1 C 0 km/h
1713 30-07-2019 22:40:00 22 C 12.23 g/m*3 22 C 0 km/h
1714 30-07-2019 22:45:00 21.9 C 12.35 g/m*3 21.9 C 0 km/h
1715 30-07-2019 22:50:00 21.9 C 12.74 g/m*3 21.9 C 0 km/h
1716 30-07-2019 22:55:00 21.8 C 12.66 g/m*3 21.8 C 0 km/h
1717 30-07-2019 23:00:00 21.7 C 12.59 g/m*3 21.7 C 0 km/h
1718 30-07-2019 23:05:00 21.6 C 12.52 g/m*3 21.6 C 0 km/h
1719 30-07-2019 23:10:00 21.5 C 12.63 g/m*3 21.5 C 0 km/h
1720 30-07-2019 23:15:00 21.4 C 12.56 g/m*3 21.4 C 0 km/h
1721 30-07-2019 23:20:00 21.3 C 12.68 g/m*3 21.3 C 0 km/h
1722 30-07-2019 23:25:00 21.2 C 12.79 g/m*3 21.2 C 0 km/h
1723 30-07-2019 23:30:00 21.1 C 12.71 g/m*3 21.1 C 0 km/h
1724 30-07-2019 23:35:00 21 C 12.64 g/m*3 21 C 0 km/h
1725 30-07-2019 23:40:00 20.9 C 12.38 g/m*3 20.9 C 0 km/h
Sensor: Nr:Datum:Temp:Abs-Feuchte:Windchill:Wind:
Aussen-T/F 1726 30-07-2019 23:45:00 20.8 C 12.49 g/m*3 20.8 C 0 km/h
1727 30-07-2019 23:50:00 20.8 C 12.49 g/m*3 20.8 C 0 km/h
1728 30-07-2019 23:55:00 20.8 C 12.49 g/m*3 20.8 C 0 km/h
1729 31-07-2019 00:00:00 20.7 C 12.42 g/m*3 20.7 C 0 km/h
1730 31-07-2019 00:05:00 20.7 C 12.42 g/m*3 20.7 C 0 km/h
1731 31-07-2019 00:10:00 20.7 C 12.42 g/m*3 20.7 C 0 km/h
1732 31-07-2019 00:15:00 20.6 C 12.35 g/m*3 20.6 C 0 km/h
1733 31-07-2019 00:20:00 20.6 C 12.53 g/m*3 20.6 C 0 km/h
1734 31-07-2019 00:25:00 20.6 C 12.53 g/m*3 20.6 C 0 km/h
1735 31-07-2019 00:30:00 20.6 C 12.35 g/m*3 20.6 C 0 km/h
1736 31-07-2019 00:35:00 20.5 C 12.46 g/m*3 20.5 C 0 km/h
1737 31-07-2019 00:40:00 20.4 C 12.38 g/m*3 20.4 C 0 km/h
1738 31-07-2019 00:45:00 20.4 C 12.56 g/m*3 20.4 C 0 km/h
1739 31-07-2019 00:50:00 20.4 C 12.56 g/m*3 20.4 C 0 km/h
1740 31-07-2019 00:55:00 20.4 C 12.56 g/m*3 20.4 C 0 km/h
1741 31-07-2019 01:00:00 20.3 C 12.49 g/m*3 20.3 C 0 km/h
1742 31-07-2019 01:05:00 20.3 C 12.49 g/m*3 20.3 C 0 km/h
1743 31-07-2019 01:10:00 20.3 C 12.49 g/m*3 20.3 C 0 km/h
1744 31-07-2019 01:15:00 20.3 C 12.49 g/m*3 20.3 C 0 km/h
1745 31-07-2019 01:20:00 20.3 C 12.49 g/m*3 20.3 C 0 km/h
1746 31-07-2019 01:25:00 20.3 C 12.49 g/m*3 20.3 C 0 km/h
1747 31-07-2019 01:30:00 20.3 C 12.49 g/m*3 20.3 C 0 km/h
1748 31-07-2019 01:35:00 20.3 C 12.49 g/m*3 20.3 C 6.4 km/h
1749 31-07-2019 01:40:00 20.4 C 12.56 g/m*3 20.4 C 6.4 km/h
1750 31-07-2019 01:45:00 20.4 C 12.56 g/m*3 20.4 C 0 km/h
Sensor: Nr:Datum:Temp:Abs-Feuchte:Windchill:Wind:
Aussen-T/F 1751 31-07-2019 01:50:00 20.4 C 12.56 g/m*3 20.4 C 0 km/h
1752 31-07-2019 01:55:00 20.3 C 12.49 g/m*3 20.3 C 0 km/h
1753 31-07-2019 02:00:00 20.2 C 12.41 g/m*3 20.2 C 0 km/h
1754 31-07-2019 02:05:00 20.1 C 12.34 g/m*3 20.1 C 0 km/h
1755 31-07-2019 02:10:00 19.9 C 12.2 g/m*3 19.9 C 0 km/h
1756 31-07-2019 02:15:00 19.8 C 12.13 g/m*3 19.8 C 0 km/h
1757 31-07-2019 02:20:00 19.8 C 12.3 g/m*3 19.8 C 0 km/h
1758 31-07-2019 02:25:00 19.7 C 12.23 g/m*3 19.7 C 0 km/h
1759 31-07-2019 02:30:00 19.7 C 12.23 g/m*3 19.7 C 0 km/h
1760 31-07-2019 02:35:00 19.6 C 12.15 g/m*3 19.6 C 0 km/h
1761 31-07-2019 02:40:00 19.6 C 12.15 g/m*3 19.6 C 0 km/h
1762 31-07-2019 02:45:00 19.4 C 12.01 g/m*3 19.4 C 0 km/h
1763 31-07-2019 02:50:00 19.4 C 12.01 g/m*3 19.4 C 0 km/h
1764 31-07-2019 02:55:00 19.3 C 11.94 g/m*3 19.3 C 0 km/h
1765 31-07-2019 03:00:00 19.2 C 11.87 g/m*3 19.2 C 0 km/h
1766 31-07-2019 03:05:00 19.1 C 11.97 g/m*3 19.1 C 0 km/h
1767 31-07-2019 03:10:00 18.9 C 11.83 g/m*3 18.9 C 0 km/h
1768 31-07-2019 03:15:00 18.8 C 11.92 g/m*3 18.8 C 0 km/h
1769 31-07-2019 03:20:00 18.7 C 11.85 g/m*3 18.7 C 0 km/h
1770 31-07-2019 03:25:00 18.6 C 11.94 g/m*3 18.6 C 0 km/h
1771 31-07-2019 03:30:00 18.6 C 12.1 g/m*3 18.6 C 0 km/h
1772 31-07-2019 03:35:00 18.4 C 11.95 g/m*3 18.4 C 0 km/h
1773 31-07-2019 03:40:00 18.4 C 11.95 g/m*3 18.4 C 1.6 km/h
1774 31-07-2019 03:45:00 18.3 C 12.04 g/m*3 18.3 C 1.6 km/h
1775 31-07-2019 03:50:00 18.3 C 12.04 g/m*3 18.3 C 0 km/h
Sensor: Nr:Datum:Temp:Abs-Feuchte:Windchill:Wind:
Aussen-T/F 1776 31-07-2019 03:55:00 18.3 C 12.2 g/m*3 18.3 C 0 km/h
1777 31-07-2019 04:00:00 18.3 C 12.2 g/m*3 18.3 C 0 km/h
1778 31-07-2019 04:05:00 18.3 C 12.35 g/m*3 18.3 C 0 km/h
1779 31-07-2019 04:10:00 18.3 C 12.2 g/m*3 18.3 C 3.2 km/h
1780 31-07-2019 04:15:00 18.4 C 12.27 g/m*3 18.4 C 4.8 km/h
1781 31-07-2019 04:20:00 18.6 C 12.26 g/m*3 18.6 C 3.2 km/h
1782 31-07-2019 04:25:00 18.7 C 12.33 g/m*3 18.7 C 0 km/h
1783 31-07-2019 04:30:00 18.7 C 12.17 g/m*3 18.7 C 0 km/h
1784 31-07-2019 04:35:00 18.7 C 12.17 g/m*3 18.7 C 0 km/h
1785 31-07-2019 04:40:00 18.8 C 12.24 g/m*3 18.8 C 0 km/h
1786 31-07-2019 04:45:00 18.8 C 12.4 g/m*3 18.8 C 0 km/h
1787 31-07-2019 04:50:00 18.7 C 12.17 g/m*3 18.7 C 0 km/h
1788 31-07-2019 04:55:00 18.6 C 12.1 g/m*3 18.6 C 0 km/h
1789 31-07-2019 05:00:00 18.4 C 11.95 g/m*3 18.4 C 0 km/h
1790 31-07-2019 05:05:00 18.3 C 11.88 g/m*3 18.3 C 0 km/h
1791 31-07-2019 05:10:00 18.1 C 11.74 g/m*3 18.1 C 0 km/h
1792 31-07-2019 05:15:00 17.9 C 11.76 g/m*3 17.9 C 0 km/h
1793 31-07-2019 05:20:00 17.8 C 11.84 g/m*3 17.8 C 0 km/h
1794 31-07-2019 05:25:00 17.7 C 11.77 g/m*3 17.7 C 0 km/h
1795 31-07-2019 05:30:00 17.7 C 11.92 g/m*3 17.7 C 0 km/h
1796 31-07-2019 05:35:00 17.6 C 11.85 g/m*3 17.6 C 0 km/h
1797 31-07-2019 05:40:00 17.6 C 11.85 g/m*3 17.6 C 0 km/h
1798 31-07-2019 05:45:00 17.6 C 11.85 g/m*3 17.6 C 0 km/h
1799 31-07-2019 05:50:00 17.6 C 12 g/m*3 17.6 C 0 km/h
1800 31-07-2019 05:55:00 17.7 C 11.92 g/m*3 17.7 C 0 km/h
Sensor: Nr:Datum:Temp:Abs-Feuchte:Windchill:Wind:
Aussen-T/F 1801 31-07-2019 06:00:00 17.7 C 11.92 g/m*3 17.7 C 0 km/h
1802 31-07-2019 06:05:00 17.7 C 11.92 g/m*3 17.7 C 0 km/h
1803 31-07-2019 06:10:00 17.7 C 11.92 g/m*3 17.7 C 0 km/h
1804 31-07-2019 06:15:00 17.8 C 11.84 g/m*3 17.8 C 0 km/h
1805 31-07-2019 06:20:00 17.8 C 11.84 g/m*3 17.8 C 0 km/h
1806 31-07-2019 06:25:00 17.7 C 11.77 g/m*3 17.7 C 0 km/h
1807 31-07-2019 06:30:00 17.7 C 11.77 g/m*3 17.7 C 0 km/h
1808 31-07-2019 06:35:00 17.7 C 11.77 g/m*3 17.7 C 0 km/h
1809 31-07-2019 06:40:00 17.6 C 11.7 g/m*3 17.6 C 0 km/h
1810 31-07-2019 06:45:00 17.5 C 11.63 g/m*3 17.5 C 0 km/h
1811 31-07-2019 06:50:00 17.4 C 11.71 g/m*3 17.4 C 0 km/h
1812 31-07-2019 06:55:00 17.4 C 11.71 g/m*3 17.4 C 0 km/h
1813 31-07-2019 07:00:00 17.3 C 11.64 g/m*3 17.3 C 0 km/h
1814 31-07-2019 07:05:00 17.3 C 11.79 g/m*3 17.3 C 0 km/h
1815 31-07-2019 07:10:00 17.3 C 11.79 g/m*3 17.3 C 1.6 km/h
1816 31-07-2019 07:15:00 17.3 C 11.79 g/m*3 17.3 C 0 km/h
1817 31-07-2019 07:20:00 17.3 C 11.79 g/m*3 17.3 C 0 km/h
1818 31-07-2019 07:25:00 17.3 C 11.79 g/m*3 17.3 C 0 km/h
1819 31-07-2019 07:30:00 17.3 C 11.79 g/m*3 17.3 C 0 km/h
1820 31-07-2019 07:35:00 17.4 C 11.86 g/m*3 17.4 C 0 km/h
1821 31-07-2019 07:40:00 17.4 C 11.86 g/m*3 17.4 C 0 km/h
1822 31-07-2019 07:45:00 17.4 C 11.86 g/m*3 17.4 C 0 km/h
1823 31-07-2019 07:50:00 17.6 C 12 g/m*3 17.6 C 1.6 km/h
1824 31-07-2019 07:55:00 17.6 C 12 g/m*3 17.6 C 0 km/h
1825 31-07-2019 08:00:00 17.7 C 11.92 g/m*3 17.7 C 0 km/h
Sensor: Nr:Datum:Temp:Abs-Feuchte:Windchill:Wind:
Aussen-T/F 1826 31-07-2019 08:05:00 17.8 C 11.84 g/m*3 17.8 C 4.8 km/h
1827 31-07-2019 08:10:00 17.9 C 11.91 g/m*3 17.9 C 0 km/h
1828 31-07-2019 08:15:00 18 C 11.98 g/m*3 18 C 0 km/h
1829 31-07-2019 08:20:00 18.1 C 12.21 g/m*3 18.1 C 0 km/h
1830 31-07-2019 08:25:00 18.2 C 11.81 g/m*3 18.2 C 4.8 km/h
1831 31-07-2019 08:30:00 18.4 C 11.8 g/m*3 18.4 C 6.4 km/h
1832 31-07-2019 08:35:00 18.7 C 11.85 g/m*3 18.7 C 6.4 km/h
1833 31-07-2019 08:40:00 18.9 C 11.83 g/m*3 18.9 C 9.7 km/h
1834 31-07-2019 08:45:00 19.1 C 11.8 g/m*3 19.1 C 9.7 km/h
1835 31-07-2019 08:50:00 19.2 C 11.87 g/m*3 19.2 C 6.4 km/h
1836 31-07-2019 08:55:00 19.3 C 11.78 g/m*3 19.3 C 9.7 km/h
1837 31-07-2019 09:00:00 19.4 C 12.01 g/m*3 19.4 C 3.2 km/h
1838 31-07-2019 09:05:00 19.5 C 11.92 g/m*3 19.5 C 9.7 km/h
1839 31-07-2019 09:10:00 19.6 C 11.82 g/m*3 19.6 C 4.8 km/h
1840 31-07-2019 09:15:00 19.8 C 11.96 g/m*3 19.8 C 8.1 km/h
1841 31-07-2019 09:20:00 19.8 C 11.79 g/m*3 19.8 C 6.4 km/h
1842 31-07-2019 09:25:00 19.9 C 11.68 g/m*3 19.9 C 12.9 km/h
1843 31-07-2019 09:30:00 20.1 C 11.65 g/m*3 20.1 C 12.9 km/h
1844 31-07-2019 09:35:00 20.2 C 11.71 g/m*3 20.2 C 8.1 km/h
1845 31-07-2019 09:40:00 20.4 C 11.68 g/m*3 20.4 C 12.9 km/h
1846 31-07-2019 09:45:00 20.4 C 11.5 g/m*3 20.4 C 20.9 km/h
1847 31-07-2019 09:50:00 20.5 C 11.39 g/m*3 20.5 C 17.7 km/h
1848 31-07-2019 09:55:00 20.6 C 11.28 g/m*3 20.6 C 11.3 km/h
1849 31-07-2019 10:00:00 20.7 C 11.52 g/m*3 20.7 C 9.7 km/h
1850 31-07-2019 10:05:00 20.8 C 11.23 g/m*3 20.8 C 12.9 km/h
Sensor: Nr:Datum:Temp:Abs-Feuchte:Windchill:Wind:
Aussen-T/F 1851 31-07-2019 10:10:00 20.9 C 11.11 g/m*3 20.9 C 9.7 km/h
1852 31-07-2019 10:15:00 21.2 C 11.3 g/m*3 21.2 C 9.7 km/h
1853 31-07-2019 10:20:00 21.4 C 11.06 g/m*3 21.4 C 12.9 km/h
1854 31-07-2019 10:25:00 21.4 C 10.69 g/m*3 21.4 C 17.7 km/h
1855 31-07-2019 10:30:00 21.4 C 10.69 g/m*3 21.4 C 11.3 km/h
1856 31-07-2019 10:35:00 21.5 C 10.56 g/m*3 21.5 C 14.5 km/h
1857 31-07-2019 10:40:00 21.7 C 10.87 g/m*3 21.7 C 14.5 km/h
1858 31-07-2019 10:45:00 21.8 C 11.13 g/m*3 21.8 C 14.5 km/h
1859 31-07-2019 10:50:00 21.8 C 10.74 g/m*3 21.8 C 14.5 km/h
1860 31-07-2019 10:55:00 21.7 C 10.87 g/m*3 21.7 C 16.1 km/h
1861 31-07-2019 11:00:00 21.5 C 10.56 g/m*3 21.5 C 9.7 km/h
1862 31-07-2019 11:05:00 21.3 C 10.44 g/m*3 21.3 C 16.1 km/h
1863 31-07-2019 11:10:00 21.1 C 10.69 g/m*3 21.1 C 9.7 km/h
1864 31-07-2019 11:15:00 21.1 C 10.5 g/m*3 21.1 C 4.8 km/h
1865 31-07-2019 11:20:00 21.2 C 10.56 g/m*3 21.2 C 8.1 km/h
1866 31-07-2019 11:25:00 21.4 C 10.5 g/m*3 21.4 C 14.5 km/h
1867 31-07-2019 11:30:00 21.6 C 10.43 g/m*3 21.6 C 12.9 km/h
1868 31-07-2019 11:35:00 21.8 C 10.36 g/m*3 21.8 C 16.1 km/h
1869 31-07-2019 11:40:00 21.9 C 10.42 g/m*3 21.9 C 11.3 km/h
1870 31-07-2019 11:45:00 22 C 10.48 g/m*3 22 C 14.5 km/h
1871 31-07-2019 11:50:00 22.2 C 10.41 g/m*3 22.2 C 22.5 km/h
1872 31-07-2019 11:55:00 22.2 C 10.41 g/m*3 22.2 C 22.5 km/h
1873 31-07-2019 12:00:00 22.1 C 10.15 g/m*3 22.1 C 16.1 km/h
1874 31-07-2019 12:05:00 22.2 C 10.21 g/m*3 22.2 C 22.5 km/h
1875 31-07-2019 12:10:00 22.3 C 10.27 g/m*3 22.3 C 11.3 km/h
Sensor: Nr:Datum:Temp:Abs-Feuchte:Windchill:Wind:
Aussen-T/F 1876 31-07-2019 12:15:00 22.6 C 10.65 g/m*3 22.6 C 16.1 km/h
1877 31-07-2019 12:20:00 22.8 C 10.57 g/m*3 22.8 C 14.5 km/h
1878 31-07-2019 12:25:00 22.9 C 10.42 g/m*3 22.9 C 22.5 km/h
1879 31-07-2019 12:30:00 22.9 C 9.81 g/m*3 22.9 C 17.7 km/h
1880 31-07-2019 12:35:00 22.7 C 9.9 g/m*3 22.7 C 14.5 km/h
1881 31-07-2019 12:40:00 22.8 C 9.96 g/m*3 22.8 C 12.9 km/h
1882 31-07-2019 12:45:00 22.8 C 10.16 g/m*3 22.8 C 19.3 km/h
1883 31-07-2019 12:50:00 22.9 C 10.42 g/m*3 22.9 C 16.1 km/h
1884 31-07-2019 12:55:00 23 C 10.48 g/m*3 23 C 16.1 km/h
1885 31-07-2019 13:00:00 23.1 C 10.75 g/m*3 23.1 C 12.9 km/h
1886 31-07-2019 13:05:00 23.2 C 10.6 g/m*3 23.2 C 12.9 km/h
1887 31-07-2019 13:10:00 23.3 C 10.25 g/m*3 23.3 C 14.5 km/h
1888 31-07-2019 13:15:00 23.3 C 9.83 g/m*3 23.3 C 14.5 km/h
1889 31-07-2019 13:20:00 23.4 C 9.88 g/m*3 23.4 C 19.3 km/h
1890 31-07-2019 13:25:00 23.6 C 10 g/m*3 23.6 C 16.1 km/h
1891 31-07-2019 13:30:00 23.9 C 9.95 g/m*3 23.9 C 12.9 km/h
1892 31-07-2019 13:35:00 24 C 9.79 g/m*3 24 C 14.5 km/h
1893 31-07-2019 13:40:00 24 C 10.01 g/m*3 24 C 17.7 km/h
1894 31-07-2019 13:45:00 24.1 C 9.85 g/m*3 24.1 C 14.5 km/h
1895 31-07-2019 13:50:00 24.2 C 9.68 g/m*3 24.2 C 11.3 km/h
1896 31-07-2019 13:55:00 24.2 C 9.9 g/m*3 24.2 C 22.5 km/h
1897 31-07-2019 14:00:00 24.3 C 9.74 g/m*3 24.3 C 14.5 km/h
1898 31-07-2019 14:05:00 24.4 C 9.79 g/m*3 24.4 C 12.9 km/h
1899 31-07-2019 14:10:00 24.3 C 9.52 g/m*3 24.3 C 16.1 km/h
1900 31-07-2019 14:15:00 24.4 C 9.57 g/m*3 24.4 C 14.5 km/h
Sensor: Nr:Datum:Temp:Abs-Feuchte:Windchill:Wind:
Aussen-T/F 1901 31-07-2019 14:20:00 24.5 C 9.85 g/m*3 24.5 C 9.7 km/h
1902 31-07-2019 14:25:00 24.7 C 9.96 g/m*3 24.7 C 9.7 km/h
1903 31-07-2019 14:30:00 25 C 9.67 g/m*3 25 C 14.5 km/h
1904 31-07-2019 14:35:00 25.1 C 9.49 g/m*3 25.1 C 14.5 km/h
1905 31-07-2019 14:40:00 24.9 C 9.39 g/m*3 24.9 C 20.9 km/h
1906 31-07-2019 14:45:00 25.1 C 9.49 g/m*3 25.1 C 14.5 km/h
1907 31-07-2019 14:50:00 25.2 C 9.54 g/m*3 25.2 C 14.5 km/h
1908 31-07-2019 14:55:00 25.3 C 9.6 g/m*3 25.3 C 14.5 km/h
1909 31-07-2019 15:00:00 25.4 C 9.18 g/m*3 25.4 C 16.1 km/h
1910 31-07-2019 15:05:00 25.4 C 9.42 g/m*3 25.4 C 14.5 km/h
1911 31-07-2019 15:10:00 25.1 C 9.49 g/m*3 25.1 C 11.3 km/h
1912 31-07-2019 15:15:00 25.1 C 9.95 g/m*3 25.1 C 6.4 km/h
1913 31-07-2019 15:20:00 25.4 C 9.42 g/m*3 25.4 C 17.7 km/h
1914 31-07-2019 15:25:00 25.8 C 9.63 g/m*3 25.8 C 14.5 km/h
1915 31-07-2019 15:30:00 26 C 9.49 g/m*3 26 C 20.9 km/h
1916 31-07-2019 15:35:00 26 C 9.49 g/m*3 26 C 14.5 km/h
1917 31-07-2019 15:40:00 25.6 C 9.52 g/m*3 25.6 C 12.9 km/h
1918 31-07-2019 15:45:00 25.7 C 9.58 g/m*3 25.7 C 16.1 km/h
1919 31-07-2019 15:50:00 25.6 C 9.52 g/m*3 25.6 C 12.9 km/h
1920 31-07-2019 15:55:00 25.5 C 9.47 g/m*3 25.5 C 11.3 km/h
1921 31-07-2019 16:00:00 25.9 C 9.68 g/m*3 25.9 C 17.7 km/h
1922 31-07-2019 16:05:00 26.3 C 9.41 g/m*3 26.3 C 16.1 km/h
1923 31-07-2019 16:10:00 25.8 C 9.39 g/m*3 25.8 C 9.7 km/h
1924 31-07-2019 16:15:00 25.2 C 9.54 g/m*3 25.2 C 19.3 km/h
1925 31-07-2019 16:20:00 24.8 C 9.56 g/m*3 24.8 C 16.1 km/h
Sensor: Nr:Datum:Temp:Abs-Feuchte:Windchill:Wind:
Aussen-T/F 1926 31-07-2019 16:25:00 24.7 C 9.73 g/m*3 24.7 C 9.7 km/h
1927 31-07-2019 16:30:00 24.6 C 9.68 g/m*3 24.6 C 14.5 km/h
1928 31-07-2019 16:35:00 24.4 C 9.57 g/m*3 24.4 C 17.7 km/h
1929 31-07-2019 16:40:00 24.3 C 9.74 g/m*3 24.3 C 12.9 km/h
1930 31-07-2019 16:45:00 24.3 C 9.96 g/m*3 24.3 C 9.7 km/h
1931 31-07-2019 16:50:00 24.4 C 10.01 g/m*3 24.4 C 11.3 km/h
1932 31-07-2019 16:55:00 24.8 C 10.24 g/m*3 24.8 C 9.7 km/h
1933 31-07-2019 17:00:00 24.8 C 10.02 g/m*3 24.8 C 14.5 km/h
1934 31-07-2019 17:05:00 25.1 C 10.19 g/m*3 25.1 C 20.9 km/h
1935 31-07-2019 17:10:00 25.4 C 10.12 g/m*3 25.4 C 16.1 km/h
1936 31-07-2019 17:15:00 25.6 C 10.24 g/m*3 25.6 C 17.7 km/h
1937 31-07-2019 17:20:00 25.7 C 10.29 g/m*3 25.7 C 19.3 km/h
1938 31-07-2019 17:25:00 25.4 C 10.12 g/m*3 25.4 C 14.5 km/h
1939 31-07-2019 17:30:00 25.2 C 9.54 g/m*3 25.2 C 11.3 km/h
1940 31-07-2019 17:35:00 25.2 C 9.78 g/m*3 25.2 C 9.7 km/h
1941 31-07-2019 17:40:00 25.1 C 9.95 g/m*3 25.1 C 11.3 km/h
1942 31-07-2019 17:45:00 25.1 C 9.95 g/m*3 25.1 C 9.7 km/h
1943 31-07-2019 17:50:00 25.2 C 10.01 g/m*3 25.2 C 14.5 km/h
1944 31-07-2019 17:55:00 25.2 C 10.01 g/m*3 25.2 C 11.3 km/h
1945 31-07-2019 18:00:00 24.8 C 10.02 g/m*3 24.8 C 14.5 km/h
1946 31-07-2019 18:05:00 24.4 C 10.01 g/m*3 24.4 C 12.9 km/h
1947 31-07-2019 18:10:00 24.2 C 10.12 g/m*3 24.2 C 9.7 km/h
1948 31-07-2019 18:15:00 23.9 C 9.95 g/m*3 23.9 C 9.7 km/h
1949 31-07-2019 18:20:00 23.8 C 10.33 g/m*3 23.8 C 6.4 km/h
1950 31-07-2019 18:25:00 23.7 C 10.05 g/m*3 23.7 C 9.7 km/h
Sensor: Nr:Datum:Temp:Abs-Feuchte:Windchill:Wind:
Aussen-T/F 1951 31-07-2019 18:30:00 23.7 C 10.05 g/m*3 23.7 C 8.1 km/h
1952 31-07-2019 18:35:00 23.6 C 10.21 g/m*3 23.6 C 9.7 km/h
1953 31-07-2019 18:40:00 23.6 C 10.63 g/m*3 23.6 C 0 km/h
1954 31-07-2019 18:45:00 23.6 C 10.21 g/m*3 23.6 C 4.8 km/h
1955 31-07-2019 18:50:00 23.6 C 10.21 g/m*3 23.6 C 8.1 km/h
1956 31-07-2019 18:55:00 23.6 C 10.21 g/m*3 23.6 C 3.2 km/h
1957 31-07-2019 19:00:00 23.6 C 10.21 g/m*3 23.6 C 4.8 km/h
1958 31-07-2019 19:05:00 23.7 C 10.05 g/m*3 23.7 C 11.3 km/h
1959 31-07-2019 19:10:00 23.9 C 10.38 g/m*3 23.9 C 11.3 km/h
1960 31-07-2019 19:15:00 24 C 10.44 g/m*3 24 C 4.8 km/h
1961 31-07-2019 19:20:00 23.9 C 10.82 g/m*3 23.9 C 4.8 km/h
1962 31-07-2019 19:25:00 23.7 C 10.69 g/m*3 23.7 C 4.8 km/h
1963 31-07-2019 19:30:00 23.4 C 10.51 g/m*3 23.4 C 6.4 km/h
1964 31-07-2019 19:35:00 23.3 C 9.62 g/m*3 23.3 C 9.7 km/h
1965 31-07-2019 19:40:00 23.2 C 9.36 g/m*3 23.2 C 8.1 km/h
1966 31-07-2019 19:45:00 23.2 C 9.56 g/m*3 23.2 C 4.8 km/h
1967 31-07-2019 19:50:00 23.1 C 10.54 g/m*3 23.1 C 8.1 km/h
1968 31-07-2019 19:55:00 22.9 C 10.83 g/m*3 22.9 C 4.8 km/h
1969 31-07-2019 20:00:00 22.8 C 10.77 g/m*3 22.8 C 4.8 km/h
1970 31-07-2019 20:05:00 22.7 C 10.71 g/m*3 22.7 C 3.2 km/h
1971 31-07-2019 20:10:00 22.4 C 10.53 g/m*3 22.4 C 3.2 km/h
1972 31-07-2019 20:15:00 22.3 C 10.66 g/m*3 22.3 C 4.8 km/h
1973 31-07-2019 20:20:00 22.2 C 10.6 g/m*3 22.2 C 1.6 km/h
1974 31-07-2019 20:25:00 22.2 C 10.99 g/m*3 22.2 C 0 km/h
1975 31-07-2019 20:30:00 22.2 C 11.19 g/m*3 22.2 C 0 km/h
Sensor: Nr:Datum:Temp:Abs-Feuchte:Windchill:Wind:
Aussen-T/F 1976 31-07-2019 20:35:00 22.1 C 11.13 g/m*3 22.1 C 0 km/h
1977 31-07-2019 20:40:00 21.9 C 11 g/m*3 21.9 C 0 km/h
1978 31-07-2019 20:45:00 21.7 C 11.06 g/m*3 21.7 C 0 km/h
1979 31-07-2019 20:50:00 21.4 C 10.87 g/m*3 21.4 C 0 km/h
1980 31-07-2019 20:55:00 21.2 C 10.93 g/m*3 21.2 C 0 km/h
1981 31-07-2019 21:00:00 21 C 10.99 g/m*3 21 C 0 km/h
1982 31-07-2019 21:05:00 20.8 C 10.86 g/m*3 20.8 C 0 km/h
1983 31-07-2019 21:10:00 20.7 C 10.98 g/m*3 20.7 C 0 km/h
1984 31-07-2019 21:15:00 20.4 C 10.61 g/m*3 20.4 C 0 km/h
1985 31-07-2019 21:20:00 20.2 C 10.49 g/m*3 20.2 C 0 km/h
1986 31-07-2019 21:25:00 20 C 10.37 g/m*3 20 C 0 km/h
1987 31-07-2019 21:30:00 19.8 C 10.08 g/m*3 19.8 C 0 km/h
1988 31-07-2019 21:35:00 19.6 C 9.96 g/m*3 19.6 C 0 km/h
1989 31-07-2019 21:40:00 19.4 C 9.84 g/m*3 19.4 C 0 km/h
1990 31-07-2019 21:45:00 19.2 C 9.73 g/m*3 19.2 C 0 km/h
1991 31-07-2019 21:50:00 19.1 C 9.67 g/m*3 19.1 C 0 km/h
1992 31-07-2019 21:55:00 18.9 C 9.72 g/m*3 18.9 C 0 km/h
1993 31-07-2019 22:00:00 18.8 C 9.66 g/m*3 18.8 C 0 km/h
1994 31-07-2019 22:05:00 18.7 C 9.77 g/m*3 18.7 C 0 km/h
1995 31-07-2019 22:10:00 18.7 C 9.61 g/m*3 18.7 C 0 km/h
1996 31-07-2019 22:15:00 18.6 C 9.71 g/m*3 18.6 C 0 km/h
1997 31-07-2019 22:20:00 18.6 C 9.71 g/m*3 18.6 C 0 km/h
1998 31-07-2019 22:25:00 18.6 C 9.71 g/m*3 18.6 C 0 km/h
1999 31-07-2019 22:30:00 18.6 C 9.71 g/m*3 18.6 C 0 km/h
2000 31-07-2019 22:35:00 18.6 C 9.71 g/m*3 18.6 C 0 km/h
Sensor: Nr:Datum:Temp:Abs-Feuchte:Windchill:Wind:
Aussen-T/F 2001 31-07-2019 22:40:00 18.7 C 9.93 g/m*3 18.7 C 0 km/h
2002 31-07-2019 22:45:00 18.7 C 9.93 g/m*3 18.7 C 0 km/h
2003 31-07-2019 22:50:00 18.8 C 9.82 g/m*3 18.8 C 3.2 km/h
2004 31-07-2019 22:55:00 18.8 C 9.82 g/m*3 18.8 C 1.6 km/h
2005 31-07-2019 23:00:00 18.9 C 9.88 g/m*3 18.9 C 0 km/h
2006 31-07-2019 23:05:00 18.9 C 9.88 g/m*3 18.9 C 1.6 km/h
2007 31-07-2019 23:10:00 18.9 C 9.88 g/m*3 18.9 C 1.6 km/h
2008 31-07-2019 23:15:00 18.8 C 9.99 g/m*3 18.8 C 1.6 km/h
2009 31-07-2019 23:20:00 18.8 C 9.99 g/m*3 18.8 C 0 km/h
2010 31-07-2019 23:25:00 18.7 C 9.93 g/m*3 18.7 C 0 km/h
2011 31-07-2019 23:30:00 18.5 C 9.97 g/m*3 18.5 C 0 km/h
2012 31-07-2019 23:35:00 18.4 C 9.91 g/m*3 18.4 C 0 km/h
2013 31-07-2019 23:40:00 18.2 C 9.95 g/m*3 18.2 C 0 km/h
2014 31-07-2019 23:45:00 17.9 C 9.92 g/m*3 17.9 C 0 km/h
2015 31-07-2019 23:50:00 17.8 C 10.02 g/m*3 17.8 C 0 km/h
2016 31-07-2019 23:55:00 17.6 C 10.05 g/m*3 17.6 C 0 km/h
2017 01-08-2019 00:00:00 17.4 C 10.08 g/m*3 17.4 C 0 km/h
2018 01-08-2019 00:05:00 17.3 C 10.16 g/m*3 17.3 C 0 km/h
2019 01-08-2019 00:10:00 17.2 C 10.1 g/m*3 17.2 C 0 km/h
2020 01-08-2019 00:15:00 17.1 C 10.19 g/m*3 17.1 C 0 km/h
2021 01-08-2019 00:20:00 17 C 10.13 g/m*3 17 C 0 km/h
2022 01-08-2019 00:25:00 16.9 C 10.21 g/m*3 16.9 C 0 km/h
2023 01-08-2019 00:30:00 16.9 C 10.21 g/m*3 16.9 C 1.6 km/h
2024 01-08-2019 00:35:00 16.8 C 10.01 g/m*3 16.8 C 0 km/h
2025 01-08-2019 00:40:00 16.7 C 10.09 g/m*3 16.7 C 0 km/h
Sensor: Nr:Datum:Temp:Abs-Feuchte:Windchill:Wind:
Aussen-T/F 2026 01-08-2019 00:45:00 16.6 C 10.03 g/m*3 16.6 C 0 km/h
2027 01-08-2019 00:50:00 16.4 C 9.91 g/m*3 16.4 C 3.2 km/h
2028 01-08-2019 00:55:00 16.3 C 9.99 g/m*3 16.3 C 0 km/h
2029 01-08-2019 01:00:00 16.1 C 10.01 g/m*3 16.1 C 0 km/h
2030 01-08-2019 01:05:00 15.9 C 9.89 g/m*3 15.9 C 1.6 km/h
2031 01-08-2019 01:10:00 15.8 C 9.96 g/m*3 15.8 C 0 km/h
2032 01-08-2019 01:15:00 15.7 C 10.03 g/m*3 15.7 C 0 km/h
2033 01-08-2019 01:20:00 15.6 C 9.97 g/m*3 15.6 C 0 km/h
2034 01-08-2019 01:25:00 15.6 C 9.97 g/m*3 15.6 C 0 km/h
2035 01-08-2019 01:30:00 15.4 C 9.85 g/m*3 15.4 C 0 km/h
2036 01-08-2019 01:35:00 15.4 C 9.85 g/m*3 15.4 C 0 km/h
2037 01-08-2019 01:40:00 15.3 C 9.92 g/m*3 15.3 C 0 km/h
2038 01-08-2019 01:45:00 15.2 C 9.86 g/m*3 15.2 C 0 km/h
2039 01-08-2019 01:50:00 15.2 C 9.86 g/m*3 15.2 C 0 km/h
2040 01-08-2019 01:55:00 15.1 C 9.93 g/m*3 15.1 C 0 km/h
2041 01-08-2019 02:00:00 15.1 C 9.93 g/m*3 15.1 C 0 km/h
2042 01-08-2019 02:05:00 14.9 C 9.81 g/m*3 14.9 C 1.6 km/h
2043 01-08-2019 02:10:00 14.9 C 9.94 g/m*3 14.9 C 0 km/h
2044 01-08-2019 02:15:00 14.8 C 9.88 g/m*3 14.8 C 0 km/h
2045 01-08-2019 02:20:00 14.8 C 10.01 g/m*3 14.8 C 0 km/h
2046 01-08-2019 02:25:00 14.7 C 9.95 g/m*3 14.7 C 0 km/h
2047 01-08-2019 02:30:00 14.6 C 9.89 g/m*3 14.6 C 0 km/h
2048 01-08-2019 02:35:00 14.6 C 10.01 g/m*3 14.6 C 0 km/h
2049 01-08-2019 02:40:00 14.6 C 10.01 g/m*3 14.6 C 0 km/h
2050 01-08-2019 02:45:00 14.6 C 10.01 g/m*3 14.6 C 0 km/h
Sensor: Nr:Datum:Temp:Abs-Feuchte:Windchill:Wind:
Aussen-T/F 2051 01-08-2019 02:50:00 14.6 C 10.01 g/m*3 14.6 C 1.6 km/h
2052 01-08-2019 02:55:00 14.6 C 10.01 g/m*3 14.6 C 1.6 km/h
2053 01-08-2019 03:00:00 14.6 C 10.14 g/m*3 14.6 C 0 km/h
2054 01-08-2019 03:05:00 14.6 C 10.14 g/m*3 14.6 C 0 km/h
2055 01-08-2019 03:10:00 14.7 C 10.07 g/m*3 14.7 C 0 km/h
2056 01-08-2019 03:15:00 14.6 C 10.01 g/m*3 14.6 C 1.6 km/h
2057 01-08-2019 03:20:00 14.5 C 9.95 g/m*3 14.5 C 0 km/h
2058 01-08-2019 03:25:00 14.3 C 9.83 g/m*3 14.3 C 0 km/h
2059 01-08-2019 03:30:00 14.2 C 9.89 g/m*3 14.2 C 0 km/h
2060 01-08-2019 03:35:00 14 C 9.77 g/m*3 14 C 0 km/h
2061 01-08-2019 03:40:00 13.8 C 9.65 g/m*3 13.8 C 0 km/h
2062 01-08-2019 03:45:00 13.7 C 9.71 g/m*3 13.7 C 1.6 km/h
2063 01-08-2019 03:50:00 13.5 C 9.59 g/m*3 13.5 C 0 km/h
2064 01-08-2019 03:55:00 13.4 C 9.65 g/m*3 13.4 C 0 km/h
2065 01-08-2019 04:00:00 13.3 C 9.59 g/m*3 13.3 C 0 km/h
2066 01-08-2019 04:05:00 13.2 C 9.53 g/m*3 13.2 C 0 km/h
2067 01-08-2019 04:10:00 13.1 C 9.59 g/m*3 13.1 C 0 km/h
2068 01-08-2019 04:15:00 13 C 9.53 g/m*3 13 C 0 km/h
2069 01-08-2019 04:20:00 13 C 9.64 g/m*3 13 C 0 km/h
2070 01-08-2019 04:25:00 12.9 C 9.58 g/m*3 12.9 C 0 km/h
2071 01-08-2019 04:30:00 12.9 C 9.58 g/m*3 12.9 C 0 km/h
2072 01-08-2019 04:35:00 12.8 C 9.63 g/m*3 12.8 C 1.6 km/h
2073 01-08-2019 04:40:00 12.8 C 9.63 g/m*3 12.8 C 0 km/h
2074 01-08-2019 04:45:00 12.9 C 9.69 g/m*3 12.9 C 1.6 km/h
2075 01-08-2019 04:50:00 12.8 C 9.63 g/m*3 12.8 C 0 km/h
Sensor: Nr:Datum:Temp:Abs-Feuchte:Windchill:Wind:
Aussen-T/F 2076 01-08-2019 04:55:00 12.8 C 9.63 g/m*3 12.8 C 4.8 km/h
2077 01-08-2019 05:00:00 12.8 C 9.63 g/m*3 12.8 C 1.6 km/h
2078 01-08-2019 05:05:00 12.8 C 9.63 g/m*3 12.8 C 0 km/h
2079 01-08-2019 05:10:00 12.7 C 9.57 g/m*3 12.7 C 0 km/h
2080 01-08-2019 05:15:00 12.7 C 9.68 g/m*3 12.7 C 0 km/h
2081 01-08-2019 05:20:00 12.6 C 9.62 g/m*3 12.6 C 0 km/h
2082 01-08-2019 05:25:00 12.6 C 9.62 g/m*3 12.6 C 1.6 km/h
2083 01-08-2019 05:30:00 12.7 C 9.8 g/m*3 12.7 C 1.6 km/h
2084 01-08-2019 05:35:00 12.7 C 9.68 g/m*3 12.7 C 0 km/h
2085 01-08-2019 05:40:00 12.6 C 9.62 g/m*3 12.6 C 0 km/h
2086 01-08-2019 05:45:00 12.5 C 9.57 g/m*3 12.5 C 0 km/h
2087 01-08-2019 05:50:00 12.4 C 9.51 g/m*3 12.4 C 0 km/h
2088 01-08-2019 05:55:00 12.4 C 9.51 g/m*3 12.4 C 0 km/h
2089 01-08-2019 06:00:00 12.3 C 9.56 g/m*3 12.3 C 0 km/h
2090 01-08-2019 06:05:00 12.3 C 9.56 g/m*3 12.3 C 0 km/h
2091 01-08-2019 06:10:00 12.2 C 9.5 g/m*3 12.2 C 0 km/h
2092 01-08-2019 06:15:00 12.2 C 9.5 g/m*3 12.2 C 0 km/h
2093 01-08-2019 06:20:00 12.1 C 9.44 g/m*3 12.1 C 0 km/h
2094 01-08-2019 06:25:00 12.1 C 9.54 g/m*3 12.1 C 0 km/h
2095 01-08-2019 06:30:00 12.1 C 9.44 g/m*3 12.1 C 0 km/h
2096 01-08-2019 06:35:00 12 C 9.48 g/m*3 12 C 0 km/h
2097 01-08-2019 06:40:00 12 C 9.48 g/m*3 12 C 0 km/h
2098 01-08-2019 06:45:00 12 C 9.48 g/m*3 12 C 0 km/h
2099 01-08-2019 06:50:00 12.1 C 9.54 g/m*3 12.1 C 0 km/h
2100 01-08-2019 06:55:00 12.1 C 9.54 g/m*3 12.1 C 0 km/h
Sensor: Nr:Datum:Temp:Abs-Feuchte:Windchill:Wind:
Aussen-T/F 2101 01-08-2019 07:00:00 12.1 C 9.54 g/m*3 12.1 C 0 km/h
2102 01-08-2019 07:05:00 12.1 C 9.54 g/m*3 12.1 C 0 km/h
2103 01-08-2019 07:10:00 12.1 C 9.54 g/m*3 12.1 C 0 km/h
2104 01-08-2019 07:15:00 12.2 C 9.6 g/m*3 12.2 C 0 km/h
2105 01-08-2019 07:20:00 12.2 C 9.6 g/m*3 12.2 C 0 km/h
2106 01-08-2019 07:25:00 12.2 C 9.71 g/m*3 12.2 C 0 km/h
2107 01-08-2019 07:30:00 12.3 C 9.77 g/m*3 12.3 C 0 km/h
2108 01-08-2019 07:35:00 12.5 C 9.89 g/m*3 12.5 C 1.6 km/h
2109 01-08-2019 07:40:00 12.8 C 10.08 g/m*3 12.8 C 1.6 km/h
2110 01-08-2019 07:45:00 13.1 C 10.16 g/m*3 13.1 C 1.6 km/h
2111 01-08-2019 07:50:00 13.4 C 10.23 g/m*3 13.4 C 0 km/h
2112 01-08-2019 07:55:00 13.7 C 10.42 g/m*3 13.7 C 0 km/h
2113 01-08-2019 08:00:00 13.9 C 10.43 g/m*3 13.9 C 0 km/h
2114 01-08-2019 08:05:00 14.2 C 10.5 g/m*3 14.2 C 0 km/h
2115 01-08-2019 08:10:00 14.4 C 10.51 g/m*3 14.4 C 0 km/h
2116 01-08-2019 08:15:00 14.7 C 10.45 g/m*3 14.7 C 0 km/h
2117 01-08-2019 08:20:00 15 C 10.64 g/m*3 15 C 0 km/h
2118 01-08-2019 08:25:00 15.2 C 10.51 g/m*3 15.2 C 1.6 km/h
2119 01-08-2019 08:30:00 15.3 C 10.45 g/m*3 15.3 C 1.6 km/h
2120 01-08-2019 08:35:00 15.5 C 10.57 g/m*3 15.5 C 1.6 km/h
2121 01-08-2019 08:40:00 15.7 C 10.57 g/m*3 15.7 C 3.2 km/h
2122 01-08-2019 08:45:00 15.8 C 10.63 g/m*3 15.8 C 1.6 km/h
2123 01-08-2019 08:50:00 16.1 C 10.69 g/m*3 16.1 C 0 km/h
2124 01-08-2019 08:55:00 16.3 C 10.68 g/m*3 16.3 C 1.6 km/h
2125 01-08-2019 09:00:00 16.6 C 10.88 g/m*3 16.6 C 3.2 km/h
Sensor: Nr:Datum:Temp:Abs-Feuchte:Windchill:Wind:
Aussen-T/F 2126 01-08-2019 09:05:00 16.9 C 10.93 g/m*3 16.9 C 6.4 km/h
2127 01-08-2019 09:10:00 17.2 C 10.98 g/m*3 17.2 C 6.4 km/h
2128 01-08-2019 09:15:00 17.3 C 11.05 g/m*3 17.3 C 4.8 km/h
2129 01-08-2019 09:20:00 17.4 C 10.97 g/m*3 17.4 C 6.4 km/h
2130 01-08-2019 09:25:00 17.5 C 11.03 g/m*3 17.5 C 4.8 km/h
2131 01-08-2019 09:30:00 17.6 C 10.95 g/m*3 17.6 C 4.8 km/h
2132 01-08-2019 09:35:00 17.6 C 10.95 g/m*3 17.6 C 6.4 km/h
2133 01-08-2019 09:40:00 17.7 C 11.01 g/m*3 17.7 C 4.8 km/h
2134 01-08-2019 09:45:00 18 C 11.06 g/m*3 18 C 3.2 km/h
2135 01-08-2019 09:50:00 18.3 C 11.1 g/m*3 18.3 C 1.6 km/h
2136 01-08-2019 09:55:00 18.7 C 11.21 g/m*3 18.7 C 8.1 km/h
2137 01-08-2019 10:00:00 19.2 C 11.21 g/m*3 19.2 C 9.7 km/h
2138 01-08-2019 10:05:00 19.4 C 11.18 g/m*3 19.4 C 9.7 km/h
2139 01-08-2019 10:10:00 19.7 C 11.04 g/m*3 19.7 C 8.1 km/h
2140 01-08-2019 10:15:00 20 C 10.89 g/m*3 20 C 9.7 km/h
2141 01-08-2019 10:20:00 20.2 C 11.02 g/m*3 20.2 C 12.9 km/h
2142 01-08-2019 10:25:00 20.3 C 10.9 g/m*3 20.3 C 11.3 km/h
2143 01-08-2019 10:30:00 20.5 C 10.68 g/m*3 20.5 C 11.3 km/h
2144 01-08-2019 10:35:00 20.6 C 10.92 g/m*3 20.6 C 9.7 km/h
2145 01-08-2019 10:40:00 20.7 C 10.98 g/m*3 20.7 C 9.7 km/h
2146 01-08-2019 10:45:00 20.8 C 11.23 g/m*3 20.8 C 8.1 km/h
2147 01-08-2019 10:50:00 21.1 C 10.87 g/m*3 21.1 C 12.9 km/h
2148 01-08-2019 10:55:00 21.1 C 10.69 g/m*3 21.1 C 12.9 km/h
2149 01-08-2019 11:00:00 21.2 C 10.56 g/m*3 21.2 C 11.3 km/h
2150 01-08-2019 11:05:00 21.2 C 10.56 g/m*3 21.2 C 8.1 km/h
Sensor: Nr:Datum:Temp:Abs-Feuchte:Windchill:Wind:
Aussen-T/F 2151 01-08-2019 11:10:00 21.3 C 10.62 g/m*3 21.3 C 4.8 km/h
2152 01-08-2019 11:15:00 21.4 C 10.87 g/m*3 21.4 C 14.5 km/h
2153 01-08-2019 11:20:00 21.6 C 10.81 g/m*3 21.6 C 11.3 km/h
2154 01-08-2019 11:25:00 21.7 C 10.68 g/m*3 21.7 C 16.1 km/h
2155 01-08-2019 11:30:00 21.9 C 10.61 g/m*3 21.9 C 16.1 km/h
2156 01-08-2019 11:35:00 22.1 C 10.54 g/m*3 22.1 C 11.3 km/h
2157 01-08-2019 11:40:00 22 C 10.67 g/m*3 22 C 17.7 km/h
2158 01-08-2019 11:45:00 22.2 C 10.8 g/m*3 22.2 C 8.1 km/h
2159 01-08-2019 11:50:00 22.3 C 10.66 g/m*3 22.3 C 12.9 km/h
2160 01-08-2019 11:55:00 22.4 C 10.72 g/m*3 22.4 C 9.7 km/h
2161 01-08-2019 12:00:00 22.4 C 10.72 g/m*3 22.4 C 11.3 km/h
2162 01-08-2019 12:05:00 22.6 C 10.65 g/m*3 22.6 C 12.9 km/h
2163 01-08-2019 12:10:00 22.6 C 10.65 g/m*3 22.6 C 9.7 km/h
2164 01-08-2019 12:15:00 22.6 C 10.65 g/m*3 22.6 C 9.7 km/h
2165 01-08-2019 12:20:00 22.7 C 10.71 g/m*3 22.7 C 4.8 km/h
2166 01-08-2019 12:25:00 22.8 C 10.57 g/m*3 22.8 C 12.9 km/h
2167 01-08-2019 12:30:00 22.7 C 10.71 g/m*3 22.7 C 6.4 km/h
2168 01-08-2019 12:35:00 22.4 C 10.53 g/m*3 22.4 C 11.3 km/h
2169 01-08-2019 12:40:00 22.2 C 10.6 g/m*3 22.2 C 11.3 km/h
2170 01-08-2019 12:45:00 22.1 C 10.74 g/m*3 22.1 C 8.1 km/h
2171 01-08-2019 12:50:00 22.1 C 10.74 g/m*3 22.1 C 8.1 km/h
2172 01-08-2019 12:55:00 22.2 C 10.6 g/m*3 22.2 C 4.8 km/h
2173 01-08-2019 13:00:00 22.3 C 10.86 g/m*3 22.3 C 4.8 km/h
2174 01-08-2019 13:05:00 22.6 C 11.05 g/m*3 22.6 C 6.4 km/h
2175 01-08-2019 13:10:00 22.8 C 10.77 g/m*3 22.8 C 6.4 km/h
Sensor: Nr:Datum:Temp:Abs-Feuchte:Windchill:Wind:
Aussen-T/F 2176 01-08-2019 13:15:00 23.1 C 10.75 g/m*3 23.1 C 9.7 km/h
2177 01-08-2019 13:20:00 23.1 C 10.75 g/m*3 23.1 C 4.8 km/h
2178 01-08-2019 13:25:00 23.1 C 10.75 g/m*3 23.1 C 4.8 km/h
2179 01-08-2019 13:30:00 23.2 C 11.23 g/m*3 23.2 C 4.8 km/h
2180 01-08-2019 13:35:00 23.2 C 11.23 g/m*3 23.2 C 9.7 km/h
2181 01-08-2019 13:40:00 23.3 C 11.29 g/m*3 23.3 C 8.1 km/h
2182 01-08-2019 13:45:00 23.6 C 11.27 g/m*3 23.6 C 4.8 km/h
2183 01-08-2019 13:50:00 23.8 C 10.97 g/m*3 23.8 C 4.8 km/h
2184 01-08-2019 13:55:00 23.9 C 11.03 g/m*3 23.9 C 8.1 km/h
2185 01-08-2019 14:00:00 23.9 C 10.82 g/m*3 23.9 C 8.1 km/h
2186 01-08-2019 14:05:00 24.1 C 10.94 g/m*3 24.1 C 12.9 km/h
2187 01-08-2019 14:10:00 24.1 C 10.72 g/m*3 24.1 C 8.1 km/h
2188 01-08-2019 14:15:00 24.1 C 10.72 g/m*3 24.1 C 3.2 km/h
2189 01-08-2019 14:20:00 24.1 C 11.16 g/m*3 24.1 C 4.8 km/h
2190 01-08-2019 14:25:00 24.2 C 10.78 g/m*3 24.2 C 11.3 km/h
2191 01-08-2019 14:30:00 24.2 C 10.78 g/m*3 24.2 C 8.1 km/h
2192 01-08-2019 14:35:00 24.2 C 10.78 g/m*3 24.2 C 8.1 km/h
2193 01-08-2019 14:40:00 24.2 C 11 g/m*3 24.2 C 12.9 km/h
2194 01-08-2019 14:45:00 24.2 C 10.78 g/m*3 24.2 C 9.7 km/h
2195 01-08-2019 14:50:00 24.2 C 10.78 g/m*3 24.2 C 4.8 km/h
2196 01-08-2019 14:55:00 24.3 C 10.84 g/m*3 24.3 C 11.3 km/h
2197 01-08-2019 15:00:00 24.4 C 11.13 g/m*3 24.4 C 9.7 km/h
2198 01-08-2019 15:05:00 24.5 C 10.74 g/m*3 24.5 C 4.8 km/h
2199 01-08-2019 15:10:00 24.6 C 11.03 g/m*3 24.6 C 11.3 km/h
2200 01-08-2019 15:15:00 24.7 C 10.86 g/m*3 24.7 C 8.1 km/h
Sensor: Nr:Datum:Temp:Abs-Feuchte:Windchill:Wind:
Aussen-T/F 2201 01-08-2019 15:20:00 24.8 C 10.93 g/m*3 24.8 C 6.4 km/h
2202 01-08-2019 15:25:00 24.8 C 11.15 g/m*3 24.8 C 8.1 km/h
2203 01-08-2019 15:30:00 24.7 C 10.86 g/m*3 24.7 C 11.3 km/h
2204 01-08-2019 15:35:00 24.7 C 11.09 g/m*3 24.7 C 6.4 km/h
2205 01-08-2019 15:40:00 24.6 C 11.03 g/m*3 24.6 C 11.3 km/h
2206 01-08-2019 15:45:00 24.5 C 10.97 g/m*3 24.5 C 6.4 km/h
2207 01-08-2019 15:50:00 24.3 C 11.06 g/m*3 24.3 C 11.3 km/h
2208 01-08-2019 15:55:00 24.3 C 11.06 g/m*3 24.3 C 6.4 km/h
2209 01-08-2019 16:00:00 24.2 C 11.22 g/m*3 24.2 C 6.4 km/h
2210 01-08-2019 16:05:00 24.2 C 11.22 g/m*3 24.2 C 6.4 km/h
2211 01-08-2019 16:10:00 24.2 C 11.22 g/m*3 24.2 C 6.4 km/h
2212 01-08-2019 16:15:00 24.2 C 11.22 g/m*3 24.2 C 9.7 km/h
2213 01-08-2019 16:20:00 24.2 C 11.22 g/m*3 24.2 C 11.3 km/h
2214 01-08-2019 16:25:00 24.2 C 11.22 g/m*3 24.2 C 6.4 km/h
2215 01-08-2019 16:30:00 24.3 C 11.29 g/m*3 24.3 C 4.8 km/h
2216 01-08-2019 16:35:00 24.4 C 11.35 g/m*3 24.4 C 4.8 km/h
2217 01-08-2019 16:40:00 24.6 C 11.03 g/m*3 24.6 C 9.7 km/h
2218 01-08-2019 16:45:00 24.7 C 10.86 g/m*3 24.7 C 6.4 km/h
2219 01-08-2019 16:50:00 24.8 C 10.93 g/m*3 24.8 C 8.1 km/h
2220 01-08-2019 16:55:00 24.8 C 10.7 g/m*3 24.8 C 8.1 km/h
2221 01-08-2019 17:00:00 24.8 C 10.7 g/m*3 24.8 C 6.4 km/h
2222 01-08-2019 17:05:00 25 C 11.05 g/m*3 25 C 6.4 km/h
2223 01-08-2019 17:10:00 25 C 11.05 g/m*3 25 C 6.4 km/h
2224 01-08-2019 17:15:00 24.8 C 10.7 g/m*3 24.8 C 8.1 km/h
2225 01-08-2019 17:20:00 24.8 C 10.93 g/m*3 24.8 C 4.8 km/h
Sensor: Nr:Datum:Temp:Abs-Feuchte:Windchill:Wind:
Aussen-T/F 2226 01-08-2019 17:25:00 24.8 C 11.15 g/m*3 24.8 C 6.4 km/h
2227 01-08-2019 17:30:00 24.7 C 11.09 g/m*3 24.7 C 6.4 km/h
2228 01-08-2019 17:35:00 25 C 11.28 g/m*3 25 C 6.4 km/h
2229 01-08-2019 17:40:00 25.4 C 11.06 g/m*3 25.4 C 6.4 km/h
2230 01-08-2019 17:45:00 25.5 C 11.13 g/m*3 25.5 C 6.4 km/h
2231 01-08-2019 17:50:00 25.7 C 11.25 g/m*3 25.7 C 3.2 km/h
2232 01-08-2019 17:55:00 26.1 C 11.26 g/m*3 26.1 C 8.1 km/h
2233 01-08-2019 18:00:00 26.6 C 11.58 g/m*3 26.6 C 6.4 km/h
2234 01-08-2019 18:05:00 26.9 C 11.26 g/m*3 26.9 C 9.7 km/h
2235 01-08-2019 18:10:00 26.7 C 11.14 g/m*3 26.7 C 4.8 km/h
2236 01-08-2019 18:15:00 26.4 C 11.45 g/m*3 26.4 C 8.1 km/h
2237 01-08-2019 18:20:00 26.2 C 11.08 g/m*3 26.2 C 8.1 km/h
2238 01-08-2019 18:25:00 25.8 C 10.83 g/m*3 25.8 C 8.1 km/h
2239 01-08-2019 18:30:00 25.7 C 11.01 g/m*3 25.7 C 9.7 km/h
2240 01-08-2019 18:35:00 25.6 C 10.95 g/m*3 25.6 C 6.4 km/h
2241 01-08-2019 18:40:00 26.1 C 11.26 g/m*3 26.1 C 8.1 km/h
2242 01-08-2019 18:45:00 26.6 C 11.08 g/m*3 26.6 C 4.8 km/h
2243 01-08-2019 18:50:00 26.8 C 10.94 g/m*3 26.8 C 8.1 km/h
2244 01-08-2019 18:55:00 26.8 C 10.69 g/m*3 26.8 C 8.1 km/h
2245 01-08-2019 19:00:00 26.8 C 10.94 g/m*3 26.8 C 6.4 km/h
2246 01-08-2019 19:05:00 26.8 C 10.94 g/m*3 26.8 C 8.1 km/h
2247 01-08-2019 19:10:00 26.8 C 11.2 g/m*3 26.8 C 6.4 km/h
2248 01-08-2019 19:15:00 26.7 C 11.14 g/m*3 26.7 C 8.1 km/h
2249 01-08-2019 19:20:00 26.6 C 11.33 g/m*3 26.6 C 6.4 km/h
2250 01-08-2019 19:25:00 26.4 C 11.2 g/m*3 26.4 C 6.4 km/h
Sensor: Nr:Datum:Temp:Abs-Feuchte:Windchill:Wind:
Aussen-T/F 2251 01-08-2019 19:30:00 26.3 C 11.14 g/m*3 26.3 C 6.4 km/h
2252 01-08-2019 19:35:00 26.1 C 11.26 g/m*3 26.1 C 8.1 km/h
2253 01-08-2019 19:40:00 25.9 C 11.14 g/m*3 25.9 C 4.8 km/h
2254 01-08-2019 19:45:00 25.7 C 11.25 g/m*3 25.7 C 4.8 km/h
2255 01-08-2019 19:50:00 25.6 C 11.19 g/m*3 25.6 C 3.2 km/h
2256 01-08-2019 19:55:00 25.5 C 11.13 g/m*3 25.5 C 3.2 km/h
2257 01-08-2019 20:00:00 25.4 C 11.3 g/m*3 25.4 C 4.8 km/h
2258 01-08-2019 20:05:00 25.2 C 11.87 g/m*3 25.2 C 4.8 km/h
2259 01-08-2019 20:10:00 24.9 C 11.9 g/m*3 24.9 C 4.8 km/h
2260 01-08-2019 20:15:00 24.6 C 11.7 g/m*3 24.6 C 4.8 km/h
2261 01-08-2019 20:20:00 24.4 C 11.79 g/m*3 24.4 C 4.8 km/h
2262 01-08-2019 20:25:00 24.2 C 11.88 g/m*3 24.2 C 3.2 km/h
2263 01-08-2019 20:30:00 24 C 11.53 g/m*3 24 C 3.2 km/h
2264 01-08-2019 20:35:00 23.9 C 11.9 g/m*3 23.9 C 0 km/h
2265 01-08-2019 20:40:00 23.7 C 11.98 g/m*3 23.7 C 0 km/h
2266 01-08-2019 20:45:00 23.4 C 11.99 g/m*3 23.4 C 0 km/h
2267 01-08-2019 20:50:00 23 C 11.72 g/m*3 23 C 0 km/h
2268 01-08-2019 20:55:00 22.6 C 11.65 g/m*3 22.6 C 0 km/h
2269 01-08-2019 21:00:00 22.3 C 11.65 g/m*3 22.3 C 0 km/h
2270 01-08-2019 21:05:00 22.1 C 11.71 g/m*3 22.1 C 0 km/h
2271 01-08-2019 21:10:00 21.8 C 11.51 g/m*3 21.8 C 0 km/h
2272 01-08-2019 21:15:00 21.6 C 11.57 g/m*3 21.6 C 0 km/h
2273 01-08-2019 21:20:00 21.3 C 11.56 g/m*3 21.3 C 0 km/h
2274 01-08-2019 21:25:00 21.1 C 11.42 g/m*3 21.1 C 0 km/h
2275 01-08-2019 21:30:00 20.9 C 11.47 g/m*3 20.9 C 0 km/h
Sensor: Nr:Datum:Temp:Abs-Feuchte:Windchill:Wind:
Aussen-T/F 2276 01-08-2019 21:35:00 20.8 C 11.59 g/m*3 20.8 C 0 km/h
2277 01-08-2019 21:40:00 20.7 C 11.52 g/m*3 20.7 C 0 km/h
2278 01-08-2019 21:45:00 20.5 C 11.57 g/m*3 20.5 C 0 km/h
2279 01-08-2019 21:50:00 20.4 C 11.68 g/m*3 20.4 C 0 km/h
2280 01-08-2019 21:55:00 20.3 C 11.61 g/m*3 20.3 C 0 km/h
2281 01-08-2019 22:00:00 20.3 C 11.61 g/m*3 20.3 C 0 km/h
2282 01-08-2019 22:05:00 20.2 C 11.71 g/m*3 20.2 C 0 km/h
2283 01-08-2019 22:10:00 20.1 C 11.65 g/m*3 20.1 C 0 km/h
2284 01-08-2019 22:15:00 19.9 C 11.51 g/m*3 19.9 C 0 km/h
2285 01-08-2019 22:20:00 19.8 C 11.61 g/m*3 19.8 C 0 km/h
2286 01-08-2019 22:25:00 19.7 C 11.55 g/m*3 19.7 C 0 km/h
2287 01-08-2019 22:30:00 19.6 C 11.31 g/m*3 19.6 C 0 km/h
2288 01-08-2019 22:35:00 19.6 C 11.48 g/m*3 19.6 C 0 km/h
2289 01-08-2019 22:40:00 19.5 C 11.41 g/m*3 19.5 C 0 km/h
2290 01-08-2019 22:45:00 19.5 C 11.41 g/m*3 19.5 C 0 km/h
2291 01-08-2019 22:50:00 19.5 C 11.58 g/m*3 19.5 C 0 km/h
2292 01-08-2019 22:55:00 19.5 C 11.58 g/m*3 19.5 C 0 km/h
2293 01-08-2019 23:00:00 19.5 C 11.41 g/m*3 19.5 C 0 km/h
2294 01-08-2019 23:05:00 19.4 C 11.35 g/m*3 19.4 C 0 km/h
2295 01-08-2019 23:10:00 19.4 C 11.35 g/m*3 19.4 C 0 km/h
2296 01-08-2019 23:15:00 19.3 C 11.28 g/m*3 19.3 C 0 km/h
2297 01-08-2019 23:20:00 19.3 C 11.44 g/m*3 19.3 C 0 km/h
2298 01-08-2019 23:25:00 19.2 C 11.54 g/m*3 19.2 C 0 km/h
2299 01-08-2019 23:30:00 19.2 C 11.54 g/m*3 19.2 C 0 km/h
2300 01-08-2019 23:35:00 19.2 C 11.54 g/m*3 19.2 C 0 km/h
Sensor: Nr:Datum:Temp:Abs-Feuchte:Windchill:Wind:
Aussen-T/F 2301 01-08-2019 23:40:00 19.1 C 11.64 g/m*3 19.1 C 0 km/h
2302 01-08-2019 23:45:00 19.1 C 11.64 g/m*3 19.1 C 0 km/h
2303 01-08-2019 23:50:00 19.1 C 11.64 g/m*3 19.1 C 0 km/h
2304 01-08-2019 23:55:00 19.1 C 11.64 g/m*3 19.1 C 0 km/h
2305 02-08-2019 00:00:00 19.1 C 11.8 g/m*3 19.1 C 0 km/h
2306 02-08-2019 00:05:00 19.1 C 11.8 g/m*3 19.1 C 0 km/h
2307 02-08-2019 00:10:00 19 C 11.73 g/m*3 19 C 0 km/h
2308 02-08-2019 00:15:00 18.9 C 11.66 g/m*3 18.9 C 0 km/h
2309 02-08-2019 00:20:00 18.9 C 11.83 g/m*3 18.9 C 0 km/h
2310 02-08-2019 00:25:00 18.8 C 11.76 g/m*3 18.8 C 0 km/h
2311 02-08-2019 00:30:00 18.8 C 11.76 g/m*3 18.8 C 0 km/h
2312 02-08-2019 00:35:00 18.7 C 11.85 g/m*3 18.7 C 0 km/h
2313 02-08-2019 00:40:00 18.7 C 11.85 g/m*3 18.7 C 0 km/h
2314 02-08-2019 00:45:00 18.6 C 11.78 g/m*3 18.6 C 0 km/h
2315 02-08-2019 00:50:00 18.6 C 11.94 g/m*3 18.6 C 0 km/h
2316 02-08-2019 00:55:00 18.6 C 11.94 g/m*3 18.6 C 0 km/h
2317 02-08-2019 01:00:00 18.5 C 11.87 g/m*3 18.5 C 0 km/h
2318 02-08-2019 01:05:00 18.5 C 11.87 g/m*3 18.5 C 0 km/h
2319 02-08-2019 01:10:00 18.5 C 11.87 g/m*3 18.5 C 0 km/h
2320 02-08-2019 01:15:00 18.4 C 11.8 g/m*3 18.4 C 0 km/h
2321 02-08-2019 01:20:00 18.4 C 11.8 g/m*3 18.4 C 0 km/h
2322 02-08-2019 01:25:00 18.4 C 11.95 g/m*3 18.4 C 0 km/h
2323 02-08-2019 01:30:00 18.3 C 11.88 g/m*3 18.3 C 0 km/h
2324 02-08-2019 01:35:00 18.3 C 11.73 g/m*3 18.3 C 0 km/h
2325 02-08-2019 01:40:00 18.3 C 12.04 g/m*3 18.3 C 0 km/h
Sensor: Nr:Datum:Temp:Abs-Feuchte:Windchill:Wind:
Aussen-T/F 2326 02-08-2019 01:45:00 18.2 C 11.97 g/m*3 18.2 C 0 km/h
2327 02-08-2019 01:50:00 18.2 C 11.81 g/m*3 18.2 C 0 km/h
2328 02-08-2019 01:55:00 18.1 C 11.74 g/m*3 18.1 C 0 km/h
2329 02-08-2019 02:00:00 18.1 C 11.74 g/m*3 18.1 C 0 km/h
2330 02-08-2019 02:05:00 18.1 C 11.74 g/m*3 18.1 C 0 km/h
2331 02-08-2019 02:10:00 18 C 11.83 g/m*3 18 C 0 km/h
2332 02-08-2019 02:15:00 18 C 11.67 g/m*3 18 C 0 km/h
2333 02-08-2019 02:20:00 17.9 C 11.76 g/m*3 17.9 C 0 km/h
2334 02-08-2019 02:25:00 17.9 C 11.76 g/m*3 17.9 C 0 km/h
2335 02-08-2019 02:30:00 17.9 C 11.76 g/m*3 17.9 C 0 km/h
2336 02-08-2019 02:35:00 17.8 C 11.69 g/m*3 17.8 C 0 km/h
2337 02-08-2019 02:40:00 17.8 C 11.69 g/m*3 17.8 C 0 km/h
2338 02-08-2019 02:45:00 17.7 C 11.62 g/m*3 17.7 C 0 km/h
2339 02-08-2019 02:50:00 17.6 C 11.55 g/m*3 17.6 C 0 km/h
2340 02-08-2019 02:55:00 17.6 C 11.7 g/m*3 17.6 C 0 km/h
2341 02-08-2019 03:00:00 17.4 C 11.56 g/m*3 17.4 C 0 km/h
2342 02-08-2019 03:05:00 17.3 C 11.49 g/m*3 17.3 C 0 km/h
2343 02-08-2019 03:10:00 17.2 C 11.57 g/m*3 17.2 C 0 km/h
2344 02-08-2019 03:15:00 17.1 C 11.5 g/m*3 17.1 C 0 km/h
2345 02-08-2019 03:20:00 17.1 C 11.65 g/m*3 17.1 C 0 km/h
2346 02-08-2019 03:25:00 16.9 C 11.51 g/m*3 16.9 C 0 km/h
2347 02-08-2019 03:30:00 16.8 C 11.44 g/m*3 16.8 C 0 km/h
2348 02-08-2019 03:35:00 16.8 C 11.44 g/m*3 16.8 C 0 km/h
2349 02-08-2019 03:40:00 16.7 C 11.37 g/m*3 16.7 C 0 km/h
2350 02-08-2019 03:45:00 16.7 C 11.37 g/m*3 16.7 C 0 km/h
Sensor: Nr:Datum:Temp:Abs-Feuchte:Windchill:Wind:
Aussen-T/F 2351 02-08-2019 03:50:00 16.7 C 11.51 g/m*3 16.7 C 0 km/h
2352 02-08-2019 03:55:00 16.6 C 11.44 g/m*3 16.6 C 0 km/h
2353 02-08-2019 04:00:00 16.6 C 11.44 g/m*3 16.6 C 0 km/h
2354 02-08-2019 04:05:00 16.5 C 11.51 g/m*3 16.5 C 0 km/h
2355 02-08-2019 04:10:00 16.4 C 11.45 g/m*3 16.4 C 0 km/h
2356 02-08-2019 04:15:00 16.4 C 11.45 g/m*3 16.4 C 0 km/h
2357 02-08-2019 04:20:00 16.3 C 11.38 g/m*3 16.3 C 0 km/h
2358 02-08-2019 04:25:00 16.3 C 11.38 g/m*3 16.3 C 0 km/h
2359 02-08-2019 04:30:00 16.3 C 11.52 g/m*3 16.3 C 0 km/h
2360 02-08-2019 04:35:00 16.2 C 11.45 g/m*3 16.2 C 0 km/h
2361 02-08-2019 04:40:00 16.2 C 11.58 g/m*3 16.2 C 0 km/h
2362 02-08-2019 04:45:00 16.2 C 11.45 g/m*3 16.2 C 0 km/h
2363 02-08-2019 04:50:00 16.2 C 11.45 g/m*3 16.2 C 0 km/h
2364 02-08-2019 04:55:00 16.2 C 11.45 g/m*3 16.2 C 0 km/h
2365 02-08-2019 05:00:00 16.2 C 11.58 g/m*3 16.2 C 0 km/h
2366 02-08-2019 05:05:00 16.2 C 11.45 g/m*3 16.2 C 0 km/h
2367 02-08-2019 05:10:00 16.2 C 11.45 g/m*3 16.2 C 0 km/h
2368 02-08-2019 05:15:00 16.2 C 11.45 g/m*3 16.2 C 0 km/h
2369 02-08-2019 05:20:00 16.2 C 11.45 g/m*3 16.2 C 0 km/h
2370 02-08-2019 05:25:00 16.2 C 11.58 g/m*3 16.2 C 0 km/h
2371 02-08-2019 05:30:00 16.2 C 11.58 g/m*3 16.2 C 0 km/h
2372 02-08-2019 05:35:00 16.2 C 11.58 g/m*3 16.2 C 0 km/h
2373 02-08-2019 05:40:00 16.2 C 11.58 g/m*3 16.2 C 0 km/h
2374 02-08-2019 05:45:00 16.2 C 11.58 g/m*3 16.2 C 0 km/h
2375 02-08-2019 05:50:00 16.2 C 11.58 g/m*3 16.2 C 0 km/h
Sensor: Nr:Datum:Temp:Abs-Feuchte:Windchill:Wind:
Aussen-T/F 2376 02-08-2019 05:55:00 16.2 C 11.58 g/m*3 16.2 C 0 km/h
2377 02-08-2019 06:00:00 16.2 C 11.72 g/m*3 16.2 C 0 km/h
2378 02-08-2019 06:05:00 16.2 C 11.72 g/m*3 16.2 C 0 km/h
2379 02-08-2019 06:10:00 16.2 C 11.72 g/m*3 16.2 C 0 km/h
2380 02-08-2019 06:15:00 16.2 C 11.72 g/m*3 16.2 C 0 km/h
2381 02-08-2019 06:20:00 16.2 C 11.72 g/m*3 16.2 C 0 km/h
2382 02-08-2019 06:25:00 16.2 C 11.72 g/m*3 16.2 C 0 km/h
2383 02-08-2019 06:30:00 16.2 C 11.72 g/m*3 16.2 C 0 km/h
2384 02-08-2019 06:35:00 16.3 C 11.79 g/m*3 16.3 C 0 km/h
2385 02-08-2019 06:40:00 16.3 C 11.79 g/m*3 16.3 C 0 km/h
2386 02-08-2019 06:45:00 16.3 C 11.79 g/m*3 16.3 C 0 km/h
2387 02-08-2019 06:50:00 16.3 C 11.79 g/m*3 16.3 C 0 km/h
2388 02-08-2019 06:55:00 16.4 C 11.86 g/m*3 16.4 C 0 km/h
2389 02-08-2019 07:00:00 16.4 C 11.86 g/m*3 16.4 C 0 km/h
2390 02-08-2019 07:05:00 16.5 C 11.94 g/m*3 16.5 C 0 km/h
2391 02-08-2019 07:10:00 16.6 C 12.01 g/m*3 16.6 C 0 km/h
2392 02-08-2019 07:15:00 16.7 C 12.08 g/m*3 16.7 C 0 km/h
2393 02-08-2019 07:20:00 16.8 C 12.15 g/m*3 16.8 C 0 km/h
2394 02-08-2019 07:25:00 16.9 C 12.23 g/m*3 16.9 C 0 km/h
2395 02-08-2019 07:30:00 17 C 12.15 g/m*3 17 C 0 km/h
2396 02-08-2019 07:35:00 17.1 C 12.23 g/m*3 17.1 C 0 km/h
2397 02-08-2019 07:40:00 17.2 C 12.3 g/m*3 17.2 C 0 km/h
2398 02-08-2019 07:45:00 17.2 C 12.3 g/m*3 17.2 C 0 km/h
2399 02-08-2019 07:50:00 17.3 C 12.37 g/m*3 17.3 C 0 km/h
2400 02-08-2019 07:55:00 17.4 C 12.45 g/m*3 17.4 C 0 km/h
Sensor: Nr:Datum:Temp:Abs-Feuchte:Windchill:Wind:
Aussen-T/F 2401 02-08-2019 08:00:00 17.5 C 12.37 g/m*3 17.5 C 0 km/h
2402 02-08-2019 08:05:00 17.6 C 12.45 g/m*3 17.6 C 0 km/h
2403 02-08-2019 08:10:00 17.6 C 12.45 g/m*3 17.6 C 0 km/h
2404 02-08-2019 08:15:00 17.7 C 12.52 g/m*3 17.7 C 0 km/h
2405 02-08-2019 08:20:00 17.8 C 12.45 g/m*3 17.8 C 0 km/h
2406 02-08-2019 08:25:00 17.9 C 12.67 g/m*3 17.9 C 0 km/h
2407 02-08-2019 08:30:00 18 C 12.59 g/m*3 18 C 0 km/h
2408 02-08-2019 08:35:00 18.1 C 12.67 g/m*3 18.1 C 0 km/h
2409 02-08-2019 08:40:00 18.2 C 12.75 g/m*3 18.2 C 0 km/h
2410 02-08-2019 08:45:00 18.2 C 12.75 g/m*3 18.2 C 0 km/h
2411 02-08-2019 08:50:00 18.3 C 12.82 g/m*3 18.3 C 0 km/h
2412 02-08-2019 08:55:00 18.3 C 12.66 g/m*3 18.3 C 0 km/h
2413 02-08-2019 09:00:00 18.4 C 12.9 g/m*3 18.4 C 0 km/h
2414 02-08-2019 09:05:00 18.6 C 12.89 g/m*3 18.6 C 0 km/h
2415 02-08-2019 09:10:00 18.7 C 12.81 g/m*3 18.7 C 0 km/h
2416 02-08-2019 09:15:00 18.8 C 12.72 g/m*3 18.8 C 0 km/h
2417 02-08-2019 09:20:00 19 C 12.87 g/m*3 19 C 0 km/h
2418 02-08-2019 09:25:00 19.2 C 12.86 g/m*3 19.2 C 0 km/h
2419 02-08-2019 09:30:00 19.4 C 13.01 g/m*3 19.4 C 0 km/h
2420 02-08-2019 09:35:00 19.7 C 13.08 g/m*3 19.7 C 0 km/h
2421 02-08-2019 09:40:00 19.9 C 13.06 g/m*3 19.9 C 0 km/h
2422 02-08-2019 09:45:00 20.1 C 13.21 g/m*3 20.1 C 0 km/h
2423 02-08-2019 09:50:00 20.2 C 13.11 g/m*3 20.2 C 0 km/h
2424 02-08-2019 09:55:00 20.2 C 12.94 g/m*3 20.2 C 0 km/h
2425 02-08-2019 10:00:00 20.3 C 13.01 g/m*3 20.3 C 0 km/h
Sensor: Nr:Datum:Temp:Abs-Feuchte:Windchill:Wind:
Aussen-T/F 2426 02-08-2019 10:05:00 20.3 C 13.01 g/m*3 20.3 C 0 km/h
2427 02-08-2019 10:10:00 20.4 C 13.09 g/m*3 20.4 C 0 km/h
2428 02-08-2019 10:15:00 20.5 C 13.17 g/m*3 20.5 C 0 km/h
2429 02-08-2019 10:20:00 20.6 C 13.07 g/m*3 20.6 C 0 km/h
2430 02-08-2019 10:25:00 20.7 C 13.14 g/m*3 20.7 C 0 km/h
2431 02-08-2019 10:30:00 20.8 C 13.04 g/m*3 20.8 C 0 km/h
2432 02-08-2019 10:35:00 20.8 C 12.86 g/m*3 20.8 C 0 km/h
2433 02-08-2019 10:40:00 20.9 C 12.93 g/m*3 20.9 C 0 km/h
2434 02-08-2019 10:45:00 21 C 12.82 g/m*3 21 C 0 km/h
2435 02-08-2019 10:50:00 21.1 C 13.08 g/m*3 21.1 C 0 km/h
2436 02-08-2019 10:55:00 21.2 C 12.79 g/m*3 21.2 C 0 km/h
2437 02-08-2019 11:00:00 21.4 C 12.94 g/m*3 21.4 C 0 km/h
2438 02-08-2019 11:05:00 21.7 C 12.78 g/m*3 21.7 C 4.8 km/h
2439 02-08-2019 11:10:00 21.7 C 12.78 g/m*3 21.7 C 0 km/h
2440 02-08-2019 11:15:00 21.8 C 12.66 g/m*3 21.8 C 0 km/h
2441 02-08-2019 11:20:00 21.9 C 12.74 g/m*3 21.9 C 6.4 km/h
2442 02-08-2019 11:25:00 22.1 C 12.69 g/m*3 22.1 C 4.8 km/h
2443 02-08-2019 11:30:00 22.3 C 12.64 g/m*3 22.3 C 6.4 km/h
2444 02-08-2019 11:35:00 22.5 C 12.58 g/m*3 22.5 C 8.1 km/h
2445 02-08-2019 11:40:00 22.6 C 12.66 g/m*3 22.6 C 8.1 km/h
2446 02-08-2019 11:45:00 22.6 C 12.66 g/m*3 22.6 C 8.1 km/h
2447 02-08-2019 11:50:00 22.7 C 12.53 g/m*3 22.7 C 9.7 km/h
2448 02-08-2019 11:55:00 22.7 C 12.73 g/m*3 22.7 C 3.2 km/h
2449 02-08-2019 12:00:00 22.6 C 13.46 g/m*3 22.6 C 3.2 km/h
2450 02-08-2019 12:05:00 22.5 C 14.58 g/m*3 22.5 C 0 km/h
Sensor: Nr:Datum:Temp:Abs-Feuchte:Windchill:Wind:
Aussen-T/F 2451 02-08-2019 12:10:00 22.3 C 15.01 g/m*3 22.3 C 0 km/h
2452 02-08-2019 12:15:00 21.9 C 14.47 g/m*3 21.9 C 8.1 km/h
2453 02-08-2019 12:20:00 21.4 C 13.87 g/m*3 21.4 C 11.3 km/h
2454 02-08-2019 12:25:00 21.2 C 14.08 g/m*3 21.2 C 12.9 km/h
2455 02-08-2019 12:30:00 20.8 C 14.12 g/m*3 20.8 C 12.9 km/h
2456 02-08-2019 12:35:00 20.7 C 14.22 g/m*3 20.7 C 0 km/h
2457 02-08-2019 12:40:00 20.6 C 14.32 g/m*3 20.6 C 0 km/h
2458 02-08-2019 12:45:00 20.5 C 13.88 g/m*3 20.5 C 0 km/h
2459 02-08-2019 12:50:00 20.4 C 13.44 g/m*3 20.4 C 0 km/h
2460 02-08-2019 12:55:00 20.4 C 13.09 g/m*3 20.4 C 0 km/h
2461 02-08-2019 13:00:00 20.4 C 13.27 g/m*3 20.4 C 0 km/h
2462 02-08-2019 13:05:00 20.5 C 12.63 g/m*3 20.5 C 4.8 km/h
2463 02-08-2019 13:10:00 20.7 C 13.5 g/m*3 20.7 C 8.1 km/h
2464 02-08-2019 13:15:00 20.7 C 12.96 g/m*3 20.7 C 6.4 km/h
2465 02-08-2019 13:20:00 20.8 C 13.04 g/m*3 20.8 C 0 km/h
2466 02-08-2019 13:25:00 20.9 C 12.93 g/m*3 20.9 C 0 km/h
2467 02-08-2019 13:30:00 21.1 C 13.08 g/m*3 21.1 C 0 km/h
2468 02-08-2019 13:35:00 21.4 C 12.94 g/m*3 21.4 C 4.8 km/h
2469 02-08-2019 13:40:00 21.6 C 13.28 g/m*3 21.6 C 3.2 km/h
2470 02-08-2019 13:45:00 21.7 C 13.35 g/m*3 21.7 C 0 km/h
2471 02-08-2019 13:50:00 21.8 C 13.62 g/m*3 21.8 C 3.2 km/h
2472 02-08-2019 13:55:00 21.9 C 13.12 g/m*3 21.9 C 4.8 km/h
2473 02-08-2019 14:00:00 22 C 12.62 g/m*3 22 C 3.2 km/h
2474 02-08-2019 14:05:00 22.1 C 12.49 g/m*3 22.1 C 3.2 km/h
2475 02-08-2019 14:10:00 22.3 C 12.44 g/m*3 22.3 C 6.4 km/h
Sensor: Nr:Datum:Temp:Abs-Feuchte:Windchill:Wind:
Aussen-T/F 2476 02-08-2019 14:15:00 22.5 C 12.38 g/m*3 22.5 C 0 km/h
2477 02-08-2019 14:20:00 22.8 C 12.4 g/m*3 22.8 C 6.4 km/h
2478 02-08-2019 14:25:00 23 C 12.74 g/m*3 23 C 6.4 km/h
2479 02-08-2019 14:30:00 23.3 C 12.75 g/m*3 23.3 C 4.8 km/h
2480 02-08-2019 14:35:00 23.5 C 13.11 g/m*3 23.5 C 6.4 km/h
2481 02-08-2019 14:40:00 23.8 C 13.12 g/m*3 23.8 C 9.7 km/h
2482 02-08-2019 14:45:00 24.1 C 12.91 g/m*3 24.1 C 8.1 km/h
2483 02-08-2019 14:50:00 24.2 C 13.42 g/m*3 24.2 C 8.1 km/h
2484 02-08-2019 14:55:00 24.4 C 13.35 g/m*3 24.4 C 4.8 km/h
2485 02-08-2019 15:00:00 24.5 C 13.2 g/m*3 24.5 C 9.7 km/h
2486 02-08-2019 15:05:00 24.5 C 13.2 g/m*3 24.5 C 6.4 km/h
2487 02-08-2019 15:10:00 24.7 C 13.13 g/m*3 24.7 C 8.1 km/h
2488 02-08-2019 15:15:00 24.8 C 12.97 g/m*3 24.8 C 6.4 km/h
2489 02-08-2019 15:20:00 24.8 C 12.52 g/m*3 24.8 C 6.4 km/h
2490 02-08-2019 15:25:00 24.7 C 12.45 g/m*3 24.7 C 8.1 km/h
2491 02-08-2019 15:30:00 24.5 C 12.53 g/m*3 24.5 C 8.1 km/h
2492 02-08-2019 15:35:00 24.4 C 12.69 g/m*3 24.4 C 6.4 km/h
2493 02-08-2019 15:40:00 24.4 C 12.24 g/m*3 24.4 C 8.1 km/h
2494 02-08-2019 15:45:00 24.4 C 12.46 g/m*3 24.4 C 8.1 km/h
2495 02-08-2019 15:50:00 24.6 C 12.15 g/m*3 24.6 C 6.4 km/h
2496 02-08-2019 15:55:00 24.7 C 12.45 g/m*3 24.7 C 6.4 km/h
2497 02-08-2019 16:00:00 25.2 C 12.34 g/m*3 25.2 C 8.1 km/h
2498 02-08-2019 16:05:00 25.5 C 12.31 g/m*3 25.5 C 9.7 km/h
2499 02-08-2019 16:10:00 25.6 C 12.14 g/m*3 25.6 C 4.8 km/h
2500 02-08-2019 16:15:00 25.6 C 12.38 g/m*3 25.6 C 8.1 km/h
Sensor: Nr:Datum:Temp:Abs-Feuchte:Windchill:Wind:
Aussen-T/F 2501 02-08-2019 16:20:00 26.1 C 12.49 g/m*3 26.1 C 8.1 km/h
2502 02-08-2019 16:25:00 26.2 C 12.31 g/m*3 26.2 C 8.1 km/h
2503 02-08-2019 16:30:00 26.1 C 12 g/m*3 26.1 C 6.4 km/h
2504 02-08-2019 16:35:00 25.7 C 11.97 g/m*3 25.7 C 6.4 km/h
2505 02-08-2019 16:40:00 25.4 C 12.24 g/m*3 25.4 C 0 km/h
2506 02-08-2019 16:45:00 25.3 C 12.17 g/m*3 25.3 C 0 km/h
2507 02-08-2019 16:50:00 25.2 C 11.87 g/m*3 25.2 C 3.2 km/h
2508 02-08-2019 16:55:00 25.2 C 11.64 g/m*3 25.2 C 0 km/h
2509 02-08-2019 17:00:00 25.4 C 12.01 g/m*3 25.4 C 4.8 km/h
2510 02-08-2019 17:05:00 26.1 C 11.75 g/m*3 26.1 C 8.1 km/h
2511 02-08-2019 17:10:00 26.7 C 11.64 g/m*3 26.7 C 3.2 km/h
2512 02-08-2019 17:15:00 27.1 C 11.9 g/m*3 27.1 C 6.4 km/h
2513 02-08-2019 17:20:00 27.3 C 11.51 g/m*3 27.3 C 8.1 km/h
2514 02-08-2019 17:25:00 27.3 C 11.51 g/m*3 27.3 C 6.4 km/h
2515 02-08-2019 17:30:00 27.5 C 11.91 g/m*3 27.5 C 9.7 km/h
2516 02-08-2019 17:35:00 27.4 C 11.31 g/m*3 27.4 C 12.9 km/h
2517 02-08-2019 17:40:00 27 C 11.32 g/m*3 27 C 9.7 km/h
2518 02-08-2019 17:45:00 26.6 C 11.58 g/m*3 26.6 C 11.3 km/h
2519 02-08-2019 17:50:00 26.3 C 11.64 g/m*3 26.3 C 6.4 km/h
2520 02-08-2019 17:55:00 26 C 11.69 g/m*3 26 C 8.1 km/h
2521 02-08-2019 18:00:00 25.8 C 11.56 g/m*3 25.8 C 6.4 km/h
2522 02-08-2019 18:05:00 26 C 11.69 g/m*3 26 C 8.1 km/h
2523 02-08-2019 18:10:00 25.9 C 11.86 g/m*3 25.9 C 12.9 km/h
2524 02-08-2019 18:15:00 25.6 C 11.9 g/m*3 25.6 C 11.3 km/h
2525 02-08-2019 18:20:00 25.3 C 12.41 g/m*3 25.3 C 12.9 km/h
Sensor: Nr:Datum:Temp:Abs-Feuchte:Windchill:Wind:
Aussen-T/F 2526 02-08-2019 18:25:00 24.9 C 12.59 g/m*3 24.9 C 19.3 km/h
2527 02-08-2019 18:30:00 24.5 C 12.53 g/m*3 24.5 C 17.7 km/h
2528 02-08-2019 18:35:00 24.3 C 12.61 g/m*3 24.3 C 9.7 km/h
2529 02-08-2019 18:40:00 24.4 C 12.46 g/m*3 24.4 C 11.3 km/h
2530 02-08-2019 18:45:00 24.4 C 12.69 g/m*3 24.4 C 12.9 km/h
2531 02-08-2019 18:50:00 24.5 C 12.53 g/m*3 24.5 C 9.7 km/h
2532 02-08-2019 18:55:00 24.5 C 12.53 g/m*3 24.5 C 11.3 km/h
2533 02-08-2019 19:00:00 24.3 C 12.61 g/m*3 24.3 C 12.9 km/h
2534 02-08-2019 19:05:00 24.2 C 12.76 g/m*3 24.2 C 12.9 km/h
2535 02-08-2019 19:10:00 24 C 12.62 g/m*3 24 C 9.7 km/h
2536 02-08-2019 19:15:00 23.9 C 11.47 g/m*3 23.9 C 11.3 km/h
2537 02-08-2019 19:20:00 23.8 C 11.4 g/m*3 23.8 C 9.7 km/h
2538 02-08-2019 19:25:00 23.7 C 11.55 g/m*3 23.7 C 6.4 km/h
2539 02-08-2019 19:30:00 23.6 C 11.48 g/m*3 23.6 C 9.7 km/h
2540 02-08-2019 19:35:00 23.6 C 11.27 g/m*3 23.6 C 9.7 km/h
2541 02-08-2019 19:40:00 23.4 C 11.35 g/m*3 23.4 C 4.8 km/h
2542 02-08-2019 19:45:00 23.4 C 11.57 g/m*3 23.4 C 6.4 km/h
2543 02-08-2019 19:50:00 23.3 C 11.29 g/m*3 23.3 C 6.4 km/h
2544 02-08-2019 19:55:00 23.2 C 11.43 g/m*3 23.2 C 1.6 km/h
2545 02-08-2019 20:00:00 23.1 C 11.58 g/m*3 23.1 C 3.2 km/h
2546 02-08-2019 20:05:00 22.9 C 12.26 g/m*3 22.9 C 3.2 km/h
2547 02-08-2019 20:10:00 22.8 C 11.99 g/m*3 22.8 C 1.6 km/h
2548 02-08-2019 20:15:00 22.7 C 12.32 g/m*3 22.7 C 0 km/h
2549 02-08-2019 20:20:00 22.5 C 12.18 g/m*3 22.5 C 0 km/h
2550 02-08-2019 20:25:00 22.4 C 11.92 g/m*3 22.4 C 3.2 km/h
Sensor: Nr:Datum:Temp:Abs-Feuchte:Windchill:Wind:
Aussen-T/F 2551 02-08-2019 20:30:00 22.3 C 11.85 g/m*3 22.3 C 4.8 km/h
2552 02-08-2019 20:35:00 22.3 C 11.85 g/m*3 22.3 C 1.6 km/h
2553 02-08-2019 20:40:00 22.3 C 12.05 g/m*3 22.3 C 1.6 km/h
2554 02-08-2019 20:45:00 22.2 C 12.17 g/m*3 22.2 C 0 km/h
2555 02-08-2019 20:50:00 22.1 C 12.1 g/m*3 22.1 C 0 km/h
2556 02-08-2019 20:55:00 21.9 C 12.16 g/m*3 21.9 C 0 km/h
2557 02-08-2019 21:00:00 21.7 C 12.21 g/m*3 21.7 C 0 km/h
2558 02-08-2019 21:05:00 21.5 C 12.26 g/m*3 21.5 C 0 km/h
2559 02-08-2019 21:10:00 21.2 C 11.86 g/m*3 21.2 C 0 km/h
2560 02-08-2019 21:15:00 21.1 C 11.98 g/m*3 21.1 C 0 km/h
2561 02-08-2019 21:20:00 20.9 C 12.02 g/m*3 20.9 C 6.4 km/h
2562 02-08-2019 21:25:00 20.9 C 11.66 g/m*3 20.9 C 9.7 km/h
2563 02-08-2019 21:30:00 21.1 C 11.61 g/m*3 21.1 C 8.1 km/h
2564 02-08-2019 21:35:00 21.3 C 11.74 g/m*3 21.3 C 6.4 km/h
2565 02-08-2019 21:40:00 21.4 C 11.62 g/m*3 21.4 C 6.4 km/h
2566 02-08-2019 21:45:00 21.4 C 11.62 g/m*3 21.4 C 8.1 km/h
2567 02-08-2019 21:50:00 21.4 C 11.62 g/m*3 21.4 C 4.8 km/h
2568 02-08-2019 21:55:00 21.4 C 11.81 g/m*3 21.4 C 3.2 km/h
2569 02-08-2019 22:00:00 21.4 C 11.81 g/m*3 21.4 C 1.6 km/h
2570 02-08-2019 22:05:00 21.3 C 11.74 g/m*3 21.3 C 6.4 km/h
2571 02-08-2019 22:10:00 21.1 C 11.79 g/m*3 21.1 C 14.5 km/h
2572 02-08-2019 22:15:00 21 C 11.91 g/m*3 21 C 6.4 km/h
2573 02-08-2019 22:20:00 20.9 C 11.84 g/m*3 20.9 C 8.1 km/h
2574 02-08-2019 22:25:00 20.9 C 12.02 g/m*3 20.9 C 8.1 km/h
2575 02-08-2019 22:30:00 20.8 C 12.13 g/m*3 20.8 C 11.3 km/h
Sensor: Nr:Datum:Temp:Abs-Feuchte:Windchill:Wind:
Aussen-T/F 2576 02-08-2019 22:35:00 20.8 C 11.95 g/m*3 20.8 C 9.7 km/h
2577 02-08-2019 22:40:00 20.8 C 11.95 g/m*3 20.8 C 9.7 km/h
2578 02-08-2019 22:45:00 20.8 C 11.95 g/m*3 20.8 C 11.3 km/h
2579 02-08-2019 22:50:00 20.8 C 12.13 g/m*3 20.8 C 11.3 km/h
2580 02-08-2019 22:55:00 20.8 C 11.95 g/m*3 20.8 C 19.3 km/h
2581 02-08-2019 23:00:00 20.6 C 12.17 g/m*3 20.6 C 20.9 km/h
2582 02-08-2019 23:05:00 20.3 C 12.66 g/m*3 20.3 C 14.5 km/h
2583 02-08-2019 23:10:00 19.9 C 12.71 g/m*3 19.9 C 9.7 km/h
2584 02-08-2019 23:15:00 19.6 C 13 g/m*3 19.6 C 1.6 km/h
2585 02-08-2019 23:20:00 19.3 C 12.94 g/m*3 19.3 C 8.1 km/h
2586 02-08-2019 23:25:00 18.9 C 12.96 g/m*3 18.9 C 3.2 km/h
2587 02-08-2019 23:30:00 18.7 C 12.97 g/m*3 18.7 C 0 km/h
2588 02-08-2019 23:35:00 18.4 C 12.74 g/m*3 18.4 C 0 km/h
2589 02-08-2019 23:40:00 18.3 C 12.98 g/m*3 18.3 C 1.6 km/h
2590 02-08-2019 23:45:00 18.1 C 12.82 g/m*3 18.1 C 0 km/h
2591 02-08-2019 23:50:00 17.9 C 12.83 g/m*3 17.9 C 0 km/h
2592 02-08-2019 23:55:00 17.7 C 12.82 g/m*3 17.7 C 0 km/h
2593 03-08-2019 00:00:00 17.5 C 12.67 g/m*3 17.5 C 1.6 km/h
2594 03-08-2019 00:05:00 17.4 C 12.75 g/m*3 17.4 C 1.6 km/h
2595 03-08-2019 00:10:00 17.4 C 12.75 g/m*3 17.4 C 3.2 km/h
2596 03-08-2019 00:15:00 17.4 C 12.75 g/m*3 17.4 C 1.6 km/h
2597 03-08-2019 00:20:00 17.4 C 12.75 g/m*3 17.4 C 4.8 km/h
2598 03-08-2019 00:25:00 17.7 C 12.82 g/m*3 17.7 C 6.4 km/h
2599 03-08-2019 00:30:00 17.8 C 12.75 g/m*3 17.8 C 8.1 km/h
2600 03-08-2019 00:35:00 17.9 C 12.83 g/m*3 17.9 C 9.7 km/h
Sensor: Nr:Datum:Temp:Abs-Feuchte:Windchill:Wind:
Aussen-T/F 2601 03-08-2019 00:40:00 18.1 C 12.82 g/m*3 18.1 C 8.1 km/h
2602 03-08-2019 00:45:00 18.1 C 12.82 g/m*3 18.1 C 8.1 km/h
2603 03-08-2019 00:50:00 18.2 C 12.75 g/m*3 18.2 C 9.7 km/h
2604 03-08-2019 00:55:00 18.2 C 12.75 g/m*3 18.2 C 8.1 km/h
2605 03-08-2019 01:00:00 18.3 C 12.82 g/m*3 18.3 C 6.4 km/h
2606 03-08-2019 01:05:00 18.3 C 12.82 g/m*3 18.3 C 12.9 km/h
2607 03-08-2019 01:10:00 18.3 C 12.98 g/m*3 18.3 C 9.7 km/h
2608 03-08-2019 01:15:00 18.3 C 12.82 g/m*3 18.3 C 8.1 km/h
2609 03-08-2019 01:20:00 18.3 C 12.82 g/m*3 18.3 C 8.1 km/h
2610 03-08-2019 01:25:00 18.3 C 12.82 g/m*3 18.3 C 16.1 km/h
2611 03-08-2019 01:30:00 18.3 C 12.82 g/m*3 18.3 C 16.1 km/h
2612 03-08-2019 01:35:00 18.3 C 12.82 g/m*3 18.3 C 9.7 km/h
2613 03-08-2019 01:40:00 18.3 C 12.98 g/m*3 18.3 C 12.9 km/h
2614 03-08-2019 01:45:00 18.3 C 12.98 g/m*3 18.3 C 9.7 km/h
2615 03-08-2019 01:50:00 18.2 C 12.9 g/m*3 18.2 C 9.7 km/h
2616 03-08-2019 01:55:00 18.2 C 13.06 g/m*3 18.2 C 11.3 km/h
2617 03-08-2019 02:00:00 18.2 C 13.06 g/m*3 18.2 C 11.3 km/h
2618 03-08-2019 02:05:00 18.2 C 13.06 g/m*3 18.2 C 8.1 km/h
2619 03-08-2019 02:10:00 18.2 C 13.06 g/m*3 18.2 C 6.4 km/h
2620 03-08-2019 02:15:00 18.2 C 13.06 g/m*3 18.2 C 11.3 km/h
2621 03-08-2019 02:20:00 18.2 C 13.06 g/m*3 18.2 C 9.7 km/h
2622 03-08-2019 02:25:00 18.2 C 13.06 g/m*3 18.2 C 9.7 km/h
2623 03-08-2019 02:30:00 18.3 C 13.29 g/m*3 18.3 C 16.1 km/h
2624 03-08-2019 02:35:00 18.3 C 13.13 g/m*3 18.3 C 12.9 km/h
2625 03-08-2019 02:40:00 18.3 C 13.29 g/m*3 18.3 C 9.7 km/h
Sensor: Nr:Datum:Temp:Abs-Feuchte:Windchill:Wind:
Aussen-T/F 2626 03-08-2019 02:45:00 18.3 C 13.29 g/m*3 18.3 C 9.7 km/h
2627 03-08-2019 02:50:00 18.3 C 13.29 g/m*3 18.3 C 11.3 km/h
2628 03-08-2019 02:55:00 18.2 C 13.21 g/m*3 18.2 C 19.3 km/h
2629 03-08-2019 03:00:00 18.2 C 13.21 g/m*3 18.2 C 11.3 km/h
2630 03-08-2019 03:05:00 18.2 C 13.21 g/m*3 18.2 C 6.4 km/h
2631 03-08-2019 03:10:00 18.2 C 13.21 g/m*3 18.2 C 11.3 km/h
2632 03-08-2019 03:15:00 18.2 C 13.21 g/m*3 18.2 C 6.4 km/h
2633 03-08-2019 03:20:00 18.2 C 13.37 g/m*3 18.2 C 11.3 km/h
2634 03-08-2019 03:25:00 18.2 C 13.37 g/m*3 18.2 C 8.1 km/h
2635 03-08-2019 03:30:00 18.2 C 13.37 g/m*3 18.2 C 6.4 km/h
2636 03-08-2019 03:35:00 18.2 C 13.37 g/m*3 18.2 C 8.1 km/h
2637 03-08-2019 03:40:00 18.2 C 13.37 g/m*3 18.2 C 8.1 km/h
2638 03-08-2019 03:45:00 18.2 C 13.37 g/m*3 18.2 C 1.6 km/h
2639 03-08-2019 03:50:00 18.2 C 13.37 g/m*3 18.2 C 11.3 km/h
2640 03-08-2019 03:55:00 18.2 C 13.37 g/m*3 18.2 C 6.4 km/h
2641 03-08-2019 04:00:00 18.2 C 13.37 g/m*3 18.2 C 6.4 km/h
2642 03-08-2019 04:05:00 18.1 C 13.44 g/m*3 18.1 C 4.8 km/h
2643 03-08-2019 04:10:00 18.1 C 13.44 g/m*3 18.1 C 6.4 km/h
2644 03-08-2019 04:15:00 18.1 C 13.44 g/m*3 18.1 C 4.8 km/h
2645 03-08-2019 04:20:00 18.1 C 13.44 g/m*3 18.1 C 3.2 km/h
2646 03-08-2019 04:25:00 18.1 C 13.44 g/m*3 18.1 C 6.4 km/h
2647 03-08-2019 04:30:00 18.1 C 13.44 g/m*3 18.1 C 12.9 km/h
2648 03-08-2019 04:35:00 18.2 C 13.52 g/m*3 18.2 C 14.5 km/h
2649 03-08-2019 04:40:00 18.2 C 13.52 g/m*3 18.2 C 6.4 km/h
2650 03-08-2019 04:45:00 18.2 C 13.52 g/m*3 18.2 C 6.4 km/h
Sensor: Nr:Datum:Temp:Abs-Feuchte:Windchill:Wind:
Aussen-T/F 2651 03-08-2019 04:50:00 18.2 C 13.52 g/m*3 18.2 C 8.1 km/h
2652 03-08-2019 04:55:00 18.2 C 13.52 g/m*3 18.2 C 6.4 km/h
2653 03-08-2019 05:00:00 18.2 C 13.52 g/m*3 18.2 C 9.7 km/h
2654 03-08-2019 05:05:00 18.2 C 13.52 g/m*3 18.2 C 9.7 km/h
2655 03-08-2019 05:10:00 18.2 C 13.52 g/m*3 18.2 C 8.1 km/h
2656 03-08-2019 05:15:00 18.2 C 13.52 g/m*3 18.2 C 3.2 km/h
2657 03-08-2019 05:20:00 18.2 C 13.52 g/m*3 18.2 C 4.8 km/h
2658 03-08-2019 05:25:00 18.1 C 13.44 g/m*3 18.1 C 1.6 km/h
2659 03-08-2019 05:30:00 18.1 C 13.44 g/m*3 18.1 C 3.2 km/h
2660 03-08-2019 05:35:00 18.1 C 13.44 g/m*3 18.1 C 8.1 km/h
2661 03-08-2019 05:40:00 18.1 C 13.44 g/m*3 18.1 C 9.7 km/h
2662 03-08-2019 05:45:00 18.1 C 13.44 g/m*3 18.1 C 8.1 km/h
2663 03-08-2019 05:50:00 18.1 C 13.44 g/m*3 18.1 C 4.8 km/h
2664 03-08-2019 05:55:00 18.1 C 13.44 g/m*3 18.1 C 4.8 km/h
2665 03-08-2019 06:00:00 18 C 13.36 g/m*3 18 C 8.1 km/h
2666 03-08-2019 06:05:00 18 C 13.36 g/m*3 18 C 9.7 km/h
2667 03-08-2019 06:10:00 17.9 C 13.28 g/m*3 17.9 C 8.1 km/h
2668 03-08-2019 06:15:00 17.9 C 13.44 g/m*3 17.9 C 4.8 km/h
2669 03-08-2019 06:20:00 17.9 C 13.44 g/m*3 17.9 C 6.4 km/h
2670 03-08-2019 06:25:00 17.9 C 13.44 g/m*3 17.9 C 4.8 km/h
2671 03-08-2019 06:30:00 17.9 C 13.28 g/m*3 17.9 C 6.4 km/h
2672 03-08-2019 06:35:00 17.9 C 13.28 g/m*3 17.9 C 4.8 km/h
2673 03-08-2019 06:40:00 17.9 C 13.28 g/m*3 17.9 C 1.6 km/h
2674 03-08-2019 06:45:00 17.8 C 13.2 g/m*3 17.8 C 4.8 km/h
2675 03-08-2019 06:50:00 17.8 C 13.2 g/m*3 17.8 C 4.8 km/h
Sensor: Nr:Datum:Temp:Abs-Feuchte:Windchill:Wind:
Aussen-T/F 2676 03-08-2019 06:55:00 17.8 C 13.2 g/m*3 17.8 C 4.8 km/h
2677 03-08-2019 07:00:00 17.8 C 13.2 g/m*3 17.8 C 6.4 km/h
2678 03-08-2019 07:05:00 17.8 C 13.05 g/m*3 17.8 C 6.4 km/h
2679 03-08-2019 07:10:00 17.8 C 13.05 g/m*3 17.8 C 9.7 km/h
2680 03-08-2019 07:15:00 17.8 C 13.05 g/m*3 17.8 C 4.8 km/h
2681 03-08-2019 07:20:00 17.8 C 13.05 g/m*3 17.8 C 3.2 km/h
2682 03-08-2019 07:25:00 17.8 C 13.05 g/m*3 17.8 C 8.1 km/h
2683 03-08-2019 07:30:00 17.9 C 13.13 g/m*3 17.9 C 4.8 km/h
2684 03-08-2019 07:35:00 17.9 C 12.98 g/m*3 17.9 C 4.8 km/h
2685 03-08-2019 07:40:00 17.9 C 12.98 g/m*3 17.9 C 8.1 km/h
2686 03-08-2019 07:45:00 17.9 C 12.98 g/m*3 17.9 C 11.3 km/h
2687 03-08-2019 07:50:00 17.9 C 12.98 g/m*3 17.9 C 8.1 km/h
2688 03-08-2019 07:55:00 17.8 C 12.9 g/m*3 17.8 C 6.4 km/h
2689 03-08-2019 08:00:00 17.8 C 13.05 g/m*3 17.8 C 8.1 km/h
2690 03-08-2019 08:05:00 17.8 C 13.05 g/m*3 17.8 C 9.7 km/h
2691 03-08-2019 08:10:00 17.8 C 12.9 g/m*3 17.8 C 8.1 km/h
2692 03-08-2019 08:15:00 17.8 C 12.9 g/m*3 17.8 C 8.1 km/h
2693 03-08-2019 08:20:00 17.8 C 12.9 g/m*3 17.8 C 8.1 km/h
2694 03-08-2019 08:25:00 17.8 C 12.9 g/m*3 17.8 C 4.8 km/h
2695 03-08-2019 08:30:00 17.9 C 12.98 g/m*3 17.9 C 4.8 km/h
2696 03-08-2019 08:35:00 18 C 12.9 g/m*3 18 C 9.7 km/h
2697 03-08-2019 08:40:00 18.1 C 12.98 g/m*3 18.1 C 9.7 km/h
2698 03-08-2019 08:45:00 18.2 C 13.06 g/m*3 18.2 C 6.4 km/h
2699 03-08-2019 08:50:00 18.2 C 12.9 g/m*3 18.2 C 12.9 km/h
2700 03-08-2019 08:55:00 18.2 C 12.75 g/m*3 18.2 C 12.9 km/h
Sensor: Nr:Datum:Temp:Abs-Feuchte:Windchill:Wind:
Aussen-T/F 2701 03-08-2019 09:00:00 18.2 C 12.75 g/m*3 18.2 C 11.3 km/h
2702 03-08-2019 09:05:00 18.3 C 12.66 g/m*3 18.3 C 12.9 km/h
2703 03-08-2019 09:10:00 18.3 C 12.66 g/m*3 18.3 C 9.7 km/h
2704 03-08-2019 09:15:00 18.4 C 12.43 g/m*3 18.4 C 12.9 km/h
2705 03-08-2019 09:20:00 18.5 C 12.5 g/m*3 18.5 C 16.1 km/h
2706 03-08-2019 09:25:00 18.6 C 12.57 g/m*3 18.6 C 11.3 km/h
2707 03-08-2019 09:30:00 18.7 C 12.65 g/m*3 18.7 C 14.5 km/h
2708 03-08-2019 09:35:00 18.8 C 12.72 g/m*3 18.8 C 12.9 km/h
2709 03-08-2019 09:40:00 18.8 C 12.56 g/m*3 18.8 C 9.7 km/h
2710 03-08-2019 09:45:00 18.8 C 12.56 g/m*3 18.8 C 9.7 km/h
2711 03-08-2019 09:50:00 18.9 C 12.64 g/m*3 18.9 C 12.9 km/h
2712 03-08-2019 09:55:00 18.9 C 12.64 g/m*3 18.9 C 9.7 km/h
2713 03-08-2019 10:00:00 19.1 C 12.62 g/m*3 19.1 C 12.9 km/h
2714 03-08-2019 10:05:00 19.2 C 12.53 g/m*3 19.2 C 14.5 km/h
2715 03-08-2019 10:10:00 19.3 C 12.61 g/m*3 19.3 C 8.1 km/h
2716 03-08-2019 10:15:00 19.4 C 12.68 g/m*3 19.4 C 11.3 km/h
2717 03-08-2019 10:20:00 19.7 C 12.91 g/m*3 19.7 C 12.9 km/h
2718 03-08-2019 10:25:00 19.9 C 13.06 g/m*3 19.9 C 12.9 km/h
2719 03-08-2019 10:30:00 19.8 C 12.81 g/m*3 19.8 C 9.7 km/h
2720 03-08-2019 10:35:00 19.8 C 12.81 g/m*3 19.8 C 12.9 km/h
2721 03-08-2019 10:40:00 19.7 C 12.91 g/m*3 19.7 C 12.9 km/h
2722 03-08-2019 10:45:00 19.8 C 12.64 g/m*3 19.8 C 9.7 km/h
2723 03-08-2019 10:50:00 19.8 C 12.64 g/m*3 19.8 C 9.7 km/h
2724 03-08-2019 10:55:00 19.9 C 12.89 g/m*3 19.9 C 8.1 km/h
2725 03-08-2019 11:00:00 19.9 C 12.71 g/m*3 19.9 C 11.3 km/h
Sensor: Nr:Datum:Temp:Abs-Feuchte:Windchill:Wind:
Aussen-T/F 2726 03-08-2019 11:05:00 20 C 12.79 g/m*3 20 C 8.1 km/h
2727 03-08-2019 11:10:00 20 C 12.96 g/m*3 20 C 9.7 km/h
2728 03-08-2019 11:15:00 20.1 C 12.86 g/m*3 20.1 C 11.3 km/h
2729 03-08-2019 11:20:00 20.2 C 12.76 g/m*3 20.2 C 11.3 km/h
2730 03-08-2019 11:25:00 20.3 C 12.84 g/m*3 20.3 C 12.9 km/h
2731 03-08-2019 11:30:00 20.3 C 12.84 g/m*3 20.3 C 11.3 km/h
2732 03-08-2019 11:35:00 20.4 C 13.09 g/m*3 20.4 C 11.3 km/h
2733 03-08-2019 11:40:00 20.7 C 13.14 g/m*3 20.7 C 12.9 km/h
2734 03-08-2019 11:45:00 20.8 C 13.04 g/m*3 20.8 C 11.3 km/h
2735 03-08-2019 11:50:00 20.8 C 12.86 g/m*3 20.8 C 12.9 km/h
2736 03-08-2019 11:55:00 20.8 C 13.04 g/m*3 20.8 C 9.7 km/h
2737 03-08-2019 12:00:00 20.8 C 12.86 g/m*3 20.8 C 8.1 km/h
2738 03-08-2019 12:05:00 21 C 13.01 g/m*3 21 C 8.1 km/h
2739 03-08-2019 12:10:00 21.3 C 12.86 g/m*3 21.3 C 11.3 km/h
2740 03-08-2019 12:15:00 21.3 C 13.05 g/m*3 21.3 C 8.1 km/h
2741 03-08-2019 12:20:00 21.4 C 12.75 g/m*3 21.4 C 11.3 km/h
2742 03-08-2019 12:25:00 21.6 C 12.52 g/m*3 21.6 C 11.3 km/h
2743 03-08-2019 12:30:00 21.8 C 12.66 g/m*3 21.8 C 11.3 km/h
2744 03-08-2019 12:35:00 21.9 C 12.54 g/m*3 21.9 C 9.7 km/h
2745 03-08-2019 12:40:00 21.9 C 12.54 g/m*3 21.9 C 11.3 km/h
2746 03-08-2019 12:45:00 21.9 C 12.35 g/m*3 21.9 C 11.3 km/h
2747 03-08-2019 12:50:00 21.9 C 12.35 g/m*3 21.9 C 11.3 km/h
2748 03-08-2019 12:55:00 21.9 C 12.35 g/m*3 21.9 C 16.1 km/h
2749 03-08-2019 13:00:00 21.9 C 12.54 g/m*3 21.9 C 9.7 km/h
2750 03-08-2019 13:05:00 21.9 C 12.74 g/m*3 21.9 C 6.4 km/h
Sensor: Nr:Datum:Temp:Abs-Feuchte:Windchill:Wind:
Aussen-T/F 2751 03-08-2019 13:10:00 21.9 C 12.74 g/m*3 21.9 C 6.4 km/h
2752 03-08-2019 13:15:00 22.2 C 12.96 g/m*3 22.2 C 11.3 km/h
2753 03-08-2019 13:20:00 22.3 C 12.44 g/m*3 22.3 C 12.9 km/h
2754 03-08-2019 13:25:00 22.3 C 12.64 g/m*3 22.3 C 12.9 km/h
2755 03-08-2019 13:30:00 22.3 C 12.64 g/m*3 22.3 C 11.3 km/h
2756 03-08-2019 13:35:00 22.3 C 13.43 g/m*3 22.3 C 16.1 km/h
2757 03-08-2019 13:40:00 22 C 13.2 g/m*3 22 C 12.9 km/h
2758 03-08-2019 13:45:00 21.9 C 13.31 g/m*3 21.9 C 6.4 km/h
2759 03-08-2019 13:50:00 21.8 C 13.05 g/m*3 21.8 C 16.1 km/h
2760 03-08-2019 13:55:00 21.8 C 13.24 g/m*3 21.8 C 9.7 km/h
2761 03-08-2019 14:00:00 21.7 C 13.16 g/m*3 21.7 C 11.3 km/h
2762 03-08-2019 14:05:00 21.7 C 13.35 g/m*3 21.7 C 9.7 km/h
2763 03-08-2019 14:10:00 21.6 C 12.9 g/m*3 21.6 C 8.1 km/h
2764 03-08-2019 14:15:00 21.7 C 12.97 g/m*3 21.7 C 6.4 km/h
2765 03-08-2019 14:20:00 21.8 C 12.85 g/m*3 21.8 C 9.7 km/h
2766 03-08-2019 14:25:00 22 C 12.81 g/m*3 22 C 11.3 km/h
2767 03-08-2019 14:30:00 22.1 C 12.69 g/m*3 22.1 C 9.7 km/h
2768 03-08-2019 14:35:00 22.3 C 12.83 g/m*3 22.3 C 8.1 km/h
2769 03-08-2019 14:40:00 22.5 C 12.78 g/m*3 22.5 C 12.9 km/h
2770 03-08-2019 14:45:00 22.8 C 13 g/m*3 22.8 C 16.1 km/h
2771 03-08-2019 14:50:00 23.1 C 12.82 g/m*3 23.1 C 9.7 km/h
2772 03-08-2019 14:55:00 23.2 C 12.89 g/m*3 23.2 C 12.9 km/h
2773 03-08-2019 15:00:00 23.5 C 12.69 g/m*3 23.5 C 16.1 km/h
2774 03-08-2019 15:05:00 23.4 C 12.2 g/m*3 23.4 C 14.5 km/h
2775 03-08-2019 15:10:00 23.4 C 11.78 g/m*3 23.4 C 8.1 km/h
Sensor: Nr:Datum:Temp:Abs-Feuchte:Windchill:Wind:
Aussen-T/F 2776 03-08-2019 15:15:00 23.7 C 12.41 g/m*3 23.7 C 6.4 km/h
2777 03-08-2019 15:20:00 23.9 C 11.9 g/m*3 23.9 C 12.9 km/h
2778 03-08-2019 15:25:00 23.7 C 11.98 g/m*3 23.7 C 11.3 km/h
2779 03-08-2019 15:30:00 23.6 C 12.76 g/m*3 23.6 C 14.5 km/h
2780 03-08-2019 15:35:00 23.6 C 12.76 g/m*3 23.6 C 16.1 km/h
2781 03-08-2019 15:40:00 23.7 C 12.83 g/m*3 23.7 C 8.1 km/h
2782 03-08-2019 15:45:00 24.2 C 12.76 g/m*3 24.2 C 12.9 km/h
2783 03-08-2019 15:50:00 24.4 C 13.13 g/m*3 24.4 C 12.9 km/h
2784 03-08-2019 15:55:00 24.6 C 12.6 g/m*3 24.6 C 14.5 km/h
2785 03-08-2019 16:00:00 24.7 C 12.68 g/m*3 24.7 C 11.3 km/h
2786 03-08-2019 16:05:00 24.9 C 12.59 g/m*3 24.9 C 11.3 km/h
2787 03-08-2019 16:10:00 24.9 C 12.36 g/m*3 24.9 C 9.7 km/h
2788 03-08-2019 16:15:00 25 C 12.2 g/m*3 25 C 11.3 km/h
2789 03-08-2019 16:20:00 25.1 C 12.5 g/m*3 25.1 C 8.1 km/h
2790 03-08-2019 16:25:00 25.1 C 12.5 g/m*3 25.1 C 14.5 km/h
2791 03-08-2019 16:30:00 25.2 C 12.34 g/m*3 25.2 C 11.3 km/h
2792 03-08-2019 16:35:00 25.4 C 12.24 g/m*3 25.4 C 19.3 km/h
2793 03-08-2019 16:40:00 25.3 C 12.17 g/m*3 25.3 C 12.9 km/h
2794 03-08-2019 16:45:00 25.4 C 12.24 g/m*3 25.4 C 11.3 km/h
2795 03-08-2019 16:50:00 25.5 C 12.31 g/m*3 25.5 C 14.5 km/h
2796 03-08-2019 16:55:00 25.5 C 12.07 g/m*3 25.5 C 12.9 km/h
2797 03-08-2019 17:00:00 25.6 C 12.38 g/m*3 25.6 C 12.9 km/h
2798 03-08-2019 17:05:00 25.7 C 12.45 g/m*3 25.7 C 19.3 km/h
2799 03-08-2019 17:10:00 25.7 C 12.21 g/m*3 25.7 C 16.1 km/h
2800 03-08-2019 17:15:00 25.4 C 12.01 g/m*3 25.4 C 12.9 km/h
Sensor: Nr:Datum:Temp:Abs-Feuchte:Windchill:Wind:
Aussen-T/F 2801 03-08-2019 17:20:00 25.3 C 11.94 g/m*3 25.3 C 12.9 km/h
2802 03-08-2019 17:25:00 25.2 C 12.11 g/m*3 25.2 C 11.3 km/h
2803 03-08-2019 17:30:00 25.2 C 12.11 g/m*3 25.2 C 9.7 km/h
2804 03-08-2019 17:35:00 25.3 C 11.94 g/m*3 25.3 C 12.9 km/h
2805 03-08-2019 17:40:00 25.4 C 12.01 g/m*3 25.4 C 9.7 km/h
2806 03-08-2019 17:45:00 25.7 C 11.73 g/m*3 25.7 C 11.3 km/h
2807 03-08-2019 17:50:00 25.7 C 11.97 g/m*3 25.7 C 11.3 km/h
2808 03-08-2019 17:55:00 25.7 C 11.97 g/m*3 25.7 C 11.3 km/h
2809 03-08-2019 18:00:00 25.6 C 11.9 g/m*3 25.6 C 12.9 km/h
2810 03-08-2019 18:05:00 25.6 C 11.9 g/m*3 25.6 C 9.7 km/h
2811 03-08-2019 18:10:00 25.7 C 11.97 g/m*3 25.7 C 16.1 km/h
2812 03-08-2019 18:15:00 25.6 C 12.14 g/m*3 25.6 C 11.3 km/h
2813 03-08-2019 18:20:00 25.6 C 12.14 g/m*3 25.6 C 6.4 km/h
2814 03-08-2019 18:25:00 25.6 C 11.9 g/m*3 25.6 C 11.3 km/h
2815 03-08-2019 18:30:00 25.6 C 11.9 g/m*3 25.6 C 11.3 km/h
2816 03-08-2019 18:35:00 25.6 C 12.14 g/m*3 25.6 C 9.7 km/h
2817 03-08-2019 18:40:00 25.3 C 12.17 g/m*3 25.3 C 14.5 km/h
2818 03-08-2019 18:45:00 25.2 C 12.11 g/m*3 25.2 C 12.9 km/h
2819 03-08-2019 18:50:00 25.1 C 12.04 g/m*3 25.1 C 11.3 km/h
2820 03-08-2019 18:55:00 25.1 C 12.27 g/m*3 25.1 C 14.5 km/h
2821 03-08-2019 19:00:00 25.1 C 12.27 g/m*3 25.1 C 9.7 km/h
2822 03-08-2019 19:05:00 25.1 C 12.27 g/m*3 25.1 C 11.3 km/h
2823 03-08-2019 19:10:00 24.9 C 12.13 g/m*3 24.9 C 9.7 km/h
2824 03-08-2019 19:15:00 24.8 C 12.06 g/m*3 24.8 C 11.3 km/h
2825 03-08-2019 19:20:00 24.6 C 12.15 g/m*3 24.6 C 12.9 km/h
Sensor: Nr:Datum:Temp:Abs-Feuchte:Windchill:Wind:
Aussen-T/F 2826 03-08-2019 19:25:00 24.3 C 11.95 g/m*3 24.3 C 14.5 km/h
2827 03-08-2019 19:30:00 24.1 C 12.03 g/m*3 24.1 C 11.3 km/h
2828 03-08-2019 19:35:00 23.9 C 12.11 g/m*3 23.9 C 12.9 km/h
2829 03-08-2019 19:40:00 23.8 C 12.05 g/m*3 23.8 C 9.7 km/h
2830 03-08-2019 19:45:00 23.8 C 11.83 g/m*3 23.8 C 12.9 km/h
2831 03-08-2019 19:50:00 23.7 C 11.98 g/m*3 23.7 C 6.4 km/h
2832 03-08-2019 19:55:00 23.6 C 11.91 g/m*3 23.6 C 11.3 km/h
2833 03-08-2019 20:00:00 23.5 C 11.84 g/m*3 23.5 C 9.7 km/h
2834 03-08-2019 20:05:00 23.4 C 11.99 g/m*3 23.4 C 11.3 km/h
2835 03-08-2019 20:10:00 23.2 C 12.06 g/m*3 23.2 C 12.9 km/h
2836 03-08-2019 20:15:00 23 C 12.13 g/m*3 23 C 8.1 km/h
2837 03-08-2019 20:20:00 22.9 C 12.06 g/m*3 22.9 C 8.1 km/h
2838 03-08-2019 20:25:00 22.7 C 12.12 g/m*3 22.7 C 8.1 km/h
2839 03-08-2019 20:30:00 22.6 C 12.05 g/m*3 22.6 C 6.4 km/h
2840 03-08-2019 20:35:00 22.3 C 12.05 g/m*3 22.3 C 8.1 km/h
2841 03-08-2019 20:40:00 22.2 C 11.98 g/m*3 22.2 C 6.4 km/h
2842 03-08-2019 20:45:00 22 C 12.03 g/m*3 22 C 4.8 km/h
2843 03-08-2019 20:50:00 21.9 C 11.96 g/m*3 21.9 C 3.2 km/h
2844 03-08-2019 20:55:00 21.7 C 12.02 g/m*3 21.7 C 1.6 km/h
2845 03-08-2019 21:00:00 21.5 C 11.88 g/m*3 21.5 C 3.2 km/h
2846 03-08-2019 21:05:00 21.3 C 11.93 g/m*3 21.3 C 6.4 km/h
2847 03-08-2019 21:10:00 21.1 C 11.79 g/m*3 21.1 C 3.2 km/h
2848 03-08-2019 21:15:00 20.9 C 11.84 g/m*3 20.9 C 3.2 km/h
2849 03-08-2019 21:20:00 20.8 C 11.95 g/m*3 20.8 C 6.4 km/h
2850 03-08-2019 21:25:00 20.6 C 11.63 g/m*3 20.6 C 6.4 km/h
Sensor: Nr:Datum:Temp:Abs-Feuchte:Windchill:Wind:
Aussen-T/F 2851 03-08-2019 21:30:00 20.5 C 11.74 g/m*3 20.5 C 4.8 km/h
2852 03-08-2019 21:35:00 20.3 C 11.61 g/m*3 20.3 C 8.1 km/h
2853 03-08-2019 21:40:00 20.2 C 11.54 g/m*3 20.2 C 3.2 km/h
2854 03-08-2019 21:45:00 20.1 C 11.65 g/m*3 20.1 C 0 km/h
2855 03-08-2019 21:50:00 19.8 C 11.61 g/m*3 19.8 C 0 km/h
2856 03-08-2019 21:55:00 19.6 C 11.65 g/m*3 19.6 C 1.6 km/h
2857 03-08-2019 22:00:00 19.2 C 11.54 g/m*3 19.2 C 0 km/h
2858 03-08-2019 22:05:00 18.9 C 11.5 g/m*3 18.9 C 0 km/h
2859 03-08-2019 22:10:00 18.6 C 11.46 g/m*3 18.6 C 1.6 km/h
2860 03-08-2019 22:15:00 18.4 C 11.48 g/m*3 18.4 C 0 km/h
2861 03-08-2019 22:20:00 18.2 C 11.35 g/m*3 18.2 C 0 km/h
2862 03-08-2019 22:25:00 18.1 C 11.43 g/m*3 18.1 C 0 km/h
2863 03-08-2019 22:30:00 17.9 C 11.45 g/m*3 17.9 C 0 km/h
2864 03-08-2019 22:35:00 17.8 C 11.38 g/m*3 17.8 C 0 km/h
2865 03-08-2019 22:40:00 17.7 C 11.47 g/m*3 17.7 C 0 km/h
2866 03-08-2019 22:45:00 17.6 C 11.4 g/m*3 17.6 C 0 km/h
2867 03-08-2019 22:50:00 17.5 C 11.48 g/m*3 17.5 C 0 km/h
2868 03-08-2019 22:55:00 17.4 C 11.56 g/m*3 17.4 C 0 km/h
2869 03-08-2019 23:00:00 17.3 C 11.49 g/m*3 17.3 C 0 km/h
2870 03-08-2019 23:05:00 17.3 C 11.49 g/m*3 17.3 C 0 km/h
2871 03-08-2019 23:10:00 17.2 C 11.57 g/m*3 17.2 C 0 km/h
2872 03-08-2019 23:15:00 17.2 C 11.57 g/m*3 17.2 C 0 km/h
2873 03-08-2019 23:20:00 17.1 C 11.65 g/m*3 17.1 C 0 km/h
2874 03-08-2019 23:25:00 17.1 C 11.65 g/m*3 17.1 C 0 km/h
2875 03-08-2019 23:30:00 17.1 C 11.65 g/m*3 17.1 C 0 km/h
Sensor: Nr:Datum:Temp:Abs-Feuchte:Windchill:Wind:
Aussen-T/F 2876 03-08-2019 23:35:00 17 C 11.43 g/m*3 17 C 0 km/h
2877 03-08-2019 23:40:00 16.9 C 11.36 g/m*3 16.9 C 0 km/h
2878 03-08-2019 23:45:00 16.9 C 11.51 g/m*3 16.9 C 0 km/h
2879 03-08-2019 23:50:00 16.8 C 11.44 g/m*3 16.8 C 0 km/h
2880 03-08-2019 23:55:00 16.7 C 11.37 g/m*3 16.7 C 0 km/h
2881 04-08-2019 00:00:00 16.7 C 11.37 g/m*3 16.7 C 0 km/h
2882 04-08-2019 00:05:00 16.6 C 11.44 g/m*3 16.6 C 0 km/h
2883 04-08-2019 00:10:00 16.5 C 11.37 g/m*3 16.5 C 0 km/h
2884 04-08-2019 00:15:00 16.4 C 11.31 g/m*3 16.4 C 0 km/h
2885 04-08-2019 00:20:00 16.3 C 11.24 g/m*3 16.3 C 0 km/h
2886 04-08-2019 00:25:00 16.3 C 11.24 g/m*3 16.3 C 0 km/h
2887 04-08-2019 00:30:00 16.2 C 11.31 g/m*3 16.2 C 0 km/h
2888 04-08-2019 00:35:00 16.1 C 11.38 g/m*3 16.1 C 0 km/h
2889 04-08-2019 00:40:00 16.1 C 11.38 g/m*3 16.1 C 0 km/h
2890 04-08-2019 00:45:00 15.9 C 11.24 g/m*3 15.9 C 0 km/h
2891 04-08-2019 00:50:00 15.8 C 11.17 g/m*3 15.8 C 0 km/h
2892 04-08-2019 00:55:00 15.8 C 11.17 g/m*3 15.8 C 0 km/h
2893 04-08-2019 01:00:00 15.7 C 11.24 g/m*3 15.7 C 0 km/h
2894 04-08-2019 01:05:00 15.6 C 11.17 g/m*3 15.6 C 0 km/h
2895 04-08-2019 01:10:00 15.6 C 11.17 g/m*3 15.6 C 0 km/h
2896 04-08-2019 01:15:00 15.4 C 11.17 g/m*3 15.4 C 0 km/h
2897 04-08-2019 01:20:00 15.3 C 11.1 g/m*3 15.3 C 0 km/h
2898 04-08-2019 01:25:00 15.2 C 11.03 g/m*3 15.2 C 0 km/h
2899 04-08-2019 01:30:00 15.1 C 11.09 g/m*3 15.1 C 0 km/h
2900 04-08-2019 01:35:00 14.9 C 10.96 g/m*3 14.9 C 0 km/h
Sensor: Nr:Datum:Temp:Abs-Feuchte:Windchill:Wind:
Aussen-T/F 2901 04-08-2019 01:40:00 14.8 C 10.89 g/m*3 14.8 C 0 km/h
2902 04-08-2019 01:45:00 14.7 C 10.95 g/m*3 14.7 C 0 km/h
2903 04-08-2019 01:50:00 14.6 C 10.89 g/m*3 14.6 C 0 km/h
2904 04-08-2019 01:55:00 14.6 C 10.89 g/m*3 14.6 C 0 km/h
2905 04-08-2019 02:00:00 14.4 C 10.75 g/m*3 14.4 C 0 km/h
2906 04-08-2019 02:05:00 14.3 C 10.81 g/m*3 14.3 C 0 km/h
2907 04-08-2019 02:10:00 14.3 C 10.81 g/m*3 14.3 C 0 km/h
2908 04-08-2019 02:15:00 14.2 C 10.75 g/m*3 14.2 C 0 km/h
2909 04-08-2019 02:20:00 14.1 C 10.68 g/m*3 14.1 C 0 km/h
2910 04-08-2019 02:25:00 14 C 10.74 g/m*3 14 C 0 km/h
2911 04-08-2019 02:30:00 13.9 C 10.67 g/m*3 13.9 C 0 km/h
2912 04-08-2019 02:35:00 13.9 C 10.67 g/m*3 13.9 C 0 km/h
2913 04-08-2019 02:40:00 13.8 C 10.72 g/m*3 13.8 C 0 km/h
2914 04-08-2019 02:45:00 13.7 C 10.54 g/m*3 13.7 C 0 km/h
2915 04-08-2019 02:50:00 13.7 C 10.66 g/m*3 13.7 C 0 km/h
2916 04-08-2019 02:55:00 13.7 C 10.66 g/m*3 13.7 C 0 km/h
2917 04-08-2019 03:00:00 13.6 C 10.59 g/m*3 13.6 C 0 km/h
2918 04-08-2019 03:05:00 13.5 C 10.53 g/m*3 13.5 C 0 km/h
2919 04-08-2019 03:10:00 13.4 C 10.46 g/m*3 13.4 C 0 km/h
2920 04-08-2019 03:15:00 13.3 C 10.51 g/m*3 13.3 C 0 km/h
2921 04-08-2019 03:20:00 13.3 C 10.51 g/m*3 13.3 C 0 km/h
2922 04-08-2019 03:25:00 13.3 C 10.51 g/m*3 13.3 C 0 km/h
2923 04-08-2019 03:30:00 13.3 C 10.51 g/m*3 13.3 C 0 km/h
2924 04-08-2019 03:35:00 13.2 C 10.45 g/m*3 13.2 C 0 km/h
2925 04-08-2019 03:40:00 13.2 C 10.45 g/m*3 13.2 C 0 km/h
Sensor: Nr:Datum:Temp:Abs-Feuchte:Windchill:Wind:
Aussen-T/F 2926 04-08-2019 03:45:00 13.2 C 10.45 g/m*3 13.2 C 0 km/h
2927 04-08-2019 03:50:00 13.2 C 10.56 g/m*3 13.2 C 0 km/h
2928 04-08-2019 03:55:00 13.1 C 10.5 g/m*3 13.1 C 0 km/h
2929 04-08-2019 04:00:00 13.1 C 10.5 g/m*3 13.1 C 0 km/h
2930 04-08-2019 04:05:00 13.1 C 10.5 g/m*3 13.1 C 0 km/h
2931 04-08-2019 04:10:00 12.9 C 10.26 g/m*3 12.9 C 0 km/h
2932 04-08-2019 04:15:00 12.9 C 10.37 g/m*3 12.9 C 0 km/h
2933 04-08-2019 04:20:00 12.9 C 10.37 g/m*3 12.9 C 0 km/h
2934 04-08-2019 04:25:00 12.9 C 10.37 g/m*3 12.9 C 0 km/h
2935 04-08-2019 04:30:00 12.9 C 10.48 g/m*3 12.9 C 0 km/h
2936 04-08-2019 04:35:00 12.9 C 10.37 g/m*3 12.9 C 0 km/h
2937 04-08-2019 04:40:00 12.8 C 10.3 g/m*3 12.8 C 0 km/h
2938 04-08-2019 04:45:00 12.8 C 10.3 g/m*3 12.8 C 0 km/h
2939 04-08-2019 04:50:00 12.7 C 10.35 g/m*3 12.7 C 0 km/h
2940 04-08-2019 04:55:00 12.7 C 10.24 g/m*3 12.7 C 0 km/h
2941 04-08-2019 05:00:00 12.7 C 10.35 g/m*3 12.7 C 0 km/h
2942 04-08-2019 05:05:00 12.7 C 10.35 g/m*3 12.7 C 0 km/h
2943 04-08-2019 05:10:00 12.6 C 10.29 g/m*3 12.6 C 0 km/h
2944 04-08-2019 05:15:00 12.6 C 10.29 g/m*3 12.6 C 0 km/h
2945 04-08-2019 05:20:00 12.6 C 10.29 g/m*3 12.6 C 0 km/h
2946 04-08-2019 05:25:00 12.5 C 10.22 g/m*3 12.5 C 0 km/h
2947 04-08-2019 05:30:00 12.4 C 10.16 g/m*3 12.4 C 0 km/h
2948 04-08-2019 05:35:00 12.4 C 10.16 g/m*3 12.4 C 0 km/h
2949 04-08-2019 05:40:00 12.4 C 10.16 g/m*3 12.4 C 0 km/h
2950 04-08-2019 05:45:00 12.4 C 10.16 g/m*3 12.4 C 0 km/h
Sensor: Nr:Datum:Temp:Abs-Feuchte:Windchill:Wind:
Aussen-T/F 2951 04-08-2019 05:50:00 12.3 C 10.1 g/m*3 12.3 C 0 km/h
2952 04-08-2019 05:55:00 12.3 C 10.1 g/m*3 12.3 C 0 km/h
2953 04-08-2019 06:00:00 12.3 C 10.1 g/m*3 12.3 C 0 km/h
2954 04-08-2019 06:05:00 12.3 C 10.21 g/m*3 12.3 C 0 km/h
2955 04-08-2019 06:10:00 12.3 C 10.1 g/m*3 12.3 C 0 km/h
2956 04-08-2019 06:15:00 12.2 C 10.14 g/m*3 12.2 C 0 km/h
2957 04-08-2019 06:20:00 12.3 C 10.21 g/m*3 12.3 C 0 km/h
2958 04-08-2019 06:25:00 12.3 C 10.21 g/m*3 12.3 C 0 km/h
2959 04-08-2019 06:30:00 12.3 C 10.21 g/m*3 12.3 C 0 km/h
2960 04-08-2019 06:35:00 12.3 C 10.21 g/m*3 12.3 C 0 km/h
2961 04-08-2019 06:40:00 12.4 C 10.27 g/m*3 12.4 C 0 km/h
2962 04-08-2019 06:45:00 12.4 C 10.27 g/m*3 12.4 C 0 km/h
2963 04-08-2019 06:50:00 12.5 C 10.33 g/m*3 12.5 C 0 km/h
2964 04-08-2019 06:55:00 12.5 C 10.33 g/m*3 12.5 C 0 km/h
2965 04-08-2019 07:00:00 12.5 C 10.33 g/m*3 12.5 C 0 km/h
2966 04-08-2019 07:05:00 12.5 C 10.33 g/m*3 12.5 C 0 km/h
2967 04-08-2019 07:10:00 12.5 C 10.33 g/m*3 12.5 C 0 km/h
2968 04-08-2019 07:15:00 12.6 C 10.4 g/m*3 12.6 C 0 km/h
2969 04-08-2019 07:20:00 12.6 C 10.4 g/m*3 12.6 C 0 km/h
2970 04-08-2019 07:25:00 12.7 C 10.46 g/m*3 12.7 C 0 km/h
2971 04-08-2019 07:30:00 12.7 C 10.46 g/m*3 12.7 C 0 km/h
2972 04-08-2019 07:35:00 12.8 C 10.64 g/m*3 12.8 C 0 km/h
2973 04-08-2019 07:40:00 12.8 C 10.64 g/m*3 12.8 C 0 km/h
2974 04-08-2019 07:45:00 12.9 C 10.71 g/m*3 12.9 C 0 km/h
2975 04-08-2019 07:50:00 13 C 10.77 g/m*3 13 C 0 km/h
Sensor: Nr:Datum:Temp:Abs-Feuchte:Windchill:Wind:
Aussen-T/F 2976 04-08-2019 07:55:00 13.1 C 10.84 g/m*3 13.1 C 0 km/h
2977 04-08-2019 08:00:00 13.2 C 10.91 g/m*3 13.2 C 0 km/h
2978 04-08-2019 08:05:00 13.3 C 10.98 g/m*3 13.3 C 0 km/h
2979 04-08-2019 08:10:00 13.4 C 11.04 g/m*3 13.4 C 0 km/h
2980 04-08-2019 08:15:00 13.4 C 11.04 g/m*3 13.4 C 0 km/h
2981 04-08-2019 08:20:00 13.6 C 11.18 g/m*3 13.6 C 0 km/h
2982 04-08-2019 08:25:00 13.7 C 11.25 g/m*3 13.7 C 0 km/h
2983 04-08-2019 08:30:00 13.8 C 11.32 g/m*3 13.8 C 0 km/h
2984 04-08-2019 08:35:00 13.8 C 11.32 g/m*3 13.8 C 0 km/h
2985 04-08-2019 08:40:00 14 C 11.46 g/m*3 14 C 0 km/h
2986 04-08-2019 08:45:00 14.1 C 11.53 g/m*3 14.1 C 0 km/h
2987 04-08-2019 08:50:00 14.2 C 11.6 g/m*3 14.2 C 0 km/h
2988 04-08-2019 08:55:00 14.3 C 11.67 g/m*3 14.3 C 0 km/h
2989 04-08-2019 09:00:00 14.5 C 11.82 g/m*3 14.5 C 0 km/h
2990 04-08-2019 09:05:00 14.7 C 11.83 g/m*3 14.7 C 0 km/h
2991 04-08-2019 09:10:00 14.8 C 11.91 g/m*3 14.8 C 0 km/h
2992 04-08-2019 09:15:00 14.9 C 11.98 g/m*3 14.9 C 0 km/h
2993 04-08-2019 09:20:00 15.1 C 12.13 g/m*3 15.1 C 0 km/h
2994 04-08-2019 09:25:00 15.2 C 12.2 g/m*3 15.2 C 0 km/h
2995 04-08-2019 09:30:00 15.3 C 12.14 g/m*3 15.3 C 0 km/h
2996 04-08-2019 09:35:00 15.6 C 12.37 g/m*3 15.6 C 0 km/h
2997 04-08-2019 09:40:00 15.7 C 12.31 g/m*3 15.7 C 0 km/h
2998 04-08-2019 09:45:00 15.9 C 12.46 g/m*3 15.9 C 3.2 km/h
2999 04-08-2019 09:50:00 16.1 C 12.47 g/m*3 16.1 C 1.6 km/h
3000 04-08-2019 09:55:00 16.3 C 12.62 g/m*3 16.3 C 3.2 km/h
Sensor: Nr:Datum:Temp:Abs-Feuchte:Windchill:Wind:
Aussen-T/F 3001 04-08-2019 10:00:00 16.6 C 12.71 g/m*3 16.6 C 3.2 km/h
3002 04-08-2019 10:05:00 16.8 C 12.72 g/m*3 16.8 C 1.6 km/h
3003 04-08-2019 10:10:00 17 C 12.88 g/m*3 17 C 1.6 km/h
3004 04-08-2019 10:15:00 17.2 C 12.89 g/m*3 17.2 C 1.6 km/h
3005 04-08-2019 10:20:00 17.4 C 12.89 g/m*3 17.4 C 1.6 km/h
3006 04-08-2019 10:25:00 17.8 C 12.75 g/m*3 17.8 C 3.2 km/h
3007 04-08-2019 10:30:00 18.2 C 12.75 g/m*3 18.2 C 1.6 km/h
3008 04-08-2019 10:35:00 18.6 C 13.21 g/m*3 18.6 C 0 km/h
3009 04-08-2019 10:40:00 18.8 C 12.88 g/m*3 18.8 C 6.4 km/h
3010 04-08-2019 10:45:00 19.2 C 12.7 g/m*3 19.2 C 6.4 km/h
3011 04-08-2019 10:50:00 19.7 C 12.91 g/m*3 19.7 C 6.4 km/h
3012 04-08-2019 10:55:00 20 C 12.96 g/m*3 20 C 6.4 km/h
3013 04-08-2019 11:00:00 20.3 C 12.84 g/m*3 20.3 C 3.2 km/h
3014 04-08-2019 11:05:00 20.6 C 12.71 g/m*3 20.6 C 6.4 km/h
3015 04-08-2019 11:10:00 20.7 C 12.78 g/m*3 20.7 C 4.8 km/h
3016 04-08-2019 11:15:00 20.9 C 12.57 g/m*3 20.9 C 9.7 km/h
3017 04-08-2019 11:20:00 21.2 C 12.79 g/m*3 21.2 C 6.4 km/h
3018 04-08-2019 11:25:00 21.3 C 12.49 g/m*3 21.3 C 6.4 km/h
3019 04-08-2019 11:30:00 21.4 C 12.37 g/m*3 21.4 C 1.6 km/h
3020 04-08-2019 11:35:00 21.6 C 12.52 g/m*3 21.6 C 4.8 km/h
3021 04-08-2019 11:40:00 21.7 C 12.4 g/m*3 21.7 C 3.2 km/h
3022 04-08-2019 11:45:00 21.8 C 12.47 g/m*3 21.8 C 4.8 km/h
3023 04-08-2019 11:50:00 22 C 12.62 g/m*3 22 C 6.4 km/h
3024 04-08-2019 11:55:00 22.3 C 12.44 g/m*3 22.3 C 6.4 km/h
3025 04-08-2019 12:00:00 22.4 C 12.51 g/m*3 22.4 C 6.4 km/h
Sensor: Nr:Datum:Temp:Abs-Feuchte:Windchill:Wind:
Aussen-T/F 3026 04-08-2019 12:05:00 22.6 C 12.46 g/m*3 22.6 C 8.1 km/h
3027 04-08-2019 12:10:00 22.8 C 12.4 g/m*3 22.8 C 4.8 km/h
3028 04-08-2019 12:15:00 22.8 C 12.4 g/m*3 22.8 C 4.8 km/h
3029 04-08-2019 12:20:00 22.9 C 12.47 g/m*3 22.9 C 4.8 km/h
3030 04-08-2019 12:25:00 23.1 C 12.82 g/m*3 23.1 C 6.4 km/h
3031 04-08-2019 12:30:00 23.3 C 12.55 g/m*3 23.3 C 6.4 km/h
3032 04-08-2019 12:35:00 23.5 C 12.48 g/m*3 23.5 C 6.4 km/h
3033 04-08-2019 12:40:00 23.7 C 12.41 g/m*3 23.7 C 11.3 km/h
3034 04-08-2019 12:45:00 24 C 12.4 g/m*3 24 C 11.3 km/h
3035 04-08-2019 12:50:00 24.2 C 12.1 g/m*3 24.2 C 9.7 km/h
3036 04-08-2019 12:55:00 24.3 C 12.17 g/m*3 24.3 C 6.4 km/h
3037 04-08-2019 13:00:00 24.4 C 12.24 g/m*3 24.4 C 9.7 km/h
3038 04-08-2019 13:05:00 24.4 C 12.24 g/m*3 24.4 C 6.4 km/h
3039 04-08-2019 13:10:00 24.4 C 12.46 g/m*3 24.4 C 6.4 km/h
3040 04-08-2019 13:15:00 24.5 C 12.53 g/m*3 24.5 C 4.8 km/h
3041 04-08-2019 13:20:00 24.7 C 12.45 g/m*3 24.7 C 4.8 km/h
3042 04-08-2019 13:25:00 24.7 C 12.22 g/m*3 24.7 C 4.8 km/h
3043 04-08-2019 13:30:00 24.8 C 12.06 g/m*3 24.8 C 3.2 km/h
3044 04-08-2019 13:35:00 24.8 C 12.06 g/m*3 24.8 C 4.8 km/h
3045 04-08-2019 13:40:00 25 C 11.97 g/m*3 25 C 8.1 km/h
3046 04-08-2019 13:45:00 25.1 C 12.27 g/m*3 25.1 C 6.4 km/h
3047 04-08-2019 13:50:00 25.1 C 11.81 g/m*3 25.1 C 6.4 km/h
3048 04-08-2019 13:55:00 25.1 C 11.81 g/m*3 25.1 C 6.4 km/h
3049 04-08-2019 14:00:00 25.1 C 12.04 g/m*3 25.1 C 6.4 km/h
3050 04-08-2019 14:05:00 25.2 C 12.11 g/m*3 25.2 C 4.8 km/h
Sensor: Nr:Datum:Temp:Abs-Feuchte:Windchill:Wind:
Aussen-T/F 3051 04-08-2019 14:10:00 25.4 C 11.77 g/m*3 25.4 C 8.1 km/h
3052 04-08-2019 14:15:00 25.6 C 11.9 g/m*3 25.6 C 6.4 km/h
3053 04-08-2019 14:20:00 25.6 C 11.9 g/m*3 25.6 C 3.2 km/h
3054 04-08-2019 14:25:00 25.7 C 11.73 g/m*3 25.7 C 6.4 km/h
3055 04-08-2019 14:30:00 25.9 C 11.62 g/m*3 25.9 C 8.1 km/h
3056 04-08-2019 14:35:00 26.2 C 11.82 g/m*3 26.2 C 6.4 km/h
3057 04-08-2019 14:40:00 26.3 C 11.39 g/m*3 26.3 C 6.4 km/h
3058 04-08-2019 14:45:00 26.4 C 11.2 g/m*3 26.4 C 8.1 km/h
3059 04-08-2019 14:50:00 26.4 C 11.45 g/m*3 26.4 C 11.3 km/h
3060 04-08-2019 14:55:00 26.6 C 11.83 g/m*3 26.6 C 4.8 km/h
3061 04-08-2019 15:00:00 26.8 C 11.71 g/m*3 26.8 C 6.4 km/h
3062 04-08-2019 15:05:00 26.9 C 11.26 g/m*3 26.9 C 4.8 km/h
3063 04-08-2019 15:10:00 27.2 C 10.93 g/m*3 27.2 C 11.3 km/h
3064 04-08-2019 15:15:00 27.3 C 11.51 g/m*3 27.3 C 11.3 km/h
3065 04-08-2019 15:20:00 27.6 C 11.44 g/m*3 27.6 C 6.4 km/h
3066 04-08-2019 15:25:00 28.1 C 11.21 g/m*3 28.1 C 11.3 km/h
3067 04-08-2019 15:30:00 28.3 C 10.78 g/m*3 28.3 C 9.7 km/h
3068 04-08-2019 15:35:00 28.6 C 10.96 g/m*3 28.6 C 8.1 km/h
3069 04-08-2019 15:40:00 29 C 11.2 g/m*3 29 C 6.4 km/h
3070 04-08-2019 15:45:00 29.4 C 10.86 g/m*3 29.4 C 11.3 km/h
3071 04-08-2019 15:50:00 29.7 C 11.04 g/m*3 29.7 C 9.7 km/h
3072 04-08-2019 15:55:00 29.8 C 11.1 g/m*3 29.8 C 4.8 km/h
3073 04-08-2019 16:00:00 29.9 C 10.56 g/m*3 29.9 C 8.1 km/h
3074 04-08-2019 16:05:00 30.1 C 10.98 g/m*3 30.1 C 11.3 km/h
3075 04-08-2019 16:10:00 30.2 C 10.73 g/m*3 30.2 C 16.1 km/h
Sensor: Nr:Datum:Temp:Abs-Feuchte:Windchill:Wind:
Aussen-T/F 3076 04-08-2019 16:15:00 30.2 C 10.73 g/m*3 30.2 C 12.9 km/h
3077 04-08-2019 16:20:00 30.2 C 11.04 g/m*3 30.2 C 9.7 km/h
3078 04-08-2019 16:25:00 29.8 C 10.5 g/m*3 29.8 C 6.4 km/h
3079 04-08-2019 16:30:00 29.7 C 11.04 g/m*3 29.7 C 4.8 km/h
3080 04-08-2019 16:35:00 29.9 C 10.56 g/m*3 29.9 C 6.4 km/h
3081 04-08-2019 16:40:00 30.1 C 10.06 g/m*3 30.1 C 11.3 km/h
3082 04-08-2019 16:45:00 30.1 C 9.76 g/m*3 30.1 C 11.3 km/h
3083 04-08-2019 16:50:00 30.1 C 9.76 g/m*3 30.1 C 8.1 km/h
3084 04-08-2019 16:55:00 30.1 C 10.06 g/m*3 30.1 C 6.4 km/h
3085 04-08-2019 17:00:00 30.2 C 10.42 g/m*3 30.2 C 4.8 km/h
3086 04-08-2019 17:05:00 30.4 C 9.92 g/m*3 30.4 C 6.4 km/h
3087 04-08-2019 17:10:00 30.7 C 10.39 g/m*3 30.7 C 6.4 km/h
3088 04-08-2019 17:15:00 30.9 C 10.19 g/m*3 30.9 C 11.3 km/h
3089 04-08-2019 17:20:00 31 C 10.24 g/m*3 31 C 9.7 km/h
3090 04-08-2019 17:25:00 31.1 C 10.3 g/m*3 31.1 C 8.1 km/h
3091 04-08-2019 17:30:00 31.2 C 10.35 g/m*3 31.2 C 12.9 km/h
3092 04-08-2019 17:35:00 31.2 C 10.35 g/m*3 31.2 C 8.1 km/h
3093 04-08-2019 17:40:00 31.3 C 10.08 g/m*3 31.3 C 6.4 km/h
3094 04-08-2019 17:45:00 31.3 C 10.08 g/m*3 31.3 C 9.7 km/h
3095 04-08-2019 17:50:00 31.2 C 10.03 g/m*3 31.2 C 6.4 km/h
3096 04-08-2019 17:55:00 31 C 10.56 g/m*3 31 C 11.3 km/h
3097 04-08-2019 18:00:00 30.8 C 10.76 g/m*3 30.8 C 6.4 km/h
3098 04-08-2019 18:05:00 30.8 C 10.45 g/m*3 30.8 C 8.1 km/h
3099 04-08-2019 18:10:00 30.7 C 10.71 g/m*3 30.7 C 4.8 km/h
3100 04-08-2019 18:15:00 30.7 C 10.71 g/m*3 30.7 C 6.4 km/h
Sensor: Nr:Datum:Temp:Abs-Feuchte:Windchill:Wind:
Aussen-T/F 3101 04-08-2019 18:20:00 30.8 C 10.76 g/m*3 30.8 C 6.4 km/h
3102 04-08-2019 18:25:00 31.2 C 11 g/m*3 31.2 C 9.7 km/h
3103 04-08-2019 18:30:00 31.2 C 11.32 g/m*3 31.2 C 11.3 km/h
3104 04-08-2019 18:35:00 31 C 10.88 g/m*3 31 C 8.1 km/h
3105 04-08-2019 18:40:00 30.7 C 10.71 g/m*3 30.7 C 8.1 km/h
3106 04-08-2019 18:45:00 30.6 C 10.34 g/m*3 30.6 C 4.8 km/h
3107 04-08-2019 18:50:00 30.6 C 10.34 g/m*3 30.6 C 4.8 km/h
3108 04-08-2019 18:55:00 30.4 C 10.23 g/m*3 30.4 C 8.1 km/h
3109 04-08-2019 19:00:00 30.2 C 10.42 g/m*3 30.2 C 8.1 km/h
3110 04-08-2019 19:05:00 29.8 C 10.5 g/m*3 29.8 C 4.8 km/h
3111 04-08-2019 19:10:00 29.5 C 10.33 g/m*3 29.5 C 4.8 km/h
3112 04-08-2019 19:15:00 29.3 C 11.39 g/m*3 29.3 C 1.6 km/h
3113 04-08-2019 19:20:00 29.2 C 11.03 g/m*3 29.2 C 3.2 km/h
3114 04-08-2019 19:25:00 28.9 C 11.71 g/m*3 28.9 C 1.6 km/h
3115 04-08-2019 19:30:00 28.8 C 12.5 g/m*3 28.8 C 0 km/h
3116 04-08-2019 19:35:00 28.5 C 12.02 g/m*3 28.5 C 0 km/h
3117 04-08-2019 19:40:00 28.2 C 13.47 g/m*3 28.2 C 0 km/h
3118 04-08-2019 19:45:00 27.8 C 12.37 g/m*3 27.8 C 0 km/h
3119 04-08-2019 19:50:00 27.6 C 12.77 g/m*3 27.6 C 0 km/h
3120 04-08-2019 19:55:00 27.3 C 12.56 g/m*3 27.3 C 0 km/h
3121 04-08-2019 20:00:00 27.1 C 12.42 g/m*3 27.1 C 0 km/h
3122 04-08-2019 20:05:00 26.8 C 12.22 g/m*3 26.8 C 0 km/h
3123 04-08-2019 20:10:00 26.7 C 12.91 g/m*3 26.7 C 0 km/h
3124 04-08-2019 20:15:00 26.6 C 12.59 g/m*3 26.6 C 0 km/h
3125 04-08-2019 20:20:00 26.3 C 12.63 g/m*3 26.3 C 0 km/h
Sensor: Nr:Datum:Temp:Abs-Feuchte:Windchill:Wind:
Aussen-T/F 3126 04-08-2019 20:25:00 26.1 C 12.49 g/m*3 26.1 C 0 km/h
3127 04-08-2019 20:30:00 25.8 C 12.52 g/m*3 25.8 C 0 km/h
3128 04-08-2019 20:35:00 25.5 C 12.55 g/m*3 25.5 C 0 km/h
3129 04-08-2019 20:40:00 25.1 C 12.27 g/m*3 25.1 C 0 km/h
3130 04-08-2019 20:45:00 24.8 C 12.52 g/m*3 24.8 C 0 km/h
3131 04-08-2019 20:50:00 24.4 C 12.24 g/m*3 24.4 C 0 km/h
3132 04-08-2019 20:55:00 24.2 C 12.32 g/m*3 24.2 C 0 km/h
3133 04-08-2019 21:00:00 23.8 C 12.05 g/m*3 23.8 C 0 km/h
3134 04-08-2019 21:05:00 23.5 C 12.05 g/m*3 23.5 C 0 km/h
3135 04-08-2019 21:10:00 23.2 C 12.06 g/m*3 23.2 C 0 km/h
3136 04-08-2019 21:15:00 22.9 C 12.06 g/m*3 22.9 C 0 km/h
3137 04-08-2019 21:20:00 22.6 C 12.05 g/m*3 22.6 C 0 km/h
3138 04-08-2019 21:25:00 22.4 C 12.11 g/m*3 22.4 C 1.6 km/h
3139 04-08-2019 21:30:00 22.2 C 11.98 g/m*3 22.2 C 0 km/h
3140 04-08-2019 21:35:00 22.1 C 11.91 g/m*3 22.1 C 0 km/h
3141 04-08-2019 21:40:00 22 C 12.03 g/m*3 22 C 1.6 km/h
3142 04-08-2019 21:45:00 21.9 C 11.96 g/m*3 21.9 C 0 km/h
3143 04-08-2019 21:50:00 21.8 C 12.09 g/m*3 21.8 C 0 km/h
3144 04-08-2019 21:55:00 21.8 C 12.28 g/m*3 21.8 C 0 km/h
3145 04-08-2019 22:00:00 21.8 C 12.28 g/m*3 21.8 C 0 km/h
3146 04-08-2019 22:05:00 21.7 C 12.21 g/m*3 21.7 C 0 km/h
3147 04-08-2019 22:10:00 21.8 C 12.28 g/m*3 21.8 C 0 km/h
3148 04-08-2019 22:15:00 21.8 C 12.09 g/m*3 21.8 C 0 km/h
3149 04-08-2019 22:20:00 21.8 C 12.09 g/m*3 21.8 C 4.8 km/h
3150 04-08-2019 22:25:00 22 C 12.23 g/m*3 22 C 0 km/h
Sensor: Nr:Datum:Temp:Abs-Feuchte:Windchill:Wind:
Aussen-T/F 3151 04-08-2019 22:30:00 22.1 C 12.49 g/m*3 22.1 C 1.6 km/h
3152 04-08-2019 22:35:00 22.1 C 12.3 g/m*3 22.1 C 0 km/h
3153 04-08-2019 22:40:00 22.1 C 12.49 g/m*3 22.1 C 0 km/h
3154 04-08-2019 22:45:00 22.1 C 12.49 g/m*3 22.1 C 4.8 km/h
3155 04-08-2019 22:50:00 22.1 C 12.49 g/m*3 22.1 C 0 km/h
3156 04-08-2019 22:55:00 22.1 C 12.49 g/m*3 22.1 C 1.6 km/h
3157 04-08-2019 23:00:00 22.1 C 12.49 g/m*3 22.1 C 1.6 km/h
3158 04-08-2019 23:05:00 22.1 C 12.3 g/m*3 22.1 C 3.2 km/h
3159 04-08-2019 23:10:00 22.2 C 12.37 g/m*3 22.2 C 1.6 km/h
3160 04-08-2019 23:15:00 22.3 C 12.44 g/m*3 22.3 C 0 km/h
3161 04-08-2019 23:20:00 22.3 C 12.24 g/m*3 22.3 C 1.6 km/h
3162 04-08-2019 23:25:00 22.3 C 12.05 g/m*3 22.3 C 6.4 km/h
3163 04-08-2019 23:30:00 22.4 C 12.11 g/m*3 22.4 C 1.6 km/h
3164 04-08-2019 23:35:00 22.4 C 11.92 g/m*3 22.4 C 4.8 km/h
3165 04-08-2019 23:40:00 22.5 C 11.98 g/m*3 22.5 C 0 km/h
3166 04-08-2019 23:45:00 22.6 C 11.85 g/m*3 22.6 C 1.6 km/h
3167 04-08-2019 23:50:00 22.7 C 12.12 g/m*3 22.7 C 1.6 km/h
3168 04-08-2019 23:55:00 22.8 C 11.99 g/m*3 22.8 C 6.4 km/h
3169 05-08-2019 00:00:00 22.8 C 11.99 g/m*3 22.8 C 3.2 km/h
3170 05-08-2019 00:05:00 22.9 C 11.85 g/m*3 22.9 C 3.2 km/h
3171 05-08-2019 00:10:00 22.9 C 11.65 g/m*3 22.9 C 1.6 km/h
3172 05-08-2019 00:15:00 22.9 C 11.85 g/m*3 22.9 C 3.2 km/h
3173 05-08-2019 00:20:00 23 C 11.72 g/m*3 23 C 1.6 km/h
3174 05-08-2019 00:25:00 23 C 11.92 g/m*3 23 C 1.6 km/h
3175 05-08-2019 00:30:00 22.9 C 11.65 g/m*3 22.9 C 1.6 km/h
Sensor: Nr:Datum:Temp:Abs-Feuchte:Windchill:Wind:
Aussen-T/F 3176 05-08-2019 00:35:00 22.9 C 11.44 g/m*3 22.9 C 1.6 km/h
3177 05-08-2019 00:40:00 22.9 C 11.65 g/m*3 22.9 C 0 km/h
3178 05-08-2019 00:45:00 22.8 C 11.99 g/m*3 22.8 C 0 km/h
3179 05-08-2019 00:50:00 22.8 C 11.79 g/m*3 22.8 C 0 km/h
3180 05-08-2019 00:55:00 22.7 C 12.12 g/m*3 22.7 C 0 km/h
3181 05-08-2019 01:00:00 22.6 C 12.05 g/m*3 22.6 C 0 km/h
3182 05-08-2019 01:05:00 22.3 C 12.05 g/m*3 22.3 C 0 km/h
3183 05-08-2019 01:10:00 22.1 C 11.91 g/m*3 22.1 C 0 km/h
3184 05-08-2019 01:15:00 21.9 C 11.96 g/m*3 21.9 C 0 km/h
3185 05-08-2019 01:20:00 21.8 C 11.9 g/m*3 21.8 C 0 km/h
3186 05-08-2019 01:25:00 21.7 C 11.83 g/m*3 21.7 C 0 km/h
3187 05-08-2019 01:30:00 21.6 C 11.95 g/m*3 21.6 C 0 km/h
3188 05-08-2019 01:35:00 21.4 C 11.81 g/m*3 21.4 C 0 km/h
3189 05-08-2019 01:40:00 21.3 C 11.74 g/m*3 21.3 C 0 km/h
3190 05-08-2019 01:45:00 21.2 C 11.86 g/m*3 21.2 C 0 km/h
3191 05-08-2019 01:50:00 21.1 C 11.79 g/m*3 21.1 C 0 km/h
3192 05-08-2019 01:55:00 20.9 C 11.66 g/m*3 20.9 C 0 km/h
3193 05-08-2019 02:00:00 20.8 C 11.59 g/m*3 20.8 C 0 km/h
3194 05-08-2019 02:05:00 20.7 C 11.7 g/m*3 20.7 C 0 km/h
3195 05-08-2019 02:10:00 20.6 C 11.81 g/m*3 20.6 C 0 km/h
3196 05-08-2019 02:15:00 20.4 C 11.68 g/m*3 20.4 C 0 km/h
3197 05-08-2019 02:20:00 20.3 C 11.78 g/m*3 20.3 C 0 km/h
3198 05-08-2019 02:25:00 20.3 C 11.78 g/m*3 20.3 C 0 km/h
3199 05-08-2019 02:30:00 20.2 C 11.71 g/m*3 20.2 C 0 km/h
3200 05-08-2019 02:35:00 20.2 C 11.89 g/m*3 20.2 C 0 km/h
Sensor: Nr:Datum:Temp:Abs-Feuchte:Windchill:Wind:
Aussen-T/F 3201 05-08-2019 02:40:00 20.1 C 11.82 g/m*3 20.1 C 0 km/h